<?xml version="1.0" encoding="UTF-8" standalone="yes"?>
<gpx
 xmlns="http://www.topografix.com/GPX/1/1"
 creator="OziExplorer Version 3955k - http://www.oziexplorer.com"
 version="1.1"
 xmlns:xsi="http://www.w3.org/2001/XMLSchema-instance"
 xsi:schemaLocation="http://www.topografix.com/GPX/1/1 http://www.topografix.com/GPX/1/1/gpx.xsd">
<metadata>
 <time>2011-03-13T05:21:40Z</time>
 <bounds minlat="30.907490" minlon="34.643480" maxlat="31.779010" maxlon="35.380270"/>
</metadata>
<trk>
 <desc>ACTIVE LOG</desc>
<trkseg>
<trkpt lat="31.7790100" lon="34.6434800">
<ele>11.673218</ele>
<time>2011-03-08T05:30:10.000Z</time>
</trkpt>
<trkpt lat="31.7790100" lon="34.6434800">
<ele>11.673218</ele>
<time>2011-03-08T05:36:54.000Z</time>
</trkpt>
</trkseg>
<trkseg>
<trkpt lat="31.7790100" lon="34.6434800">
<ele>12.153809</ele>
<time>2011-03-08T05:38:05.000Z</time>
</trkpt>
<trkpt lat="31.7790100" lon="34.6434800">
<ele>12.153809</ele>
<time>2011-03-08T05:38:06.000Z</time>
</trkpt>
<trkpt lat="31.7790100" lon="34.6434800">
<ele>12.153809</ele>
<time>2011-03-08T05:38:11.000Z</time>
</trkpt>
</trkseg>
<trkseg>
<trkpt lat="31.7790100" lon="34.6434800">
<ele>12.153809</ele>
<time>2011-03-08T05:38:50.000Z</time>
</trkpt>
<trkpt lat="31.7790100" lon="34.6434800">
<ele>12.634399</ele>
<time>2011-03-08T05:38:51.000Z</time>
</trkpt>
<trkpt lat="31.7790100" lon="34.6434800">
<ele>12.634399</ele>
<time>2011-03-08T05:38:52.000Z</time>
</trkpt>
</trkseg>
<trkseg>
<trkpt lat="31.7790100" lon="34.6434800">
<ele>12.153809</ele>
<time>2011-03-08T18:51:51.000Z</time>
</trkpt>
<trkpt lat="31.7790100" lon="34.6434800">
<ele>11.673218</ele>
<time>2011-03-08T18:51:52.000Z</time>
</trkpt>
<trkpt lat="31.7790100" lon="34.6434800">
<ele>14.076416</ele>
<time>2011-03-08T18:52:12.000Z</time>
</trkpt>
<trkpt lat="31.7790100" lon="34.6434800">
<ele>10.711791</ele>
<time>2011-03-08T18:52:39.000Z</time>
</trkpt>
<trkpt lat="31.7790100" lon="34.6434800">
<ele>9.750610</ele>
<time>2011-03-08T18:52:42.000Z</time>
</trkpt>
<trkpt lat="31.7790100" lon="34.6434800">
<ele>12.153809</ele>
<time>2011-03-08T18:52:43.000Z</time>
</trkpt>
</trkseg>
<trkseg>
<trkpt lat="30.9344400" lon="35.3765600">
<ele>12.153809</ele>
<time>2011-03-12T06:31:24.000Z</time>
</trkpt>
<trkpt lat="30.9345800" lon="35.3764900">
<ele>-432.936676</ele>
<time>2011-03-12T06:31:33.000Z</time>
</trkpt>
<trkpt lat="30.9345800" lon="35.3764900">
<ele>-432.936676</ele>
<time>2011-03-12T06:31:34.000Z</time>
</trkpt>
<trkpt lat="30.9345700" lon="35.3765000">
<ele>-429.572021</ele>
<time>2011-03-12T06:32:44.000Z</time>
</trkpt>
<trkpt lat="30.9345700" lon="35.3765000">
<ele>-426.687988</ele>
<time>2011-03-12T06:33:55.000Z</time>
</trkpt>
<trkpt lat="30.9345700" lon="35.3765000">
<ele>-423.804077</ele>
<time>2011-03-12T06:35:17.000Z</time>
</trkpt>
<trkpt lat="30.9345700" lon="35.3765000">
<ele>-421.881500</ele>
<time>2011-03-12T06:36:01.000Z</time>
</trkpt>
<trkpt lat="30.9345700" lon="35.3765100">
<ele>-418.997406</ele>
<time>2011-03-12T06:37:24.000Z</time>
</trkpt>
<trkpt lat="30.9345700" lon="35.3765100">
<ele>-416.113647</ele>
<time>2011-03-12T06:38:46.000Z</time>
</trkpt>
<trkpt lat="30.9345600" lon="35.3765100">
<ele>-412.748901</ele>
<time>2011-03-12T06:40:15.000Z</time>
</trkpt>
<trkpt lat="30.9345600" lon="35.3765100">
<ele>-409.864990</ele>
<time>2011-03-12T06:41:49.000Z</time>
</trkpt>
<trkpt lat="30.9345600" lon="35.3765100">
<ele>-406.980957</ele>
<time>2011-03-12T06:43:11.000Z</time>
</trkpt>
<trkpt lat="30.9345600" lon="35.3765200">
<ele>-404.097046</ele>
<time>2011-03-12T06:45:13.000Z</time>
</trkpt>
<trkpt lat="30.9345600" lon="35.3765200">
<ele>-400.732513</ele>
<time>2011-03-12T06:46:57.000Z</time>
</trkpt>
<trkpt lat="30.9345600" lon="35.3765200">
<ele>-397.848389</ele>
<time>2011-03-12T06:49:06.000Z</time>
</trkpt>
<trkpt lat="30.9345600" lon="35.3765200">
<ele>-396.406494</ele>
<time>2011-03-12T06:49:54.000Z</time>
</trkpt>
<trkpt lat="30.9345900" lon="35.3765200">
<ele>-397.367767</ele>
<time>2011-03-12T06:49:57.000Z</time>
</trkpt>
<trkpt lat="30.9346000" lon="35.3764800">
<ele>-395.925781</ele>
<time>2011-03-12T06:50:10.000Z</time>
</trkpt>
<trkpt lat="30.9345200" lon="35.3763700">
<ele>-394.964630</ele>
<time>2011-03-12T06:50:21.000Z</time>
</trkpt>
<trkpt lat="30.9345000" lon="35.3763600">
<ele>-394.964630</ele>
<time>2011-03-12T06:50:23.000Z</time>
</trkpt>
<trkpt lat="30.9344200" lon="35.3762200">
<ele>-393.041992</ele>
<time>2011-03-12T06:50:35.000Z</time>
</trkpt>
<trkpt lat="30.9346500" lon="35.3758500">
<ele>-393.041992</ele>
<time>2011-03-12T06:50:51.000Z</time>
</trkpt>
<trkpt lat="30.9350200" lon="35.3754400">
<ele>-393.522583</ele>
<time>2011-03-12T06:51:05.000Z</time>
</trkpt>
<trkpt lat="30.9352700" lon="35.3753200">
<ele>-391.599823</ele>
<time>2011-03-12T06:51:17.000Z</time>
</trkpt>
<trkpt lat="30.9352700" lon="35.3753200">
<ele>-391.599823</ele>
<time>2011-03-12T06:51:27.000Z</time>
</trkpt>
<trkpt lat="30.9355900" lon="35.3751300">
<ele>-393.041992</ele>
<time>2011-03-12T06:51:39.000Z</time>
</trkpt>
<trkpt lat="30.9362900" lon="35.3745700">
<ele>-396.406494</ele>
<time>2011-03-12T06:51:56.000Z</time>
</trkpt>
<trkpt lat="30.9363300" lon="35.3745400">
<ele>-396.406494</ele>
<time>2011-03-12T06:51:57.000Z</time>
</trkpt>
<trkpt lat="30.9364400" lon="35.3744200">
<ele>-394.964630</ele>
<time>2011-03-12T06:52:00.000Z</time>
</trkpt>
<trkpt lat="30.9370100" lon="35.3737800">
<ele>-394.964630</ele>
<time>2011-03-12T06:52:14.000Z</time>
</trkpt>
<trkpt lat="30.9376200" lon="35.3730100">
<ele>-394.964630</ele>
<time>2011-03-12T06:52:28.000Z</time>
</trkpt>
<trkpt lat="30.9382800" lon="35.3722600">
<ele>-394.483917</ele>
<time>2011-03-12T06:52:45.000Z</time>
</trkpt>
<trkpt lat="30.9388400" lon="35.3716900">
<ele>-394.003174</ele>
<time>2011-03-12T06:53:00.000Z</time>
</trkpt>
<trkpt lat="30.9393500" lon="35.3711900">
<ele>-391.119263</ele>
<time>2011-03-12T06:53:17.000Z</time>
</trkpt>
<trkpt lat="30.9398400" lon="35.3707000">
<ele>-389.677246</ele>
<time>2011-03-12T06:53:35.000Z</time>
</trkpt>
<trkpt lat="30.9404100" lon="35.3704600">
<ele>-388.715942</ele>
<time>2011-03-12T06:53:51.000Z</time>
</trkpt>
<trkpt lat="30.9406700" lon="35.3703800">
<ele>-390.157837</ele>
<time>2011-03-12T06:53:59.000Z</time>
</trkpt>
<trkpt lat="30.9407800" lon="35.3703100">
<ele>-388.235229</ele>
<time>2011-03-12T06:54:03.000Z</time>
</trkpt>
<trkpt lat="30.9412200" lon="35.3698100">
<ele>-387.274048</ele>
<time>2011-03-12T06:54:21.000Z</time>
</trkpt>
<trkpt lat="30.9414900" lon="35.3690500">
<ele>-385.832031</ele>
<time>2011-03-12T06:54:39.000Z</time>
</trkpt>
<trkpt lat="30.9415700" lon="35.3689600">
<ele>-386.312592</ele>
<time>2011-03-12T06:54:42.000Z</time>
</trkpt>
<trkpt lat="30.9417300" lon="35.3689000">
<ele>-387.274048</ele>
<time>2011-03-12T06:54:46.000Z</time>
</trkpt>
<trkpt lat="30.9420000" lon="35.3686600">
<ele>-390.638550</ele>
<time>2011-03-12T06:54:54.000Z</time>
</trkpt>
<trkpt lat="30.9426800" lon="35.3679900">
<ele>-388.235229</ele>
<time>2011-03-12T06:55:14.000Z</time>
</trkpt>
<trkpt lat="30.9432700" lon="35.3675400">
<ele>-384.870728</ele>
<time>2011-03-12T06:55:32.000Z</time>
</trkpt>
<trkpt lat="30.9439700" lon="35.3669600">
<ele>-384.390015</ele>
<time>2011-03-12T06:55:56.000Z</time>
</trkpt>
<trkpt lat="30.9442200" lon="35.3667300">
<ele>-384.870728</ele>
<time>2011-03-12T06:56:03.000Z</time>
</trkpt>
<trkpt lat="30.9448900" lon="35.3660500">
<ele>-385.351440</ele>
<time>2011-03-12T06:56:22.000Z</time>
</trkpt>
<trkpt lat="30.9452400" lon="35.3656900">
<ele>-385.351440</ele>
<time>2011-03-12T06:56:33.000Z</time>
</trkpt>
<trkpt lat="30.9455200" lon="35.3654300">
<ele>-385.351440</ele>
<time>2011-03-12T06:56:41.000Z</time>
</trkpt>
<trkpt lat="30.9463900" lon="35.3648700">
<ele>-386.793335</ele>
<time>2011-03-12T06:57:02.000Z</time>
</trkpt>
<trkpt lat="30.9465900" lon="35.3647500">
<ele>-387.274048</ele>
<time>2011-03-12T06:57:07.000Z</time>
</trkpt>
<trkpt lat="30.9471800" lon="35.3643800">
<ele>-384.870728</ele>
<time>2011-03-12T06:57:22.000Z</time>
</trkpt>
<trkpt lat="30.9476700" lon="35.3640900">
<ele>-385.351440</ele>
<time>2011-03-12T06:57:33.000Z</time>
</trkpt>
<trkpt lat="30.9485100" lon="35.3635700">
<ele>-382.467285</ele>
<time>2011-03-12T06:57:55.000Z</time>
</trkpt>
<trkpt lat="30.9494400" lon="35.3630300">
<ele>-380.544647</ele>
<time>2011-03-12T06:58:22.000Z</time>
</trkpt>
<trkpt lat="30.9498800" lon="35.3628500">
<ele>-380.544647</ele>
<time>2011-03-12T06:58:34.000Z</time>
</trkpt>
<trkpt lat="30.9504600" lon="35.3627600">
<ele>-383.909302</ele>
<time>2011-03-12T06:58:48.000Z</time>
</trkpt>
<trkpt lat="30.9505000" lon="35.3627600">
<ele>-383.909302</ele>
<time>2011-03-12T06:58:49.000Z</time>
</trkpt>
<trkpt lat="30.9514200" lon="35.3626700">
<ele>-386.312592</ele>
<time>2011-03-12T06:59:09.000Z</time>
</trkpt>
<trkpt lat="30.9522200" lon="35.3628500">
<ele>-388.715942</ele>
<time>2011-03-12T06:59:26.000Z</time>
</trkpt>
<trkpt lat="30.9532000" lon="35.3633000">
<ele>-392.080566</ele>
<time>2011-03-12T06:59:47.000Z</time>
</trkpt>
<trkpt lat="30.9537900" lon="35.3635700">
<ele>-392.561279</ele>
<time>2011-03-12T06:59:59.000Z</time>
</trkpt>
<trkpt lat="30.9541800" lon="35.3636300">
<ele>-393.041992</ele>
<time>2011-03-12T07:00:07.000Z</time>
</trkpt>
<trkpt lat="30.9553500" lon="35.3636300">
<ele>-396.406494</ele>
<time>2011-03-12T07:00:33.000Z</time>
</trkpt>
<trkpt lat="30.9553900" lon="35.3636300">
<ele>-396.887207</ele>
<time>2011-03-12T07:00:34.000Z</time>
</trkpt>
<trkpt lat="30.9564400" lon="35.3636200">
<ele>-397.848389</ele>
<time>2011-03-12T07:00:56.000Z</time>
</trkpt>
<trkpt lat="30.9573500" lon="35.3636000">
<ele>-397.848389</ele>
<time>2011-03-12T07:01:18.000Z</time>
</trkpt>
<trkpt lat="30.9573900" lon="35.3636100">
<ele>-398.329102</ele>
<time>2011-03-12T07:01:20.000Z</time>
</trkpt>
<trkpt lat="30.9573600" lon="35.3634700">
<ele>-397.848389</ele>
<time>2011-03-12T07:01:31.000Z</time>
</trkpt>
<trkpt lat="30.9573500" lon="35.3634300">
<ele>-397.848389</ele>
<time>2011-03-12T07:01:33.000Z</time>
</trkpt>
<trkpt lat="30.9572700" lon="35.3632300">
<ele>-397.848389</ele>
<time>2011-03-12T07:01:42.000Z</time>
</trkpt>
<trkpt lat="30.9571500" lon="35.3628800">
<ele>-396.406494</ele>
<time>2011-03-12T07:01:57.000Z</time>
</trkpt>
<trkpt lat="30.9571300" lon="35.3628100">
<ele>-395.925781</ele>
<time>2011-03-12T07:02:01.000Z</time>
</trkpt>
<trkpt lat="30.9570900" lon="35.3627400">
<ele>-395.925781</ele>
<time>2011-03-12T07:02:05.000Z</time>
</trkpt>
<trkpt lat="30.9570100" lon="35.3624300">
<ele>-394.964630</ele>
<time>2011-03-12T07:02:19.000Z</time>
</trkpt>
<trkpt lat="30.9568700" lon="35.3622800">
<ele>-394.483917</ele>
<time>2011-03-12T07:02:33.000Z</time>
</trkpt>
<trkpt lat="30.9568600" lon="35.3622200">
<ele>-394.003174</ele>
<time>2011-03-12T07:02:48.000Z</time>
</trkpt>
<trkpt lat="30.9568300" lon="35.3621400">
<ele>-393.522583</ele>
<time>2011-03-12T07:03:42.000Z</time>
</trkpt>
<trkpt lat="30.9568000" lon="35.3618400">
<ele>-391.599823</ele>
<time>2011-03-12T07:03:58.000Z</time>
</trkpt>
<trkpt lat="30.9567400" lon="35.3614700">
<ele>-390.157837</ele>
<time>2011-03-12T07:04:10.000Z</time>
</trkpt>
<trkpt lat="30.9566500" lon="35.3611700">
<ele>-390.157837</ele>
<time>2011-03-12T07:04:25.000Z</time>
</trkpt>
<trkpt lat="30.9566400" lon="35.3611700">
<ele>-390.638550</ele>
<time>2011-03-12T07:04:32.000Z</time>
</trkpt>
<trkpt lat="30.9565600" lon="35.3610900">
<ele>-389.196686</ele>
<time>2011-03-12T07:04:49.000Z</time>
</trkpt>
<trkpt lat="30.9565600" lon="35.3610800">
<ele>-388.715942</ele>
<time>2011-03-12T07:04:51.000Z</time>
</trkpt>
<trkpt lat="30.9565500" lon="35.3608400">
<ele>-385.832031</ele>
<time>2011-03-12T07:05:04.000Z</time>
</trkpt>
<trkpt lat="30.9565400" lon="35.3607000">
<ele>-384.390015</ele>
<time>2011-03-12T07:05:12.000Z</time>
</trkpt>
<trkpt lat="30.9566000" lon="35.3603700">
<ele>-384.870728</ele>
<time>2011-03-12T07:05:28.000Z</time>
</trkpt>
<trkpt lat="30.9565300" lon="35.3602800">
<ele>-384.390015</ele>
<time>2011-03-12T07:05:32.000Z</time>
</trkpt>
<trkpt lat="30.9565000" lon="35.3601200">
<ele>-381.025360</ele>
<time>2011-03-12T07:05:38.000Z</time>
</trkpt>
<trkpt lat="30.9565000" lon="35.3601100">
<ele>-381.025360</ele>
<time>2011-03-12T07:05:39.000Z</time>
</trkpt>
<trkpt lat="30.9565000" lon="35.3600300">
<ele>-379.102783</ele>
<time>2011-03-12T07:05:44.000Z</time>
</trkpt>
<trkpt lat="30.9564500" lon="35.3597000">
<ele>-379.583496</ele>
<time>2011-03-12T07:05:58.000Z</time>
</trkpt>
<trkpt lat="30.9563900" lon="35.3594200">
<ele>-379.583496</ele>
<time>2011-03-12T07:06:09.000Z</time>
</trkpt>
<trkpt lat="30.9563200" lon="35.3591000">
<ele>-379.583496</ele>
<time>2011-03-12T07:06:21.000Z</time>
</trkpt>
<trkpt lat="30.9562100" lon="35.3587900">
<ele>-378.622070</ele>
<time>2011-03-12T07:06:32.000Z</time>
</trkpt>
<trkpt lat="30.9561200" lon="35.3583400">
<ele>-378.622070</ele>
<time>2011-03-12T07:06:46.000Z</time>
</trkpt>
<trkpt lat="30.9559600" lon="35.3579600">
<ele>-379.102783</ele>
<time>2011-03-12T07:06:57.000Z</time>
</trkpt>
<trkpt lat="30.9558700" lon="35.3578500">
<ele>-378.622070</ele>
<time>2011-03-12T07:07:06.000Z</time>
</trkpt>
<trkpt lat="30.9557000" lon="35.3576900">
<ele>-377.180176</ele>
<time>2011-03-12T07:08:19.000Z</time>
</trkpt>
<trkpt lat="30.9552800" lon="35.3572900">
<ele>-376.699463</ele>
<time>2011-03-12T07:08:34.000Z</time>
</trkpt>
<trkpt lat="30.9552600" lon="35.3572700">
<ele>-376.699463</ele>
<time>2011-03-12T07:08:35.000Z</time>
</trkpt>
<trkpt lat="30.9550100" lon="35.3568500">
<ele>-375.738159</ele>
<time>2011-03-12T07:08:47.000Z</time>
</trkpt>
<trkpt lat="30.9548200" lon="35.3563900">
<ele>-375.257416</ele>
<time>2011-03-12T07:08:57.000Z</time>
</trkpt>
<trkpt lat="30.9547000" lon="35.3562100">
<ele>-375.738159</ele>
<time>2011-03-12T07:09:01.000Z</time>
</trkpt>
<trkpt lat="30.9541700" lon="35.3555500">
<ele>-373.815552</ele>
<time>2011-03-12T07:09:16.000Z</time>
</trkpt>
<trkpt lat="30.9541200" lon="35.3555100">
<ele>-373.815552</ele>
<time>2011-03-12T07:09:17.000Z</time>
</trkpt>
<trkpt lat="30.9538900" lon="35.3553800">
<ele>-373.334839</ele>
<time>2011-03-12T07:09:22.000Z</time>
</trkpt>
<trkpt lat="30.9536900" lon="35.3549600">
<ele>-372.373535</ele>
<time>2011-03-12T07:09:33.000Z</time>
</trkpt>
<trkpt lat="30.9536300" lon="35.3547200">
<ele>-372.373535</ele>
<time>2011-03-12T07:09:38.000Z</time>
</trkpt>
<trkpt lat="30.9535400" lon="35.3542200">
<ele>-370.450928</ele>
<time>2011-03-12T07:09:51.000Z</time>
</trkpt>
<trkpt lat="30.9535300" lon="35.3541900">
<ele>-370.931519</ele>
<time>2011-03-12T07:09:52.000Z</time>
</trkpt>
<trkpt lat="30.9534400" lon="35.3541400">
<ele>-370.931519</ele>
<time>2011-03-12T07:09:56.000Z</time>
</trkpt>
<trkpt lat="30.9532200" lon="35.3541500">
<ele>-370.450928</ele>
<time>2011-03-12T07:10:03.000Z</time>
</trkpt>
<trkpt lat="30.9528900" lon="35.3540900">
<ele>-370.450928</ele>
<time>2011-03-12T07:10:10.000Z</time>
</trkpt>
<trkpt lat="30.9527800" lon="35.3537900">
<ele>-369.489624</ele>
<time>2011-03-12T07:10:19.000Z</time>
</trkpt>
<trkpt lat="30.9527500" lon="35.3534000">
<ele>-369.008911</ele>
<time>2011-03-12T07:10:30.000Z</time>
</trkpt>
<trkpt lat="30.9524400" lon="35.3532100">
<ele>-368.047699</ele>
<time>2011-03-12T07:10:42.000Z</time>
</trkpt>
<trkpt lat="30.9522100" lon="35.3530800">
<ele>-367.566895</ele>
<time>2011-03-12T07:10:55.000Z</time>
</trkpt>
<trkpt lat="30.9522000" lon="35.3526500">
<ele>-366.605591</ele>
<time>2011-03-12T07:11:10.000Z</time>
</trkpt>
<trkpt lat="30.9519400" lon="35.3525100">
<ele>-366.125000</ele>
<time>2011-03-12T07:11:20.000Z</time>
</trkpt>
<trkpt lat="30.9515400" lon="35.3524700">
<ele>-365.644287</ele>
<time>2011-03-12T07:11:35.000Z</time>
</trkpt>
<trkpt lat="30.9514200" lon="35.3524100">
<ele>-365.644287</ele>
<time>2011-03-12T07:11:40.000Z</time>
</trkpt>
<trkpt lat="30.9513400" lon="35.3523200">
<ele>-365.163574</ele>
<time>2011-03-12T07:11:45.000Z</time>
</trkpt>
<trkpt lat="30.9513100" lon="35.3522400">
<ele>-365.163574</ele>
<time>2011-03-12T07:11:50.000Z</time>
</trkpt>
<trkpt lat="30.9512000" lon="35.3519200">
<ele>-364.682953</ele>
<time>2011-03-12T07:12:03.000Z</time>
</trkpt>
<trkpt lat="30.9508500" lon="35.3514700">
<ele>-363.240967</ele>
<time>2011-03-12T07:12:18.000Z</time>
</trkpt>
<trkpt lat="30.9507800" lon="35.3511100">
<ele>-362.760376</ele>
<time>2011-03-12T07:12:29.000Z</time>
</trkpt>
<trkpt lat="30.9508100" lon="35.3509500">
<ele>-362.279816</ele>
<time>2011-03-12T07:12:33.000Z</time>
</trkpt>
<trkpt lat="30.9507000" lon="35.3507400">
<ele>-362.279816</ele>
<time>2011-03-12T07:12:40.000Z</time>
</trkpt>
<trkpt lat="30.9505700" lon="35.3506600">
<ele>-361.318359</ele>
<time>2011-03-12T07:12:51.000Z</time>
</trkpt>
<trkpt lat="30.9505700" lon="35.3506600">
<ele>-359.876343</ele>
<time>2011-03-12T07:14:05.000Z</time>
</trkpt>
<trkpt lat="30.9505400" lon="35.3506400">
<ele>-360.357178</ele>
<time>2011-03-12T07:14:08.000Z</time>
</trkpt>
<trkpt lat="30.9504900" lon="35.3505100">
<ele>-360.837769</ele>
<time>2011-03-12T07:14:14.000Z</time>
</trkpt>
<trkpt lat="30.9507100" lon="35.3500200">
<ele>-358.915009</ele>
<time>2011-03-12T07:14:30.000Z</time>
</trkpt>
<trkpt lat="30.9508000" lon="35.3496000">
<ele>-359.395630</ele>
<time>2011-03-12T07:14:40.000Z</time>
</trkpt>
<trkpt lat="30.9505900" lon="35.3495300">
<ele>-358.915009</ele>
<time>2011-03-12T07:14:49.000Z</time>
</trkpt>
<trkpt lat="30.9505600" lon="35.3495800">
<ele>-358.915009</ele>
<time>2011-03-12T07:14:50.000Z</time>
</trkpt>
<trkpt lat="30.9502300" lon="35.3497900">
<ele>-357.473022</ele>
<time>2011-03-12T07:15:05.000Z</time>
</trkpt>
<trkpt lat="30.9501900" lon="35.3497500">
<ele>-356.992432</ele>
<time>2011-03-12T07:15:07.000Z</time>
</trkpt>
<trkpt lat="30.9502000" lon="35.3495600">
<ele>-356.031128</ele>
<time>2011-03-12T07:15:15.000Z</time>
</trkpt>
<trkpt lat="30.9502600" lon="35.3494700">
<ele>-356.031128</ele>
<time>2011-03-12T07:15:19.000Z</time>
</trkpt>
<trkpt lat="30.9502300" lon="35.3493800">
<ele>-356.031128</ele>
<time>2011-03-12T07:15:24.000Z</time>
</trkpt>
<trkpt lat="30.9499400" lon="35.3491200">
<ele>-355.550415</ele>
<time>2011-03-12T07:15:40.000Z</time>
</trkpt>
<trkpt lat="30.9497900" lon="35.3487300">
<ele>-354.589233</ele>
<time>2011-03-12T07:15:53.000Z</time>
</trkpt>
<trkpt lat="30.9497700" lon="35.3487100">
<ele>-355.069824</ele>
<time>2011-03-12T07:15:54.000Z</time>
</trkpt>
<trkpt lat="30.9496900" lon="35.3486900">
<ele>-354.589233</ele>
<time>2011-03-12T07:15:58.000Z</time>
</trkpt>
<trkpt lat="30.9494100" lon="35.3487500">
<ele>-354.108521</ele>
<time>2011-03-12T07:16:09.000Z</time>
</trkpt>
<trkpt lat="30.9493200" lon="35.3486600">
<ele>-354.108521</ele>
<time>2011-03-12T07:16:15.000Z</time>
</trkpt>
<trkpt lat="30.9492600" lon="35.3484500">
<ele>-353.147217</ele>
<time>2011-03-12T07:16:24.000Z</time>
</trkpt>
<trkpt lat="30.9491200" lon="35.3484300">
<ele>-352.666626</ele>
<time>2011-03-12T07:16:32.000Z</time>
</trkpt>
<trkpt lat="30.9488700" lon="35.3481400">
<ele>-352.666626</ele>
<time>2011-03-12T07:16:50.000Z</time>
</trkpt>
<trkpt lat="30.9487100" lon="35.3478200">
<ele>-350.743927</ele>
<time>2011-03-12T07:17:04.000Z</time>
</trkpt>
<trkpt lat="30.9487000" lon="35.3478100">
<ele>-350.263184</ele>
<time>2011-03-12T07:17:32.000Z</time>
</trkpt>
<trkpt lat="30.9486400" lon="35.3476200">
<ele>-350.743927</ele>
<time>2011-03-12T07:17:45.000Z</time>
</trkpt>
<trkpt lat="30.9485300" lon="35.3473300">
<ele>-349.782471</ele>
<time>2011-03-12T07:17:57.000Z</time>
</trkpt>
<trkpt lat="30.9484500" lon="35.3471200">
<ele>-349.782471</ele>
<time>2011-03-12T07:18:10.000Z</time>
</trkpt>
<trkpt lat="30.9484400" lon="35.3471100">
<ele>-349.782471</ele>
<time>2011-03-12T07:18:11.000Z</time>
</trkpt>
<trkpt lat="30.9483500" lon="35.3470600">
<ele>-350.743927</ele>
<time>2011-03-12T07:18:15.000Z</time>
</trkpt>
<trkpt lat="30.9480800" lon="35.3470300">
<ele>-348.821289</ele>
<time>2011-03-12T07:18:26.000Z</time>
</trkpt>
<trkpt lat="30.9479600" lon="35.3467800">
<ele>-348.340576</ele>
<time>2011-03-12T07:18:36.000Z</time>
</trkpt>
<trkpt lat="30.9480800" lon="35.3463900">
<ele>-346.417969</ele>
<time>2011-03-12T07:18:51.000Z</time>
</trkpt>
<trkpt lat="30.9479900" lon="35.3461400">
<ele>-347.379272</ele>
<time>2011-03-12T07:19:03.000Z</time>
</trkpt>
<trkpt lat="30.9476400" lon="35.3462200">
<ele>-344.495361</ele>
<time>2011-03-12T07:19:18.000Z</time>
</trkpt>
<trkpt lat="30.9475900" lon="35.3462300">
<ele>-344.495361</ele>
<time>2011-03-12T07:19:20.000Z</time>
</trkpt>
<trkpt lat="30.9473800" lon="35.3459600">
<ele>-345.456696</ele>
<time>2011-03-12T07:19:34.000Z</time>
</trkpt>
<trkpt lat="30.9473300" lon="35.3458300">
<ele>-344.014648</ele>
<time>2011-03-12T07:19:38.000Z</time>
</trkpt>
<trkpt lat="30.9470900" lon="35.3456800">
<ele>-344.495361</ele>
<time>2011-03-12T07:19:48.000Z</time>
</trkpt>
<trkpt lat="30.9470300" lon="35.3457100">
<ele>-343.533936</ele>
<time>2011-03-12T07:19:50.000Z</time>
</trkpt>
<trkpt lat="30.9468400" lon="35.3458300">
<ele>-342.572601</ele>
<time>2011-03-12T07:20:03.000Z</time>
</trkpt>
<trkpt lat="30.9468700" lon="35.3458400">
<ele>-342.572601</ele>
<time>2011-03-12T07:20:43.000Z</time>
</trkpt>
<trkpt lat="30.9468700" lon="35.3458600">
<ele>-342.091888</ele>
<time>2011-03-12T07:21:27.000Z</time>
</trkpt>
<trkpt lat="30.9468500" lon="35.3458600">
<ele>-342.572601</ele>
<time>2011-03-12T07:22:08.000Z</time>
</trkpt>
<trkpt lat="30.9467500" lon="35.3458100">
<ele>-343.533936</ele>
<time>2011-03-12T07:22:13.000Z</time>
</trkpt>
<trkpt lat="30.9465800" lon="35.3455500">
<ele>-342.091888</ele>
<time>2011-03-12T07:22:24.000Z</time>
</trkpt>
<trkpt lat="30.9465300" lon="35.3453700">
<ele>-342.091888</ele>
<time>2011-03-12T07:22:32.000Z</time>
</trkpt>
<trkpt lat="30.9463900" lon="35.3452700">
<ele>-342.091888</ele>
<time>2011-03-12T07:22:40.000Z</time>
</trkpt>
<trkpt lat="30.9462200" lon="35.3453600">
<ele>-342.091888</ele>
<time>2011-03-12T07:22:50.000Z</time>
</trkpt>
<trkpt lat="30.9459300" lon="35.3455400">
<ele>-341.611328</ele>
<time>2011-03-12T07:23:06.000Z</time>
</trkpt>
<trkpt lat="30.9456600" lon="35.3454100">
<ele>-340.650024</ele>
<time>2011-03-12T07:23:20.000Z</time>
</trkpt>
<trkpt lat="30.9453100" lon="35.3451400">
<ele>-340.650024</ele>
<time>2011-03-12T07:23:38.000Z</time>
</trkpt>
<trkpt lat="30.9450100" lon="35.3448800">
<ele>-339.208130</ele>
<time>2011-03-12T07:23:54.000Z</time>
</trkpt>
<trkpt lat="30.9447700" lon="35.3447900">
<ele>-339.688721</ele>
<time>2011-03-12T07:24:06.000Z</time>
</trkpt>
<trkpt lat="30.9445800" lon="35.3450800">
<ele>-338.727417</ele>
<time>2011-03-12T07:24:18.000Z</time>
</trkpt>
<trkpt lat="30.9443200" lon="35.3452500">
<ele>-338.727417</ele>
<time>2011-03-12T07:24:30.000Z</time>
</trkpt>
<trkpt lat="30.9442400" lon="35.3451900">
<ele>-337.285522</ele>
<time>2011-03-12T07:24:35.000Z</time>
</trkpt>
<trkpt lat="30.9442100" lon="35.3451100">
<ele>-336.804810</ele>
<time>2011-03-12T07:25:00.000Z</time>
</trkpt>
<trkpt lat="30.9442100" lon="35.3451100">
<ele>-336.804810</ele>
<time>2011-03-12T07:25:01.000Z</time>
</trkpt>
<trkpt lat="30.9442000" lon="35.3450800">
<ele>-336.804810</ele>
<time>2011-03-12T07:25:03.000Z</time>
</trkpt>
<trkpt lat="30.9443200" lon="35.3449000">
<ele>-336.804810</ele>
<time>2011-03-12T07:25:16.000Z</time>
</trkpt>
<trkpt lat="30.9443200" lon="35.3448900">
<ele>-337.285522</ele>
<time>2011-03-12T07:25:18.000Z</time>
</trkpt>
<trkpt lat="30.9440300" lon="35.3447200">
<ele>-336.804810</ele>
<time>2011-03-12T07:25:33.000Z</time>
</trkpt>
<trkpt lat="30.9437600" lon="35.3443700">
<ele>-336.324097</ele>
<time>2011-03-12T07:25:47.000Z</time>
</trkpt>
<trkpt lat="30.9433800" lon="35.3442500">
<ele>-335.362793</ele>
<time>2011-03-12T07:26:01.000Z</time>
</trkpt>
<trkpt lat="30.9432200" lon="35.3440500">
<ele>-334.882080</ele>
<time>2011-03-12T07:26:13.000Z</time>
</trkpt>
<trkpt lat="30.9430800" lon="35.3437400">
<ele>-333.920776</ele>
<time>2011-03-12T07:26:27.000Z</time>
</trkpt>
<trkpt lat="30.9428300" lon="35.3436100">
<ele>-333.440186</ele>
<time>2011-03-12T07:26:38.000Z</time>
</trkpt>
<trkpt lat="30.9425600" lon="35.3435400">
<ele>-332.959473</ele>
<time>2011-03-12T07:26:51.000Z</time>
</trkpt>
<trkpt lat="30.9422100" lon="35.3433000">
<ele>-332.478760</ele>
<time>2011-03-12T07:27:08.000Z</time>
</trkpt>
<trkpt lat="30.9418500" lon="35.3431900">
<ele>-331.036865</ele>
<time>2011-03-12T07:27:26.000Z</time>
</trkpt>
<trkpt lat="30.9418400" lon="35.3431800">
<ele>-330.556152</ele>
<time>2011-03-12T07:28:24.000Z</time>
</trkpt>
<trkpt lat="30.9417800" lon="35.3431500">
<ele>-330.556152</ele>
<time>2011-03-12T07:28:30.000Z</time>
</trkpt>
<trkpt lat="30.9413600" lon="35.3428400">
<ele>-330.075562</ele>
<time>2011-03-12T07:28:51.000Z</time>
</trkpt>
<trkpt lat="30.9412100" lon="35.3425200">
<ele>-329.595001</ele>
<time>2011-03-12T07:29:06.000Z</time>
</trkpt>
<trkpt lat="30.9413000" lon="35.3424200">
<ele>-328.633545</ele>
<time>2011-03-12T07:29:13.000Z</time>
</trkpt>
<trkpt lat="30.9416200" lon="35.3423500">
<ele>-327.672241</ele>
<time>2011-03-12T07:29:29.000Z</time>
</trkpt>
<trkpt lat="30.9416500" lon="35.3423000">
<ele>-327.672241</ele>
<time>2011-03-12T07:29:40.000Z</time>
</trkpt>
<trkpt lat="30.9416700" lon="35.3422500">
<ele>-326.710815</ele>
<time>2011-03-12T07:29:54.000Z</time>
</trkpt>
<trkpt lat="30.9416800" lon="35.3422000">
<ele>-326.710815</ele>
<time>2011-03-12T07:30:00.000Z</time>
</trkpt>
<trkpt lat="30.9415900" lon="35.3419000">
<ele>-326.710815</ele>
<time>2011-03-12T07:30:15.000Z</time>
</trkpt>
<trkpt lat="30.9414200" lon="35.3417600">
<ele>-326.230194</ele>
<time>2011-03-12T07:30:24.000Z</time>
</trkpt>
<trkpt lat="30.9413200" lon="35.3414800">
<ele>-325.749634</ele>
<time>2011-03-12T07:30:39.000Z</time>
</trkpt>
<trkpt lat="30.9413400" lon="35.3414600">
<ele>-324.307617</ele>
<time>2011-03-12T07:31:03.000Z</time>
</trkpt>
<trkpt lat="30.9413400" lon="35.3414600">
<ele>-323.827057</ele>
<time>2011-03-12T07:31:26.000Z</time>
</trkpt>
<trkpt lat="30.9414800" lon="35.3411500">
<ele>-323.827057</ele>
<time>2011-03-12T07:31:43.000Z</time>
</trkpt>
<trkpt lat="30.9417500" lon="35.3409900">
<ele>-322.385010</ele>
<time>2011-03-12T07:31:58.000Z</time>
</trkpt>
<trkpt lat="30.9417700" lon="35.3409800">
<ele>-322.865601</ele>
<time>2011-03-12T07:31:59.000Z</time>
</trkpt>
<trkpt lat="30.9417800" lon="35.3408400">
<ele>-322.865601</ele>
<time>2011-03-12T07:32:08.000Z</time>
</trkpt>
<trkpt lat="30.9417700" lon="35.3408000">
<ele>-322.865601</ele>
<time>2011-03-12T07:32:10.000Z</time>
</trkpt>
<trkpt lat="30.9414300" lon="35.3406000">
<ele>-321.904419</ele>
<time>2011-03-12T07:32:25.000Z</time>
</trkpt>
<trkpt lat="30.9410600" lon="35.3405100">
<ele>-321.423706</ele>
<time>2011-03-12T07:32:39.000Z</time>
</trkpt>
<trkpt lat="30.9409700" lon="35.3404000">
<ele>-320.942963</ele>
<time>2011-03-12T07:32:45.000Z</time>
</trkpt>
<trkpt lat="30.9410000" lon="35.3400700">
<ele>-319.500977</ele>
<time>2011-03-12T07:32:59.000Z</time>
</trkpt>
<trkpt lat="30.9409900" lon="35.3398000">
<ele>-318.539673</ele>
<time>2011-03-12T07:33:09.000Z</time>
</trkpt>
<trkpt lat="30.9409600" lon="35.3397300">
<ele>-319.500977</ele>
<time>2011-03-12T07:33:12.000Z</time>
</trkpt>
<trkpt lat="30.9406200" lon="35.3397200">
<ele>-319.500977</ele>
<time>2011-03-12T07:33:24.000Z</time>
</trkpt>
<trkpt lat="30.9403500" lon="35.3396200">
<ele>-318.059113</ele>
<time>2011-03-12T07:33:37.000Z</time>
</trkpt>
<trkpt lat="30.9402000" lon="35.3394900">
<ele>-318.059113</ele>
<time>2011-03-12T07:33:43.000Z</time>
</trkpt>
<trkpt lat="30.9400200" lon="35.3393200">
<ele>-318.059113</ele>
<time>2011-03-12T07:33:49.000Z</time>
</trkpt>
<trkpt lat="30.9399500" lon="35.3392700">
<ele>-318.059113</ele>
<time>2011-03-12T07:33:51.000Z</time>
</trkpt>
<trkpt lat="30.9398800" lon="35.3391400">
<ele>-317.578369</ele>
<time>2011-03-12T07:34:01.000Z</time>
</trkpt>
<trkpt lat="30.9398900" lon="35.3391300">
<ele>-317.097656</ele>
<time>2011-03-12T07:34:50.000Z</time>
</trkpt>
<trkpt lat="30.9398100" lon="35.3388300">
<ele>-317.097656</ele>
<time>2011-03-12T07:35:02.000Z</time>
</trkpt>
<trkpt lat="30.9395600" lon="35.3379700">
<ele>-316.136475</ele>
<time>2011-03-12T07:35:22.000Z</time>
</trkpt>
<trkpt lat="30.9394300" lon="35.3377300">
<ele>-315.655762</ele>
<time>2011-03-12T07:35:28.000Z</time>
</trkpt>
<trkpt lat="30.9393400" lon="35.3376300">
<ele>-315.655762</ele>
<time>2011-03-12T07:35:31.000Z</time>
</trkpt>
<trkpt lat="30.9388300" lon="35.3373800">
<ele>-314.694458</ele>
<time>2011-03-12T07:35:46.000Z</time>
</trkpt>
<trkpt lat="30.9383400" lon="35.3375500">
<ele>-314.213867</ele>
<time>2011-03-12T07:36:03.000Z</time>
</trkpt>
<trkpt lat="30.9379900" lon="35.3376200">
<ele>-313.733154</ele>
<time>2011-03-12T07:36:13.000Z</time>
</trkpt>
<trkpt lat="30.9378000" lon="35.3374500">
<ele>-312.291260</ele>
<time>2011-03-12T07:36:23.000Z</time>
</trkpt>
<trkpt lat="30.9376400" lon="35.3371600">
<ele>-312.771881</ele>
<time>2011-03-12T07:36:37.000Z</time>
</trkpt>
<trkpt lat="30.9374100" lon="35.3371300">
<ele>-312.291260</ele>
<time>2011-03-12T07:36:48.000Z</time>
</trkpt>
<trkpt lat="30.9372500" lon="35.3371800">
<ele>-311.810425</ele>
<time>2011-03-12T07:36:55.000Z</time>
</trkpt>
<trkpt lat="30.9371700" lon="35.3371400">
<ele>-312.291260</ele>
<time>2011-03-12T07:36:59.000Z</time>
</trkpt>
<trkpt lat="30.9371800" lon="35.3367700">
<ele>-311.810425</ele>
<time>2011-03-12T07:37:12.000Z</time>
</trkpt>
<trkpt lat="30.9373600" lon="35.3364700">
<ele>-310.849121</ele>
<time>2011-03-12T07:37:23.000Z</time>
</trkpt>
<trkpt lat="30.9373600" lon="35.3363600">
<ele>-310.368530</ele>
<time>2011-03-12T07:37:27.000Z</time>
</trkpt>
<trkpt lat="30.9369600" lon="35.3361800">
<ele>-309.887817</ele>
<time>2011-03-12T07:37:42.000Z</time>
</trkpt>
<trkpt lat="30.9367500" lon="35.3358700">
<ele>-309.407104</ele>
<time>2011-03-12T07:37:54.000Z</time>
</trkpt>
<trkpt lat="30.9365600" lon="35.3356200">
<ele>-308.926514</ele>
<time>2011-03-12T07:38:04.000Z</time>
</trkpt>
<trkpt lat="30.9360500" lon="35.3355600">
<ele>-308.445923</ele>
<time>2011-03-12T07:38:19.000Z</time>
</trkpt>
<trkpt lat="30.9358400" lon="35.3355100">
<ele>-308.445923</ele>
<time>2011-03-12T07:38:24.000Z</time>
</trkpt>
<trkpt lat="30.9355900" lon="35.3353900">
<ele>-308.926514</ele>
<time>2011-03-12T07:38:29.000Z</time>
</trkpt>
<trkpt lat="30.9352300" lon="35.3350300">
<ele>-307.484497</ele>
<time>2011-03-12T07:38:37.000Z</time>
</trkpt>
<trkpt lat="30.9350900" lon="35.3348800">
<ele>-307.003906</ele>
<time>2011-03-12T07:38:41.000Z</time>
</trkpt>
<trkpt lat="30.9346900" lon="35.3344300">
<ele>-305.561890</ele>
<time>2011-03-12T07:38:55.000Z</time>
</trkpt>
<trkpt lat="30.9346500" lon="35.3344400">
<ele>-304.600708</ele>
<time>2011-03-12T07:39:08.000Z</time>
</trkpt>
<trkpt lat="30.9346500" lon="35.3344400">
<ele>-304.600708</ele>
<time>2011-03-12T07:39:31.000Z</time>
</trkpt>
<trkpt lat="30.9346100" lon="35.3343800">
<ele>-305.081299</ele>
<time>2011-03-12T07:39:36.000Z</time>
</trkpt>
<trkpt lat="30.9343200" lon="35.3342400">
<ele>-305.561890</ele>
<time>2011-03-12T07:39:51.000Z</time>
</trkpt>
<trkpt lat="30.9342000" lon="35.3342100">
<ele>-303.158569</ele>
<time>2011-03-12T07:40:03.000Z</time>
</trkpt>
<trkpt lat="30.9340700" lon="35.3339600">
<ele>-302.677979</ele>
<time>2011-03-12T07:40:17.000Z</time>
</trkpt>
<trkpt lat="30.9337900" lon="35.3338900">
<ele>-303.639160</ele>
<time>2011-03-12T07:40:29.000Z</time>
</trkpt>
<trkpt lat="30.9334700" lon="35.3337100">
<ele>-302.197266</ele>
<time>2011-03-12T07:40:44.000Z</time>
</trkpt>
<trkpt lat="30.9332800" lon="35.3336400">
<ele>-301.716553</ele>
<time>2011-03-12T07:40:52.000Z</time>
</trkpt>
<trkpt lat="30.9329200" lon="35.3335200">
<ele>-301.235962</ele>
<time>2011-03-12T07:41:06.000Z</time>
</trkpt>
<trkpt lat="30.9326400" lon="35.3332600">
<ele>-300.274658</ele>
<time>2011-03-12T07:41:20.000Z</time>
</trkpt>
<trkpt lat="30.9324400" lon="35.3330000">
<ele>-299.793945</ele>
<time>2011-03-12T07:41:32.000Z</time>
</trkpt>
<trkpt lat="30.9324300" lon="35.3329500">
<ele>-299.313354</ele>
<time>2011-03-12T07:41:34.000Z</time>
</trkpt>
<trkpt lat="30.9323600" lon="35.3329400">
<ele>-299.313354</ele>
<time>2011-03-12T07:41:39.000Z</time>
</trkpt>
<trkpt lat="30.9321200" lon="35.3329500">
<ele>-298.352051</ele>
<time>2011-03-12T07:41:54.000Z</time>
</trkpt>
<trkpt lat="30.9321000" lon="35.3329300">
<ele>-297.390747</ele>
<time>2011-03-12T07:42:08.000Z</time>
</trkpt>
<trkpt lat="30.9319400" lon="35.3327700">
<ele>-297.390747</ele>
<time>2011-03-12T07:42:32.000Z</time>
</trkpt>
<trkpt lat="30.9319200" lon="35.3327200">
<ele>-296.429443</ele>
<time>2011-03-12T07:42:46.000Z</time>
</trkpt>
<trkpt lat="30.9319100" lon="35.3327200">
<ele>-296.429443</ele>
<time>2011-03-12T07:42:47.000Z</time>
</trkpt>
<trkpt lat="30.9318200" lon="35.3327000">
<ele>-296.910156</ele>
<time>2011-03-12T07:42:53.000Z</time>
</trkpt>
<trkpt lat="30.9314900" lon="35.3327900">
<ele>-295.948608</ele>
<time>2011-03-12T07:43:10.000Z</time>
</trkpt>
<trkpt lat="30.9311900" lon="35.3327900">
<ele>-294.506714</ele>
<time>2011-03-12T07:43:25.000Z</time>
</trkpt>
<trkpt lat="30.9310600" lon="35.3325900">
<ele>-294.026001</ele>
<time>2011-03-12T07:43:36.000Z</time>
</trkpt>
<trkpt lat="30.9309700" lon="35.3323600">
<ele>-293.545410</ele>
<time>2011-03-12T07:43:48.000Z</time>
</trkpt>
<trkpt lat="30.9309700" lon="35.3322900">
<ele>-292.584106</ele>
<time>2011-03-12T07:44:01.000Z</time>
</trkpt>
<trkpt lat="30.9309700" lon="35.3322000">
<ele>-291.622803</ele>
<time>2011-03-12T07:44:11.000Z</time>
</trkpt>
<trkpt lat="30.9309300" lon="35.3321700">
<ele>-292.103394</ele>
<time>2011-03-12T07:44:25.000Z</time>
</trkpt>
<trkpt lat="30.9308500" lon="35.3321700">
<ele>-290.661499</ele>
<time>2011-03-12T07:44:31.000Z</time>
</trkpt>
<trkpt lat="30.9307900" lon="35.3321500">
<ele>-292.103394</ele>
<time>2011-03-12T07:44:34.000Z</time>
</trkpt>
<trkpt lat="30.9305900" lon="35.3320800">
<ele>-290.661499</ele>
<time>2011-03-12T07:44:49.000Z</time>
</trkpt>
<trkpt lat="30.9305600" lon="35.3320600">
<ele>-290.661499</ele>
<time>2011-03-12T07:44:55.000Z</time>
</trkpt>
<trkpt lat="30.9303700" lon="35.3318400">
<ele>-290.180786</ele>
<time>2011-03-12T07:45:11.000Z</time>
</trkpt>
<trkpt lat="30.9302900" lon="35.3316400">
<ele>-289.219604</ele>
<time>2011-03-12T07:45:19.000Z</time>
</trkpt>
<trkpt lat="30.9302500" lon="35.3316000">
<ele>-289.219604</ele>
<time>2011-03-12T07:45:22.000Z</time>
</trkpt>
<trkpt lat="30.9301800" lon="35.3315800">
<ele>-289.219604</ele>
<time>2011-03-12T07:45:26.000Z</time>
</trkpt>
<trkpt lat="30.9298000" lon="35.3313800">
<ele>-288.258179</ele>
<time>2011-03-12T07:45:42.000Z</time>
</trkpt>
<trkpt lat="30.9296200" lon="35.3311500">
<ele>-288.258179</ele>
<time>2011-03-12T07:45:53.000Z</time>
</trkpt>
<trkpt lat="30.9296700" lon="35.3308900">
<ele>-286.335449</ele>
<time>2011-03-12T07:46:04.000Z</time>
</trkpt>
<trkpt lat="30.9296200" lon="35.3308500">
<ele>-286.335449</ele>
<time>2011-03-12T07:46:07.000Z</time>
</trkpt>
<trkpt lat="30.9294800" lon="35.3308500">
<ele>-285.854858</ele>
<time>2011-03-12T07:46:14.000Z</time>
</trkpt>
<trkpt lat="30.9294300" lon="35.3308700">
<ele>-284.893555</ele>
<time>2011-03-12T07:46:17.000Z</time>
</trkpt>
<trkpt lat="30.9292600" lon="35.3308300">
<ele>-284.893555</ele>
<time>2011-03-12T07:46:25.000Z</time>
</trkpt>
<trkpt lat="30.9291100" lon="35.3305500">
<ele>-283.932251</ele>
<time>2011-03-12T07:46:38.000Z</time>
</trkpt>
<trkpt lat="30.9288700" lon="35.3304000">
<ele>-283.451660</ele>
<time>2011-03-12T07:46:50.000Z</time>
</trkpt>
<trkpt lat="30.9285500" lon="35.3299100">
<ele>-282.009644</ele>
<time>2011-03-12T07:47:09.000Z</time>
</trkpt>
<trkpt lat="30.9283800" lon="35.3295900">
<ele>-281.529053</ele>
<time>2011-03-12T07:47:26.000Z</time>
</trkpt>
<trkpt lat="30.9282700" lon="35.3295300">
<ele>-280.087036</ele>
<time>2011-03-12T07:47:35.000Z</time>
</trkpt>
<trkpt lat="30.9282400" lon="35.3295400">
<ele>-279.125610</ele>
<time>2011-03-12T07:47:49.000Z</time>
</trkpt>
<trkpt lat="30.9282000" lon="35.3295700">
<ele>-279.125610</ele>
<time>2011-03-12T07:48:17.000Z</time>
</trkpt>
<trkpt lat="30.9281500" lon="35.3296000">
<ele>-280.567627</ele>
<time>2011-03-12T07:48:30.000Z</time>
</trkpt>
<trkpt lat="30.9280500" lon="35.3294900">
<ele>-279.606323</ele>
<time>2011-03-12T07:48:49.000Z</time>
</trkpt>
<trkpt lat="30.9279900" lon="35.3293900">
<ele>-279.125610</ele>
<time>2011-03-12T07:49:03.000Z</time>
</trkpt>
<trkpt lat="30.9279500" lon="35.3292400">
<ele>-278.644897</ele>
<time>2011-03-12T07:49:19.000Z</time>
</trkpt>
<trkpt lat="30.9279300" lon="35.3291500">
<ele>-277.683716</ele>
<time>2011-03-12T07:49:38.000Z</time>
</trkpt>
<trkpt lat="30.9278200" lon="35.3288800">
<ele>-277.683716</ele>
<time>2011-03-12T07:49:53.000Z</time>
</trkpt>
<trkpt lat="30.9277300" lon="35.3288200">
<ele>-277.203003</ele>
<time>2011-03-12T07:50:05.000Z</time>
</trkpt>
<trkpt lat="30.9275800" lon="35.3288600">
<ele>-276.722290</ele>
<time>2011-03-12T07:50:26.000Z</time>
</trkpt>
<trkpt lat="30.9275800" lon="35.3288600">
<ele>-276.722290</ele>
<time>2011-03-12T07:50:28.000Z</time>
</trkpt>
<trkpt lat="30.9274100" lon="35.3290500">
<ele>-275.761108</ele>
<time>2011-03-12T07:50:42.000Z</time>
</trkpt>
<trkpt lat="30.9272500" lon="35.3292300">
<ele>-274.319092</ele>
<time>2011-03-12T07:50:53.000Z</time>
</trkpt>
<trkpt lat="30.9271900" lon="35.3292600">
<ele>-274.799683</ele>
<time>2011-03-12T07:50:57.000Z</time>
</trkpt>
<trkpt lat="30.9270000" lon="35.3290500">
<ele>-275.280396</ele>
<time>2011-03-12T07:51:09.000Z</time>
</trkpt>
<trkpt lat="30.9269700" lon="35.3290100">
<ele>-274.799683</ele>
<time>2011-03-12T07:51:11.000Z</time>
</trkpt>
<trkpt lat="30.9268900" lon="35.3290000">
<ele>-274.799683</ele>
<time>2011-03-12T07:51:15.000Z</time>
</trkpt>
<trkpt lat="30.9268000" lon="35.3290100">
<ele>-274.799683</ele>
<time>2011-03-12T07:51:19.000Z</time>
</trkpt>
<trkpt lat="30.9265000" lon="35.3286900">
<ele>-273.838501</ele>
<time>2011-03-12T07:51:34.000Z</time>
</trkpt>
<trkpt lat="30.9263800" lon="35.3286400">
<ele>-273.838501</ele>
<time>2011-03-12T07:51:41.000Z</time>
</trkpt>
<trkpt lat="30.9264200" lon="35.3283600">
<ele>-273.357788</ele>
<time>2011-03-12T07:51:53.000Z</time>
</trkpt>
<trkpt lat="30.9264300" lon="35.3282300">
<ele>-272.877075</ele>
<time>2011-03-12T07:52:06.000Z</time>
</trkpt>
<trkpt lat="30.9264000" lon="35.3281500">
<ele>-271.435059</ele>
<time>2011-03-12T07:52:19.000Z</time>
</trkpt>
<trkpt lat="30.9263900" lon="35.3281400">
<ele>-271.435059</ele>
<time>2011-03-12T07:52:20.000Z</time>
</trkpt>
<trkpt lat="30.9263700" lon="35.3281300">
<ele>-271.915771</ele>
<time>2011-03-12T07:52:39.000Z</time>
</trkpt>
<trkpt lat="30.9263800" lon="35.3280700">
<ele>-271.435059</ele>
<time>2011-03-12T07:53:26.000Z</time>
</trkpt>
<trkpt lat="30.9263800" lon="35.3280500">
<ele>-271.435059</ele>
<time>2011-03-12T07:53:28.000Z</time>
</trkpt>
<trkpt lat="30.9263900" lon="35.3278600">
<ele>-270.954346</ele>
<time>2011-03-12T07:53:44.000Z</time>
</trkpt>
<trkpt lat="30.9263800" lon="35.3278500">
<ele>-271.915771</ele>
<time>2011-03-12T07:53:46.000Z</time>
</trkpt>
<trkpt lat="30.9263200" lon="35.3278600">
<ele>-271.915771</ele>
<time>2011-03-12T07:53:55.000Z</time>
</trkpt>
<trkpt lat="30.9262700" lon="35.3277900">
<ele>-271.915771</ele>
<time>2011-03-12T07:54:02.000Z</time>
</trkpt>
<trkpt lat="30.9263700" lon="35.3275800">
<ele>-270.954346</ele>
<time>2011-03-12T07:54:15.000Z</time>
</trkpt>
<trkpt lat="30.9264000" lon="35.3274600">
<ele>-269.993164</ele>
<time>2011-03-12T07:54:28.000Z</time>
</trkpt>
<trkpt lat="30.9265000" lon="35.3271600">
<ele>-269.512451</ele>
<time>2011-03-12T07:54:42.000Z</time>
</trkpt>
<trkpt lat="30.9263800" lon="35.3268200">
<ele>-269.031738</ele>
<time>2011-03-12T07:54:55.000Z</time>
</trkpt>
<trkpt lat="30.9261800" lon="35.3267800">
<ele>-268.551147</ele>
<time>2011-03-12T07:55:07.000Z</time>
</trkpt>
<trkpt lat="30.9260700" lon="35.3268000">
<ele>-268.070557</ele>
<time>2011-03-12T07:55:15.000Z</time>
</trkpt>
<trkpt lat="30.9259700" lon="35.3267900">
<ele>-269.031738</ele>
<time>2011-03-12T07:55:28.000Z</time>
</trkpt>
<trkpt lat="30.9259200" lon="35.3268100">
<ele>-269.512451</ele>
<time>2011-03-12T07:56:05.000Z</time>
</trkpt>
<trkpt lat="30.9258500" lon="35.3268000">
<ele>-268.070557</ele>
<time>2011-03-12T07:56:22.000Z</time>
</trkpt>
<trkpt lat="30.9258400" lon="35.3268000">
<ele>-267.589844</ele>
<time>2011-03-12T07:56:24.000Z</time>
</trkpt>
<trkpt lat="30.9258000" lon="35.3267800">
<ele>-267.589844</ele>
<time>2011-03-12T07:56:28.000Z</time>
</trkpt>
<trkpt lat="30.9255800" lon="35.3265700">
<ele>-267.109131</ele>
<time>2011-03-12T07:56:47.000Z</time>
</trkpt>
<trkpt lat="30.9256000" lon="35.3265100">
<ele>-267.589844</ele>
<time>2011-03-12T07:57:03.000Z</time>
</trkpt>
<trkpt lat="30.9256600" lon="35.3264700">
<ele>-267.109131</ele>
<time>2011-03-12T07:57:17.000Z</time>
</trkpt>
<trkpt lat="30.9257400" lon="35.3263800">
<ele>-265.667236</ele>
<time>2011-03-12T07:57:34.000Z</time>
</trkpt>
<trkpt lat="30.9257500" lon="35.3263700">
<ele>-266.147949</ele>
<time>2011-03-12T07:57:36.000Z</time>
</trkpt>
<trkpt lat="30.9259100" lon="35.3263300">
<ele>-265.667236</ele>
<time>2011-03-12T07:57:57.000Z</time>
</trkpt>
<trkpt lat="30.9259700" lon="35.3262100">
<ele>-265.667236</ele>
<time>2011-03-12T07:58:13.000Z</time>
</trkpt>
<trkpt lat="30.9259400" lon="35.3261200">
<ele>-265.186523</ele>
<time>2011-03-12T07:58:29.000Z</time>
</trkpt>
<trkpt lat="30.9259200" lon="35.3260800">
<ele>-265.667236</ele>
<time>2011-03-12T07:59:15.000Z</time>
</trkpt>
<trkpt lat="30.9259200" lon="35.3260800">
<ele>-265.667236</ele>
<time>2011-03-12T07:59:35.000Z</time>
</trkpt>
<trkpt lat="30.9258800" lon="35.3260200">
<ele>-266.147949</ele>
<time>2011-03-12T07:59:41.000Z</time>
</trkpt>
<trkpt lat="30.9257200" lon="35.3257700">
<ele>-264.705933</ele>
<time>2011-03-12T07:59:57.000Z</time>
</trkpt>
<trkpt lat="30.9255600" lon="35.3255200">
<ele>-264.705933</ele>
<time>2011-03-12T08:00:11.000Z</time>
</trkpt>
<trkpt lat="30.9256300" lon="35.3252900">
<ele>-264.705933</ele>
<time>2011-03-12T08:00:24.000Z</time>
</trkpt>
<trkpt lat="30.9256700" lon="35.3250200">
<ele>-264.225342</ele>
<time>2011-03-12T08:00:38.000Z</time>
</trkpt>
<trkpt lat="30.9255000" lon="35.3246700">
<ele>-263.263794</ele>
<time>2011-03-12T08:00:55.000Z</time>
</trkpt>
<trkpt lat="30.9254200" lon="35.3245400">
<ele>-262.783203</ele>
<time>2011-03-12T08:01:02.000Z</time>
</trkpt>
<trkpt lat="30.9252100" lon="35.3246000">
<ele>-262.302612</ele>
<time>2011-03-12T08:01:12.000Z</time>
</trkpt>
<trkpt lat="30.9251900" lon="35.3245300">
<ele>-262.302612</ele>
<time>2011-03-12T08:01:23.000Z</time>
</trkpt>
<trkpt lat="30.9252000" lon="35.3245000">
<ele>-261.821899</ele>
<time>2011-03-12T08:01:36.000Z</time>
</trkpt>
<trkpt lat="30.9252000" lon="35.3244800">
<ele>-261.821899</ele>
<time>2011-03-12T08:01:39.000Z</time>
</trkpt>
<trkpt lat="30.9252100" lon="35.3244000">
<ele>-261.821899</ele>
<time>2011-03-12T08:01:45.000Z</time>
</trkpt>
<trkpt lat="30.9251600" lon="35.3242800">
<ele>-261.341187</ele>
<time>2011-03-12T08:02:00.000Z</time>
</trkpt>
<trkpt lat="30.9251500" lon="35.3241600">
<ele>-260.860596</ele>
<time>2011-03-12T08:02:08.000Z</time>
</trkpt>
<trkpt lat="30.9251000" lon="35.3241000">
<ele>-260.860596</ele>
<time>2011-03-12T08:02:13.000Z</time>
</trkpt>
<trkpt lat="30.9249600" lon="35.3239600">
<ele>-260.380005</ele>
<time>2011-03-12T08:02:32.000Z</time>
</trkpt>
<trkpt lat="30.9249400" lon="35.3237700">
<ele>-258.457397</ele>
<time>2011-03-12T08:02:51.000Z</time>
</trkpt>
<trkpt lat="30.9249100" lon="35.3236500">
<ele>-255.573242</ele>
<time>2011-03-12T08:03:08.000Z</time>
</trkpt>
<trkpt lat="30.9247900" lon="35.3235300">
<ele>-253.170029</ele>
<time>2011-03-12T08:03:31.000Z</time>
</trkpt>
<trkpt lat="30.9247900" lon="35.3235300">
<ele>-252.689453</ele>
<time>2011-03-12T08:04:12.000Z</time>
</trkpt>
<trkpt lat="30.9247800" lon="35.3235200">
<ele>-253.170029</ele>
<time>2011-03-12T08:05:17.000Z</time>
</trkpt>
<trkpt lat="30.9247800" lon="35.3235300">
<ele>-252.208740</ele>
<time>2011-03-12T08:12:00.000Z</time>
</trkpt>
<trkpt lat="30.9247500" lon="35.3235300">
<ele>-252.208740</ele>
<time>2011-03-12T08:13:10.000Z</time>
</trkpt>
<trkpt lat="30.9245000" lon="35.3234500">
<ele>-252.208740</ele>
<time>2011-03-12T08:13:29.000Z</time>
</trkpt>
<trkpt lat="30.9244100" lon="35.3231400">
<ele>-251.728027</ele>
<time>2011-03-12T08:13:46.000Z</time>
</trkpt>
<trkpt lat="30.9244000" lon="35.3228200">
<ele>-251.728027</ele>
<time>2011-03-12T08:14:02.000Z</time>
</trkpt>
<trkpt lat="30.9243800" lon="35.3224500">
<ele>-251.728027</ele>
<time>2011-03-12T08:14:19.000Z</time>
</trkpt>
<trkpt lat="30.9242700" lon="35.3223500">
<ele>-251.728027</ele>
<time>2011-03-12T08:14:26.000Z</time>
</trkpt>
<trkpt lat="30.9241700" lon="35.3222500">
<ele>-253.170029</ele>
<time>2011-03-12T08:14:29.000Z</time>
</trkpt>
<trkpt lat="30.9240200" lon="35.3221300">
<ele>-251.247437</ele>
<time>2011-03-12T08:14:38.000Z</time>
</trkpt>
<trkpt lat="30.9239300" lon="35.3218500">
<ele>-251.247437</ele>
<time>2011-03-12T08:14:56.000Z</time>
</trkpt>
<trkpt lat="30.9238100" lon="35.3215900">
<ele>-251.247437</ele>
<time>2011-03-12T08:15:09.000Z</time>
</trkpt>
<trkpt lat="30.9235600" lon="35.3212900">
<ele>-250.286133</ele>
<time>2011-03-12T08:15:27.000Z</time>
</trkpt>
<trkpt lat="30.9232200" lon="35.3209700">
<ele>-248.844238</ele>
<time>2011-03-12T08:15:48.000Z</time>
</trkpt>
<trkpt lat="30.9229000" lon="35.3207200">
<ele>-248.363525</ele>
<time>2011-03-12T08:16:05.000Z</time>
</trkpt>
<trkpt lat="30.9225400" lon="35.3205000">
<ele>-248.363525</ele>
<time>2011-03-12T08:16:22.000Z</time>
</trkpt>
<trkpt lat="30.9223800" lon="35.3204900">
<ele>-251.728027</ele>
<time>2011-03-12T08:16:33.000Z</time>
</trkpt>
<trkpt lat="30.9222900" lon="35.3204800">
<ele>-254.612061</ele>
<time>2011-03-12T08:16:37.000Z</time>
</trkpt>
<trkpt lat="30.9221100" lon="35.3203400">
<ele>-258.457397</ele>
<time>2011-03-12T08:16:47.000Z</time>
</trkpt>
<trkpt lat="30.9220100" lon="35.3201900">
<ele>-260.380005</ele>
<time>2011-03-12T08:16:52.000Z</time>
</trkpt>
<trkpt lat="30.9217500" lon="35.3201300">
<ele>-260.860596</ele>
<time>2011-03-12T08:17:02.000Z</time>
</trkpt>
<trkpt lat="30.9217000" lon="35.3201600">
<ele>-260.860596</ele>
<time>2011-03-12T08:17:06.000Z</time>
</trkpt>
<trkpt lat="30.9216300" lon="35.3202400">
<ele>-260.860596</ele>
<time>2011-03-12T08:17:11.000Z</time>
</trkpt>
<trkpt lat="30.9212100" lon="35.3204300">
<ele>-261.821899</ele>
<time>2011-03-12T08:17:28.000Z</time>
</trkpt>
<trkpt lat="30.9207500" lon="35.3203800">
<ele>-261.821899</ele>
<time>2011-03-12T08:17:46.000Z</time>
</trkpt>
<trkpt lat="30.9204800" lon="35.3201800">
<ele>-261.821899</ele>
<time>2011-03-12T08:18:00.000Z</time>
</trkpt>
<trkpt lat="30.9204200" lon="35.3200400">
<ele>-263.263794</ele>
<time>2011-03-12T08:18:07.000Z</time>
</trkpt>
<trkpt lat="30.9204600" lon="35.3198500">
<ele>-262.783203</ele>
<time>2011-03-12T08:18:17.000Z</time>
</trkpt>
<trkpt lat="30.9205700" lon="35.3196200">
<ele>-261.821899</ele>
<time>2011-03-12T08:18:32.000Z</time>
</trkpt>
<trkpt lat="30.9206000" lon="35.3195900">
<ele>-261.341187</ele>
<time>2011-03-12T08:18:51.000Z</time>
</trkpt>
<trkpt lat="30.9206100" lon="35.3195800">
<ele>-261.341187</ele>
<time>2011-03-12T08:19:53.000Z</time>
</trkpt>
<trkpt lat="30.9206700" lon="35.3192300">
<ele>-261.341187</ele>
<time>2011-03-12T08:20:08.000Z</time>
</trkpt>
<trkpt lat="30.9204400" lon="35.3187500">
<ele>-260.860596</ele>
<time>2011-03-12T08:20:28.000Z</time>
</trkpt>
<trkpt lat="30.9202100" lon="35.3183800">
<ele>-260.860596</ele>
<time>2011-03-12T08:20:43.000Z</time>
</trkpt>
<trkpt lat="30.9199700" lon="35.3181500">
<ele>-260.380005</ele>
<time>2011-03-12T08:20:55.000Z</time>
</trkpt>
<trkpt lat="30.9197100" lon="35.3177700">
<ele>-260.860596</ele>
<time>2011-03-12T08:21:05.000Z</time>
</trkpt>
<trkpt lat="30.9196000" lon="35.3173500">
<ele>-260.380005</ele>
<time>2011-03-12T08:21:18.000Z</time>
</trkpt>
<trkpt lat="30.9197300" lon="35.3172300">
<ele>-260.380005</ele>
<time>2011-03-12T08:21:25.000Z</time>
</trkpt>
<trkpt lat="30.9200900" lon="35.3169300">
<ele>-259.418579</ele>
<time>2011-03-12T08:21:41.000Z</time>
</trkpt>
<trkpt lat="30.9204200" lon="35.3164500">
<ele>-259.418579</ele>
<time>2011-03-12T08:21:59.000Z</time>
</trkpt>
<trkpt lat="30.9204600" lon="35.3164100">
<ele>-257.976685</ele>
<time>2011-03-12T08:22:10.000Z</time>
</trkpt>
<trkpt lat="30.9205800" lon="35.3162100">
<ele>-258.457397</ele>
<time>2011-03-12T08:22:57.000Z</time>
</trkpt>
<trkpt lat="30.9206100" lon="35.3160700">
<ele>-257.495972</ele>
<time>2011-03-12T08:23:01.000Z</time>
</trkpt>
<trkpt lat="30.9207300" lon="35.3159000">
<ele>-257.495972</ele>
<time>2011-03-12T08:23:07.000Z</time>
</trkpt>
<trkpt lat="30.9212300" lon="35.3157500">
<ele>-257.495972</ele>
<time>2011-03-12T08:23:24.000Z</time>
</trkpt>
<trkpt lat="30.9215000" lon="35.3154500">
<ele>-255.092651</ele>
<time>2011-03-12T08:23:38.000Z</time>
</trkpt>
<trkpt lat="30.9214300" lon="35.3151500">
<ele>-255.092651</ele>
<time>2011-03-12T08:23:51.000Z</time>
</trkpt>
<trkpt lat="30.9213900" lon="35.3147500">
<ele>-255.573242</ele>
<time>2011-03-12T08:24:02.000Z</time>
</trkpt>
<trkpt lat="30.9213900" lon="35.3144300">
<ele>-255.092651</ele>
<time>2011-03-12T08:24:09.000Z</time>
</trkpt>
<trkpt lat="30.9216800" lon="35.3140000">
<ele>-253.170029</ele>
<time>2011-03-12T08:24:22.000Z</time>
</trkpt>
<trkpt lat="30.9218600" lon="35.3136300">
<ele>-253.170029</ele>
<time>2011-03-12T08:24:34.000Z</time>
</trkpt>
<trkpt lat="30.9216900" lon="35.3131900">
<ele>-252.208740</ele>
<time>2011-03-12T08:24:50.000Z</time>
</trkpt>
<trkpt lat="30.9213800" lon="35.3127900">
<ele>-251.247437</ele>
<time>2011-03-12T08:25:04.000Z</time>
</trkpt>
<trkpt lat="30.9211300" lon="35.3122500">
<ele>-251.247437</ele>
<time>2011-03-12T08:25:21.000Z</time>
</trkpt>
<trkpt lat="30.9211300" lon="35.3116900">
<ele>-251.247437</ele>
<time>2011-03-12T08:25:37.000Z</time>
</trkpt>
<trkpt lat="30.9212200" lon="35.3112700">
<ele>-251.247437</ele>
<time>2011-03-12T08:25:51.000Z</time>
</trkpt>
<trkpt lat="30.9215300" lon="35.3111700">
<ele>-250.286133</ele>
<time>2011-03-12T08:26:05.000Z</time>
</trkpt>
<trkpt lat="30.9218500" lon="35.3112400">
<ele>-250.766846</ele>
<time>2011-03-12T08:26:19.000Z</time>
</trkpt>
<trkpt lat="30.9222000" lon="35.3111800">
<ele>-249.805420</ele>
<time>2011-03-12T08:26:35.000Z</time>
</trkpt>
<trkpt lat="30.9223200" lon="35.3110500">
<ele>-249.805420</ele>
<time>2011-03-12T08:26:43.000Z</time>
</trkpt>
<trkpt lat="30.9223700" lon="35.3110300">
<ele>-248.844238</ele>
<time>2011-03-12T08:26:46.000Z</time>
</trkpt>
<trkpt lat="30.9225500" lon="35.3107900">
<ele>-248.363525</ele>
<time>2011-03-12T08:27:00.000Z</time>
</trkpt>
<trkpt lat="30.9226300" lon="35.3107300">
<ele>-248.363525</ele>
<time>2011-03-12T08:27:05.000Z</time>
</trkpt>
<trkpt lat="30.9226700" lon="35.3106200">
<ele>-248.363525</ele>
<time>2011-03-12T08:27:10.000Z</time>
</trkpt>
<trkpt lat="30.9225500" lon="35.3103800">
<ele>-247.402115</ele>
<time>2011-03-12T08:27:24.000Z</time>
</trkpt>
<trkpt lat="30.9223500" lon="35.3103200">
<ele>-247.402115</ele>
<time>2011-03-12T08:27:33.000Z</time>
</trkpt>
<trkpt lat="30.9220800" lon="35.3101100">
<ele>-246.440796</ele>
<time>2011-03-12T08:27:49.000Z</time>
</trkpt>
<trkpt lat="30.9220900" lon="35.3101100">
<ele>-246.440796</ele>
<time>2011-03-12T08:28:31.000Z</time>
</trkpt>
<trkpt lat="30.9219900" lon="35.3100200">
<ele>-246.921509</ele>
<time>2011-03-12T08:28:38.000Z</time>
</trkpt>
<trkpt lat="30.9218600" lon="35.3099400">
<ele>-246.921509</ele>
<time>2011-03-12T08:28:43.000Z</time>
</trkpt>
<trkpt lat="30.9216400" lon="35.3095000">
<ele>-245.960068</ele>
<time>2011-03-12T08:28:59.000Z</time>
</trkpt>
<trkpt lat="30.9217400" lon="35.3089700">
<ele>-245.479492</ele>
<time>2011-03-12T08:29:15.000Z</time>
</trkpt>
<trkpt lat="30.9216800" lon="35.3087200">
<ele>-244.998901</ele>
<time>2011-03-12T08:29:24.000Z</time>
</trkpt>
<trkpt lat="30.9213600" lon="35.3082200">
<ele>-244.037476</ele>
<time>2011-03-12T08:29:42.000Z</time>
</trkpt>
<trkpt lat="30.9209300" lon="35.3080200">
<ele>-243.556885</ele>
<time>2011-03-12T08:29:57.000Z</time>
</trkpt>
<trkpt lat="30.9206700" lon="35.3077900">
<ele>-243.076294</ele>
<time>2011-03-12T08:30:11.000Z</time>
</trkpt>
<trkpt lat="30.9206400" lon="35.3076600">
<ele>-244.037476</ele>
<time>2011-03-12T08:30:16.000Z</time>
</trkpt>
<trkpt lat="30.9206200" lon="35.3076100">
<ele>-243.556885</ele>
<time>2011-03-12T08:30:18.000Z</time>
</trkpt>
<trkpt lat="30.9206000" lon="35.3074300">
<ele>-244.037476</ele>
<time>2011-03-12T08:30:25.000Z</time>
</trkpt>
<trkpt lat="30.9208000" lon="35.3072300">
<ele>-244.037476</ele>
<time>2011-03-12T08:30:36.000Z</time>
</trkpt>
<trkpt lat="30.9212200" lon="35.3071800">
<ele>-242.595581</ele>
<time>2011-03-12T08:30:53.000Z</time>
</trkpt>
<trkpt lat="30.9214900" lon="35.3069200">
<ele>-242.114883</ele>
<time>2011-03-12T08:31:10.000Z</time>
</trkpt>
<trkpt lat="30.9216300" lon="35.3065500">
<ele>-241.153687</ele>
<time>2011-03-12T08:31:26.000Z</time>
</trkpt>
<trkpt lat="30.9216300" lon="35.3064100">
<ele>-241.153687</ele>
<time>2011-03-12T08:31:43.000Z</time>
</trkpt>
<trkpt lat="30.9216300" lon="35.3063900">
<ele>-241.153687</ele>
<time>2011-03-12T08:31:45.000Z</time>
</trkpt>
<trkpt lat="30.9216600" lon="35.3063300">
<ele>-240.672974</ele>
<time>2011-03-12T08:31:50.000Z</time>
</trkpt>
<trkpt lat="30.9217500" lon="35.3061900">
<ele>-241.153687</ele>
<time>2011-03-12T08:31:57.000Z</time>
</trkpt>
<trkpt lat="30.9217800" lon="35.3060700">
<ele>-241.153687</ele>
<time>2011-03-12T08:32:01.000Z</time>
</trkpt>
<trkpt lat="30.9216900" lon="35.3055800">
<ele>-240.192261</ele>
<time>2011-03-12T08:32:17.000Z</time>
</trkpt>
<trkpt lat="30.9216600" lon="35.3055000">
<ele>-239.230957</ele>
<time>2011-03-12T08:32:21.000Z</time>
</trkpt>
<trkpt lat="30.9215600" lon="35.3054100">
<ele>-239.711548</ele>
<time>2011-03-12T08:32:27.000Z</time>
</trkpt>
<trkpt lat="30.9212900" lon="35.3051000">
<ele>-239.230957</ele>
<time>2011-03-12T08:32:42.000Z</time>
</trkpt>
<trkpt lat="30.9209500" lon="35.3047000">
<ele>-239.230957</ele>
<time>2011-03-12T08:32:58.000Z</time>
</trkpt>
<trkpt lat="30.9209800" lon="35.3045100">
<ele>-238.750244</ele>
<time>2011-03-12T08:33:09.000Z</time>
</trkpt>
<trkpt lat="30.9210800" lon="35.3044900">
<ele>-238.750244</ele>
<time>2011-03-12T08:33:13.000Z</time>
</trkpt>
<trkpt lat="30.9213900" lon="35.3042300">
<ele>-237.788940</ele>
<time>2011-03-12T08:33:29.000Z</time>
</trkpt>
<trkpt lat="30.9214100" lon="35.3041400">
<ele>-237.788940</ele>
<time>2011-03-12T08:33:33.000Z</time>
</trkpt>
<trkpt lat="30.9215100" lon="35.3037100">
<ele>-238.269531</ele>
<time>2011-03-12T08:33:50.000Z</time>
</trkpt>
<trkpt lat="30.9216600" lon="35.3035100">
<ele>-236.827621</ele>
<time>2011-03-12T08:33:58.000Z</time>
</trkpt>
<trkpt lat="30.9218100" lon="35.3035700">
<ele>-236.827621</ele>
<time>2011-03-12T08:34:06.000Z</time>
</trkpt>
<trkpt lat="30.9221100" lon="35.3037800">
<ele>-236.827621</ele>
<time>2011-03-12T08:34:20.000Z</time>
</trkpt>
<trkpt lat="30.9225500" lon="35.3038500">
<ele>-235.385742</ele>
<time>2011-03-12T08:34:38.000Z</time>
</trkpt>
<trkpt lat="30.9226000" lon="35.3038500">
<ele>-234.905029</ele>
<time>2011-03-12T08:34:41.000Z</time>
</trkpt>
<trkpt lat="30.9228100" lon="35.3035400">
<ele>-234.905029</ele>
<time>2011-03-12T08:34:57.000Z</time>
</trkpt>
<trkpt lat="30.9228700" lon="35.3032400">
<ele>-234.424316</ele>
<time>2011-03-12T08:35:08.000Z</time>
</trkpt>
<trkpt lat="30.9230300" lon="35.3031100">
<ele>-232.982437</ele>
<time>2011-03-12T08:35:15.000Z</time>
</trkpt>
<trkpt lat="30.9230600" lon="35.3030100">
<ele>-233.463120</ele>
<time>2011-03-12T08:35:19.000Z</time>
</trkpt>
<trkpt lat="30.9232600" lon="35.3026300">
<ele>-232.982437</ele>
<time>2011-03-12T08:35:34.000Z</time>
</trkpt>
<trkpt lat="30.9233500" lon="35.3023500">
<ele>-232.982437</ele>
<time>2011-03-12T08:35:45.000Z</time>
</trkpt>
<trkpt lat="30.9231800" lon="35.3019700">
<ele>-232.501709</ele>
<time>2011-03-12T08:35:59.000Z</time>
</trkpt>
<trkpt lat="30.9228900" lon="35.3017400">
<ele>-232.021118</ele>
<time>2011-03-12T08:36:13.000Z</time>
</trkpt>
<trkpt lat="30.9228800" lon="35.3014400">
<ele>-232.021118</ele>
<time>2011-03-12T08:36:24.000Z</time>
</trkpt>
<trkpt lat="30.9230200" lon="35.3010400">
<ele>-231.059708</ele>
<time>2011-03-12T08:36:39.000Z</time>
</trkpt>
<trkpt lat="30.9230200" lon="35.3009900">
<ele>-231.059708</ele>
<time>2011-03-12T08:36:41.000Z</time>
</trkpt>
<trkpt lat="30.9229100" lon="35.3005800">
<ele>-230.578979</ele>
<time>2011-03-12T08:36:56.000Z</time>
</trkpt>
<trkpt lat="30.9228500" lon="35.3004600">
<ele>-230.098389</ele>
<time>2011-03-12T08:37:04.000Z</time>
</trkpt>
<trkpt lat="30.9225400" lon="35.3004400">
<ele>-228.175781</ele>
<time>2011-03-12T08:37:19.000Z</time>
</trkpt>
<trkpt lat="30.9222400" lon="35.3002600">
<ele>-224.330566</ele>
<time>2011-03-12T08:37:29.000Z</time>
</trkpt>
<trkpt lat="30.9222100" lon="35.3002500">
<ele>-224.330566</ele>
<time>2011-03-12T08:37:30.000Z</time>
</trkpt>
<trkpt lat="30.9219300" lon="35.3001200">
<ele>-225.291870</ele>
<time>2011-03-12T08:37:42.000Z</time>
</trkpt>
<trkpt lat="30.9219100" lon="35.2999200">
<ele>-226.253174</ele>
<time>2011-03-12T08:37:51.000Z</time>
</trkpt>
<trkpt lat="30.9219200" lon="35.2996800">
<ele>-225.772583</ele>
<time>2011-03-12T08:38:04.000Z</time>
</trkpt>
<trkpt lat="30.9218800" lon="35.2991400">
<ele>-225.291870</ele>
<time>2011-03-12T08:38:21.000Z</time>
</trkpt>
<trkpt lat="30.9218600" lon="35.2990700">
<ele>-225.772583</ele>
<time>2011-03-12T08:38:33.000Z</time>
</trkpt>
<trkpt lat="30.9218400" lon="35.2990500">
<ele>-225.772583</ele>
<time>2011-03-12T08:38:45.000Z</time>
</trkpt>
<trkpt lat="30.9218500" lon="35.2990400">
<ele>-224.330566</ele>
<time>2011-03-12T08:40:13.000Z</time>
</trkpt>
<trkpt lat="30.9218400" lon="35.2989600">
<ele>-224.811157</ele>
<time>2011-03-12T08:40:50.000Z</time>
</trkpt>
<trkpt lat="30.9218300" lon="35.2988800">
<ele>-224.811157</ele>
<time>2011-03-12T08:41:10.000Z</time>
</trkpt>
<trkpt lat="30.9217900" lon="35.2987500">
<ele>-224.330566</ele>
<time>2011-03-12T08:41:22.000Z</time>
</trkpt>
<trkpt lat="30.9217000" lon="35.2984400">
<ele>-223.849854</ele>
<time>2011-03-12T08:41:37.000Z</time>
</trkpt>
<trkpt lat="30.9215500" lon="35.2981400">
<ele>-224.811157</ele>
<time>2011-03-12T08:41:49.000Z</time>
</trkpt>
<trkpt lat="30.9212200" lon="35.2979300">
<ele>-224.330566</ele>
<time>2011-03-12T08:42:01.000Z</time>
</trkpt>
<trkpt lat="30.9211000" lon="35.2975900">
<ele>-223.849854</ele>
<time>2011-03-12T08:42:10.000Z</time>
</trkpt>
<trkpt lat="30.9210300" lon="35.2974900">
<ele>-223.849854</ele>
<time>2011-03-12T08:42:14.000Z</time>
</trkpt>
<trkpt lat="30.9209500" lon="35.2969600">
<ele>-222.407837</ele>
<time>2011-03-12T08:42:28.000Z</time>
</trkpt>
<trkpt lat="30.9208700" lon="35.2967300">
<ele>-222.407837</ele>
<time>2011-03-12T08:42:34.000Z</time>
</trkpt>
<trkpt lat="30.9208900" lon="35.2965200">
<ele>-221.927261</ele>
<time>2011-03-12T08:42:39.000Z</time>
</trkpt>
<trkpt lat="30.9210400" lon="35.2959500">
<ele>-222.407837</ele>
<time>2011-03-12T08:42:55.000Z</time>
</trkpt>
<trkpt lat="30.9211300" lon="35.2956800">
<ele>-220.965820</ele>
<time>2011-03-12T08:43:03.000Z</time>
</trkpt>
<trkpt lat="30.9210100" lon="35.2952800">
<ele>-220.485214</ele>
<time>2011-03-12T08:43:17.000Z</time>
</trkpt>
<trkpt lat="30.9208100" lon="35.2951900">
<ele>-220.485214</ele>
<time>2011-03-12T08:43:27.000Z</time>
</trkpt>
<trkpt lat="30.9204500" lon="35.2950100">
<ele>-220.004639</ele>
<time>2011-03-12T08:43:41.000Z</time>
</trkpt>
<trkpt lat="30.9205200" lon="35.2947300">
<ele>-220.004639</ele>
<time>2011-03-12T08:43:52.000Z</time>
</trkpt>
<trkpt lat="30.9207900" lon="35.2944300">
<ele>-219.043213</ele>
<time>2011-03-12T08:44:07.000Z</time>
</trkpt>
<trkpt lat="30.9209700" lon="35.2942800">
<ele>-218.562622</ele>
<time>2011-03-12T08:44:15.000Z</time>
</trkpt>
<trkpt lat="30.9213000" lon="35.2940600">
<ele>-218.082031</ele>
<time>2011-03-12T08:44:30.000Z</time>
</trkpt>
<trkpt lat="30.9215200" lon="35.2939000">
<ele>-217.601318</ele>
<time>2011-03-12T08:44:42.000Z</time>
</trkpt>
<trkpt lat="30.9215600" lon="35.2938700">
<ele>-216.640030</ele>
<time>2011-03-12T08:44:54.000Z</time>
</trkpt>
<trkpt lat="30.9215700" lon="35.2938500">
<ele>-216.159424</ele>
<time>2011-03-12T08:46:49.000Z</time>
</trkpt>
<trkpt lat="30.9218200" lon="35.2936100">
<ele>-216.159424</ele>
<time>2011-03-12T08:47:04.000Z</time>
</trkpt>
<trkpt lat="30.9219600" lon="35.2935500">
<ele>-215.197876</ele>
<time>2011-03-12T08:47:09.000Z</time>
</trkpt>
<trkpt lat="30.9220900" lon="35.2933400">
<ele>-214.717300</ele>
<time>2011-03-12T08:47:19.000Z</time>
</trkpt>
<trkpt lat="30.9221100" lon="35.2932500">
<ele>-214.236694</ele>
<time>2011-03-12T08:47:35.000Z</time>
</trkpt>
<trkpt lat="30.9221100" lon="35.2932300">
<ele>-213.755981</ele>
<time>2011-03-12T08:47:51.000Z</time>
</trkpt>
<trkpt lat="30.9218700" lon="35.2930400">
<ele>-213.275269</ele>
<time>2011-03-12T08:48:05.000Z</time>
</trkpt>
<trkpt lat="30.9218000" lon="35.2928400">
<ele>-213.755981</ele>
<time>2011-03-12T08:48:11.000Z</time>
</trkpt>
<trkpt lat="30.9214400" lon="35.2923400">
<ele>-212.794678</ele>
<time>2011-03-12T08:48:26.000Z</time>
</trkpt>
<trkpt lat="30.9213500" lon="35.2921400">
<ele>-212.794678</ele>
<time>2011-03-12T08:48:31.000Z</time>
</trkpt>
<trkpt lat="30.9213600" lon="35.2915100">
<ele>-211.833374</ele>
<time>2011-03-12T08:48:46.000Z</time>
</trkpt>
<trkpt lat="30.9214900" lon="35.2910700">
<ele>-210.872070</ele>
<time>2011-03-12T08:49:03.000Z</time>
</trkpt>
<trkpt lat="30.9216600" lon="35.2904700">
<ele>-210.391479</ele>
<time>2011-03-12T08:49:23.000Z</time>
</trkpt>
<trkpt lat="30.9218800" lon="35.2900200">
<ele>-210.391479</ele>
<time>2011-03-12T08:49:40.000Z</time>
</trkpt>
<trkpt lat="30.9221100" lon="35.2897000">
<ele>-209.910767</ele>
<time>2011-03-12T08:49:52.000Z</time>
</trkpt>
<trkpt lat="30.9221800" lon="35.2892300">
<ele>-208.468872</ele>
<time>2011-03-12T08:50:08.000Z</time>
</trkpt>
<trkpt lat="30.9221900" lon="35.2892000">
<ele>-208.468872</ele>
<time>2011-03-12T08:50:09.000Z</time>
</trkpt>
<trkpt lat="30.9223200" lon="35.2886900">
<ele>-208.468872</ele>
<time>2011-03-12T08:50:25.000Z</time>
</trkpt>
<trkpt lat="30.9222700" lon="35.2881300">
<ele>-206.546143</ele>
<time>2011-03-12T08:50:41.000Z</time>
</trkpt>
<trkpt lat="30.9224500" lon="35.2877300">
<ele>-206.065430</ele>
<time>2011-03-12T08:50:55.000Z</time>
</trkpt>
<trkpt lat="30.9224400" lon="35.2873200">
<ele>-205.584717</ele>
<time>2011-03-12T08:51:08.000Z</time>
</trkpt>
<trkpt lat="30.9224100" lon="35.2868500">
<ele>-203.662125</ele>
<time>2011-03-12T08:51:23.000Z</time>
</trkpt>
<trkpt lat="30.9225600" lon="35.2865400">
<ele>-202.700928</ele>
<time>2011-03-12T08:51:35.000Z</time>
</trkpt>
<trkpt lat="30.9227700" lon="35.2861300">
<ele>-202.700928</ele>
<time>2011-03-12T08:51:49.000Z</time>
</trkpt>
<trkpt lat="30.9228700" lon="35.2859100">
<ele>-202.220215</ele>
<time>2011-03-12T08:51:59.000Z</time>
</trkpt>
<trkpt lat="30.9229800" lon="35.2855400">
<ele>-201.258911</ele>
<time>2011-03-12T08:52:11.000Z</time>
</trkpt>
<trkpt lat="30.9229800" lon="35.2853000">
<ele>-198.855576</ele>
<time>2011-03-12T08:52:18.000Z</time>
</trkpt>
<trkpt lat="30.9229600" lon="35.2848500">
<ele>-196.932983</ele>
<time>2011-03-12T08:52:35.000Z</time>
</trkpt>
<trkpt lat="30.9229400" lon="35.2847400">
<ele>-197.413574</ele>
<time>2011-03-12T08:52:38.000Z</time>
</trkpt>
<trkpt lat="30.9226600" lon="35.2842200">
<ele>-196.452271</ele>
<time>2011-03-12T08:52:52.000Z</time>
</trkpt>
<trkpt lat="30.9224800" lon="35.2839700">
<ele>-193.087769</ele>
<time>2011-03-12T08:53:03.000Z</time>
</trkpt>
<trkpt lat="30.9223400" lon="35.2837800">
<ele>-189.723022</ele>
<time>2011-03-12T08:53:13.000Z</time>
</trkpt>
<trkpt lat="30.9221500" lon="35.2834200">
<ele>-188.761719</ele>
<time>2011-03-12T08:53:31.000Z</time>
</trkpt>
<trkpt lat="30.9220700" lon="35.2830600">
<ele>-189.723022</ele>
<time>2011-03-12T08:53:41.000Z</time>
</trkpt>
<trkpt lat="30.9219400" lon="35.2826400">
<ele>-188.761719</ele>
<time>2011-03-12T08:53:55.000Z</time>
</trkpt>
<trkpt lat="30.9217200" lon="35.2822200">
<ele>-191.165039</ele>
<time>2011-03-12T08:54:11.000Z</time>
</trkpt>
<trkpt lat="30.9215500" lon="35.2817000">
<ele>-190.684326</ele>
<time>2011-03-12T08:54:26.000Z</time>
</trkpt>
<trkpt lat="30.9213500" lon="35.2812700">
<ele>-194.529663</ele>
<time>2011-03-12T08:54:37.000Z</time>
</trkpt>
<trkpt lat="30.9213200" lon="35.2812100">
<ele>-194.048950</ele>
<time>2011-03-12T08:54:38.000Z</time>
</trkpt>
<trkpt lat="30.9211300" lon="35.2807500">
<ele>-196.452271</ele>
<time>2011-03-12T08:54:48.000Z</time>
</trkpt>
<trkpt lat="30.9208800" lon="35.2802500">
<ele>-195.490967</ele>
<time>2011-03-12T08:55:01.000Z</time>
</trkpt>
<trkpt lat="30.9207600" lon="35.2800000">
<ele>-198.374893</ele>
<time>2011-03-12T08:55:07.000Z</time>
</trkpt>
<trkpt lat="30.9207200" lon="35.2799100">
<ele>-199.816772</ele>
<time>2011-03-12T08:55:10.000Z</time>
</trkpt>
<trkpt lat="30.9206800" lon="35.2796700">
<ele>-200.778305</ele>
<time>2011-03-12T08:55:21.000Z</time>
</trkpt>
<trkpt lat="30.9205600" lon="35.2793300">
<ele>-200.297623</ele>
<time>2011-03-12T08:55:37.000Z</time>
</trkpt>
<trkpt lat="30.9204600" lon="35.2791100">
<ele>-199.336182</ele>
<time>2011-03-12T08:55:52.000Z</time>
</trkpt>
<trkpt lat="30.9204400" lon="35.2790800">
<ele>-198.374893</ele>
<time>2011-03-12T08:59:04.000Z</time>
</trkpt>
<trkpt lat="30.9203300" lon="35.2790700">
<ele>-198.374893</ele>
<time>2011-03-12T08:59:11.000Z</time>
</trkpt>
<trkpt lat="30.9202900" lon="35.2791800">
<ele>-198.855576</ele>
<time>2011-03-12T08:59:17.000Z</time>
</trkpt>
<trkpt lat="30.9202400" lon="35.2795800">
<ele>-198.374893</ele>
<time>2011-03-12T08:59:32.000Z</time>
</trkpt>
<trkpt lat="30.9199000" lon="35.2796800">
<ele>-199.336182</ele>
<time>2011-03-12T08:59:44.000Z</time>
</trkpt>
<trkpt lat="30.9196400" lon="35.2797000">
<ele>-202.220215</ele>
<time>2011-03-12T08:59:48.000Z</time>
</trkpt>
<trkpt lat="30.9195700" lon="35.2797100">
<ele>-202.700928</ele>
<time>2011-03-12T08:59:49.000Z</time>
</trkpt>
<trkpt lat="30.9193300" lon="35.2797800">
<ele>-204.142807</ele>
<time>2011-03-12T08:59:53.000Z</time>
</trkpt>
<trkpt lat="30.9186000" lon="35.2797300">
<ele>-204.623535</ele>
<time>2011-03-12T09:00:06.000Z</time>
</trkpt>
<trkpt lat="30.9184600" lon="35.2796700">
<ele>-205.104126</ele>
<time>2011-03-12T09:00:09.000Z</time>
</trkpt>
<trkpt lat="30.9183000" lon="35.2796600">
<ele>-205.584717</ele>
<time>2011-03-12T09:00:12.000Z</time>
</trkpt>
<trkpt lat="30.9181000" lon="35.2796900">
<ele>-205.584717</ele>
<time>2011-03-12T09:00:16.000Z</time>
</trkpt>
<trkpt lat="30.9177400" lon="35.2798500">
<ele>-206.065430</ele>
<time>2011-03-12T09:00:24.000Z</time>
</trkpt>
<trkpt lat="30.9175000" lon="35.2799000">
<ele>-207.026733</ele>
<time>2011-03-12T09:00:29.000Z</time>
</trkpt>
<trkpt lat="30.9166800" lon="35.2798400">
<ele>-208.949463</ele>
<time>2011-03-12T09:00:46.000Z</time>
</trkpt>
<trkpt lat="30.9165400" lon="35.2798700">
<ele>-208.949463</ele>
<time>2011-03-12T09:00:49.000Z</time>
</trkpt>
<trkpt lat="30.9162900" lon="35.2800500">
<ele>-209.430038</ele>
<time>2011-03-12T09:00:56.000Z</time>
</trkpt>
<trkpt lat="30.9155900" lon="35.2805900">
<ele>-211.833374</ele>
<time>2011-03-12T09:01:14.000Z</time>
</trkpt>
<trkpt lat="30.9147000" lon="35.2812800">
<ele>-214.236694</ele>
<time>2011-03-12T09:01:34.000Z</time>
</trkpt>
<trkpt lat="30.9137200" lon="35.2820300">
<ele>-217.120605</ele>
<time>2011-03-12T09:01:54.000Z</time>
</trkpt>
<trkpt lat="30.9135600" lon="35.2822200">
<ele>-218.082031</ele>
<time>2011-03-12T09:01:58.000Z</time>
</trkpt>
<trkpt lat="30.9134600" lon="35.2824200">
<ele>-217.601318</ele>
<time>2011-03-12T09:02:02.000Z</time>
</trkpt>
<trkpt lat="30.9131400" lon="35.2834800">
<ele>-220.485214</ele>
<time>2011-03-12T09:02:22.000Z</time>
</trkpt>
<trkpt lat="30.9126600" lon="35.2844000">
<ele>-221.927261</ele>
<time>2011-03-12T09:02:40.000Z</time>
</trkpt>
<trkpt lat="30.9120900" lon="35.2853700">
<ele>-223.369141</ele>
<time>2011-03-12T09:02:59.000Z</time>
</trkpt>
<trkpt lat="30.9116100" lon="35.2862800">
<ele>-225.291870</ele>
<time>2011-03-12T09:03:16.000Z</time>
</trkpt>
<trkpt lat="30.9114800" lon="35.2866100">
<ele>-226.733765</ele>
<time>2011-03-12T09:03:23.000Z</time>
</trkpt>
<trkpt lat="30.9114400" lon="35.2867300">
<ele>-225.291870</ele>
<time>2011-03-12T09:03:27.000Z</time>
</trkpt>
<trkpt lat="30.9114300" lon="35.2867300">
<ele>-225.291870</ele>
<time>2011-03-12T09:03:46.000Z</time>
</trkpt>
<trkpt lat="30.9114300" lon="35.2867300">
<ele>-225.772583</ele>
<time>2011-03-12T09:04:10.000Z</time>
</trkpt>
<trkpt lat="30.9114300" lon="35.2867900">
<ele>-225.772583</ele>
<time>2011-03-12T09:04:13.000Z</time>
</trkpt>
<trkpt lat="30.9112300" lon="35.2874800">
<ele>-227.695206</ele>
<time>2011-03-12T09:04:31.000Z</time>
</trkpt>
<trkpt lat="30.9110600" lon="35.2880900">
<ele>-228.175781</ele>
<time>2011-03-12T09:04:42.000Z</time>
</trkpt>
<trkpt lat="30.9110300" lon="35.2885000">
<ele>-228.175781</ele>
<time>2011-03-12T09:04:49.000Z</time>
</trkpt>
<trkpt lat="30.9110800" lon="35.2889700">
<ele>-231.540390</ele>
<time>2011-03-12T09:04:57.000Z</time>
</trkpt>
<trkpt lat="30.9111000" lon="35.2890400">
<ele>-231.540390</ele>
<time>2011-03-12T09:04:58.000Z</time>
</trkpt>
<trkpt lat="30.9111800" lon="35.2893500">
<ele>-231.059708</ele>
<time>2011-03-12T09:05:03.000Z</time>
</trkpt>
<trkpt lat="30.9112300" lon="35.2895500">
<ele>-232.501709</ele>
<time>2011-03-12T09:05:06.000Z</time>
</trkpt>
<trkpt lat="30.9114400" lon="35.2900100">
<ele>-232.982437</ele>
<time>2011-03-12T09:05:14.000Z</time>
</trkpt>
<trkpt lat="30.9114800" lon="35.2902500">
<ele>-231.540390</ele>
<time>2011-03-12T09:05:18.000Z</time>
</trkpt>
<trkpt lat="30.9113200" lon="35.2906500">
<ele>-232.021118</ele>
<time>2011-03-12T09:05:25.000Z</time>
</trkpt>
<trkpt lat="30.9110100" lon="35.2909200">
<ele>-232.982437</ele>
<time>2011-03-12T09:05:31.000Z</time>
</trkpt>
<trkpt lat="30.9104000" lon="35.2910700">
<ele>-234.424316</ele>
<time>2011-03-12T09:05:40.000Z</time>
</trkpt>
<trkpt lat="30.9100300" lon="35.2910200">
<ele>-236.346939</ele>
<time>2011-03-12T09:05:45.000Z</time>
</trkpt>
<trkpt lat="30.9096000" lon="35.2911600">
<ele>-236.827621</ele>
<time>2011-03-12T09:05:52.000Z</time>
</trkpt>
<trkpt lat="30.9092900" lon="35.2915000">
<ele>-236.346939</ele>
<time>2011-03-12T09:05:59.000Z</time>
</trkpt>
<trkpt lat="30.9091500" lon="35.2917200">
<ele>-238.269531</ele>
<time>2011-03-12T09:06:03.000Z</time>
</trkpt>
<trkpt lat="30.9091000" lon="35.2918500">
<ele>-239.230957</ele>
<time>2011-03-12T09:06:05.000Z</time>
</trkpt>
<trkpt lat="30.9090700" lon="35.2919700">
<ele>-238.269531</ele>
<time>2011-03-12T09:06:07.000Z</time>
</trkpt>
<trkpt lat="30.9091400" lon="35.2928300">
<ele>-240.672974</ele>
<time>2011-03-12T09:06:24.000Z</time>
</trkpt>
<trkpt lat="30.9092000" lon="35.2930500">
<ele>-241.153687</ele>
<time>2011-03-12T09:06:28.000Z</time>
</trkpt>
<trkpt lat="30.9092400" lon="35.2931500">
<ele>-241.153687</ele>
<time>2011-03-12T09:06:30.000Z</time>
</trkpt>
<trkpt lat="30.9096000" lon="35.2937300">
<ele>-240.672974</ele>
<time>2011-03-12T09:06:46.000Z</time>
</trkpt>
<trkpt lat="30.9100600" lon="35.2946100">
<ele>-242.114883</ele>
<time>2011-03-12T09:07:06.000Z</time>
</trkpt>
<trkpt lat="30.9101100" lon="35.2947300">
<ele>-243.076294</ele>
<time>2011-03-12T09:07:08.000Z</time>
</trkpt>
<trkpt lat="30.9101500" lon="35.2949900">
<ele>-242.595581</ele>
<time>2011-03-12T09:07:12.000Z</time>
</trkpt>
<trkpt lat="30.9101400" lon="35.2952100">
<ele>-243.556885</ele>
<time>2011-03-12T09:07:15.000Z</time>
</trkpt>
<trkpt lat="30.9097500" lon="35.2962700">
<ele>-244.998901</ele>
<time>2011-03-12T09:07:32.000Z</time>
</trkpt>
<trkpt lat="30.9094500" lon="35.2969200">
<ele>-244.037476</ele>
<time>2011-03-12T09:07:44.000Z</time>
</trkpt>
<trkpt lat="30.9092400" lon="35.2971400">
<ele>-244.518188</ele>
<time>2011-03-12T09:07:49.000Z</time>
</trkpt>
<trkpt lat="30.9086500" lon="35.2975200">
<ele>-246.921509</ele>
<time>2011-03-12T09:07:59.000Z</time>
</trkpt>
<trkpt lat="30.9079100" lon="35.2977700">
<ele>-247.402115</ele>
<time>2011-03-12T09:08:11.000Z</time>
</trkpt>
<trkpt lat="30.9075800" lon="35.2981300">
<ele>-247.402115</ele>
<time>2011-03-12T09:08:20.000Z</time>
</trkpt>
<trkpt lat="30.9075000" lon="35.2983400">
<ele>-247.402115</ele>
<time>2011-03-12T09:08:24.000Z</time>
</trkpt>
<trkpt lat="30.9074900" lon="35.2988300">
<ele>-248.844238</ele>
<time>2011-03-12T09:08:33.000Z</time>
</trkpt>
<trkpt lat="30.9075900" lon="35.2990800">
<ele>-249.805420</ele>
<time>2011-03-12T09:08:38.000Z</time>
</trkpt>
<trkpt lat="30.9076700" lon="35.2991500">
<ele>-250.286133</ele>
<time>2011-03-12T09:08:40.000Z</time>
</trkpt>
<trkpt lat="30.9078100" lon="35.2993300">
<ele>-252.208740</ele>
<time>2011-03-12T09:08:44.000Z</time>
</trkpt>
<trkpt lat="30.9078800" lon="35.2994100">
<ele>-252.208740</ele>
<time>2011-03-12T09:08:46.000Z</time>
</trkpt>
<trkpt lat="30.9080800" lon="35.2998200">
<ele>-251.728027</ele>
<time>2011-03-12T09:08:54.000Z</time>
</trkpt>
<trkpt lat="30.9081500" lon="35.3002800">
<ele>-250.766846</ele>
<time>2011-03-12T09:09:02.000Z</time>
</trkpt>
<trkpt lat="30.9081600" lon="35.3006100">
<ele>-251.247437</ele>
<time>2011-03-12T09:09:08.000Z</time>
</trkpt>
<trkpt lat="30.9083200" lon="35.3009900">
<ele>-252.208740</ele>
<time>2011-03-12T09:09:16.000Z</time>
</trkpt>
<trkpt lat="30.9085900" lon="35.3014000">
<ele>-251.728027</ele>
<time>2011-03-12T09:09:26.000Z</time>
</trkpt>
<trkpt lat="30.9090100" lon="35.3015100">
<ele>-252.689453</ele>
<time>2011-03-12T09:09:36.000Z</time>
</trkpt>
<trkpt lat="30.9091000" lon="35.3014200">
<ele>-251.247437</ele>
<time>2011-03-12T09:09:40.000Z</time>
</trkpt>
<trkpt lat="30.9091100" lon="35.3014100">
<ele>-251.247437</ele>
<time>2011-03-12T09:09:55.000Z</time>
</trkpt>
<trkpt lat="30.9091200" lon="35.3014000">
<ele>-251.728027</ele>
<time>2011-03-12T09:10:34.000Z</time>
</trkpt>
<trkpt lat="30.9094700" lon="35.3011200">
<ele>-253.650635</ele>
<time>2011-03-12T09:10:47.000Z</time>
</trkpt>
<trkpt lat="30.9095500" lon="35.3010600">
<ele>-255.092651</ele>
<time>2011-03-12T09:10:49.000Z</time>
</trkpt>
<trkpt lat="30.9097100" lon="35.3009600">
<ele>-254.131348</ele>
<time>2011-03-12T09:10:53.000Z</time>
</trkpt>
<trkpt lat="30.9099700" lon="35.3009200">
<ele>-255.092651</ele>
<time>2011-03-12T09:10:59.000Z</time>
</trkpt>
<trkpt lat="30.9101500" lon="35.3010100">
<ele>-255.573242</ele>
<time>2011-03-12T09:11:03.000Z</time>
</trkpt>
<trkpt lat="30.9103400" lon="35.3011900">
<ele>-257.976685</ele>
<time>2011-03-12T09:11:08.000Z</time>
</trkpt>
<trkpt lat="30.9104100" lon="35.3014100">
<ele>-257.015381</ele>
<time>2011-03-12T09:11:12.000Z</time>
</trkpt>
<trkpt lat="30.9104600" lon="35.3021700">
<ele>-258.457397</ele>
<time>2011-03-12T09:11:24.000Z</time>
</trkpt>
<trkpt lat="30.9104700" lon="35.3023800">
<ele>-257.495972</ele>
<time>2011-03-12T09:11:27.000Z</time>
</trkpt>
<trkpt lat="30.9103600" lon="35.3027000">
<ele>-257.495972</ele>
<time>2011-03-12T09:11:32.000Z</time>
</trkpt>
<trkpt lat="30.9102200" lon="35.3029500">
<ele>-259.418579</ele>
<time>2011-03-12T09:11:36.000Z</time>
</trkpt>
<trkpt lat="30.9101400" lon="35.3032100">
<ele>-260.860596</ele>
<time>2011-03-12T09:11:40.000Z</time>
</trkpt>
<trkpt lat="30.9101200" lon="35.3033400">
<ele>-259.899292</ele>
<time>2011-03-12T09:11:42.000Z</time>
</trkpt>
<trkpt lat="30.9101200" lon="35.3037300">
<ele>-259.418579</ele>
<time>2011-03-12T09:11:48.000Z</time>
</trkpt>
<trkpt lat="30.9101600" lon="35.3039900">
<ele>-261.341187</ele>
<time>2011-03-12T09:11:52.000Z</time>
</trkpt>
<trkpt lat="30.9102100" lon="35.3045900">
<ele>-261.341187</ele>
<time>2011-03-12T09:12:01.000Z</time>
</trkpt>
<trkpt lat="30.9102600" lon="35.3047800">
<ele>-260.380005</ele>
<time>2011-03-12T09:12:04.000Z</time>
</trkpt>
<trkpt lat="30.9104700" lon="35.3056800">
<ele>-261.341187</ele>
<time>2011-03-12T09:12:19.000Z</time>
</trkpt>
<trkpt lat="30.9104800" lon="35.3057400">
<ele>-261.821899</ele>
<time>2011-03-12T09:12:20.000Z</time>
</trkpt>
<trkpt lat="30.9104300" lon="35.3062300">
<ele>-261.821899</ele>
<time>2011-03-12T09:12:28.000Z</time>
</trkpt>
<trkpt lat="30.9101700" lon="35.3065200">
<ele>-261.341187</ele>
<time>2011-03-12T09:12:36.000Z</time>
</trkpt>
<trkpt lat="30.9099100" lon="35.3065100">
<ele>-262.302612</ele>
<time>2011-03-12T09:12:43.000Z</time>
</trkpt>
<trkpt lat="30.9096000" lon="35.3066700">
<ele>-262.783203</ele>
<time>2011-03-12T09:12:51.000Z</time>
</trkpt>
<trkpt lat="30.9094900" lon="35.3068600">
<ele>-263.744507</ele>
<time>2011-03-12T09:12:55.000Z</time>
</trkpt>
<trkpt lat="30.9095600" lon="35.3072300">
<ele>-264.705933</ele>
<time>2011-03-12T09:13:03.000Z</time>
</trkpt>
<trkpt lat="30.9096500" lon="35.3072500">
<ele>-264.705933</ele>
<time>2011-03-12T09:13:05.000Z</time>
</trkpt>
<trkpt lat="30.9097400" lon="35.3072600">
<ele>-265.667236</ele>
<time>2011-03-12T09:13:07.000Z</time>
</trkpt>
<trkpt lat="30.9099500" lon="35.3074200">
<ele>-264.225342</ele>
<time>2011-03-12T09:13:13.000Z</time>
</trkpt>
<trkpt lat="30.9100000" lon="35.3075000">
<ele>-264.225342</ele>
<time>2011-03-12T09:13:15.000Z</time>
</trkpt>
<trkpt lat="30.9099100" lon="35.3077900">
<ele>-264.225342</ele>
<time>2011-03-12T09:13:23.000Z</time>
</trkpt>
<trkpt lat="30.9098300" lon="35.3077700">
<ele>-265.186523</ele>
<time>2011-03-12T09:13:25.000Z</time>
</trkpt>
<trkpt lat="30.9097400" lon="35.3077200">
<ele>-266.147949</ele>
<time>2011-03-12T09:13:27.000Z</time>
</trkpt>
<trkpt lat="30.9096900" lon="35.3077100">
<ele>-266.147949</ele>
<time>2011-03-12T09:13:28.000Z</time>
</trkpt>
<trkpt lat="30.9095300" lon="35.3076800">
<ele>-267.109131</ele>
<time>2011-03-12T09:13:31.000Z</time>
</trkpt>
<trkpt lat="30.9093700" lon="35.3076300">
<ele>-267.589844</ele>
<time>2011-03-12T09:13:34.000Z</time>
</trkpt>
<trkpt lat="30.9090900" lon="35.3077300">
<ele>-267.109131</ele>
<time>2011-03-12T09:13:43.000Z</time>
</trkpt>
<trkpt lat="30.9090800" lon="35.3078900">
<ele>-267.589844</ele>
<time>2011-03-12T09:13:48.000Z</time>
</trkpt>
<trkpt lat="30.9089700" lon="35.3085800">
<ele>-270.954346</ele>
<time>2011-03-12T09:14:01.000Z</time>
</trkpt>
<trkpt lat="30.9089800" lon="35.3087100">
<ele>-270.473755</ele>
<time>2011-03-12T09:14:03.000Z</time>
</trkpt>
<trkpt lat="30.9092600" lon="35.3090600">
<ele>-269.993164</ele>
<time>2011-03-12T09:14:12.000Z</time>
</trkpt>
<trkpt lat="30.9093100" lon="35.3090700">
<ele>-269.993164</ele>
<time>2011-03-12T09:14:13.000Z</time>
</trkpt>
<trkpt lat="30.9098100" lon="35.3091800">
<ele>-270.954346</ele>
<time>2011-03-12T09:14:23.000Z</time>
</trkpt>
<trkpt lat="30.9100000" lon="35.3093000">
<ele>-273.357788</ele>
<time>2011-03-12T09:14:28.000Z</time>
</trkpt>
<trkpt lat="30.9100600" lon="35.3093800">
<ele>-272.877075</ele>
<time>2011-03-12T09:14:30.000Z</time>
</trkpt>
<trkpt lat="30.9103300" lon="35.3098000">
<ele>-274.799683</ele>
<time>2011-03-12T09:14:40.000Z</time>
</trkpt>
<trkpt lat="30.9104800" lon="35.3101500">
<ele>-274.319092</ele>
<time>2011-03-12T09:14:47.000Z</time>
</trkpt>
<trkpt lat="30.9109400" lon="35.3107000">
<ele>-274.319092</ele>
<time>2011-03-12T09:15:01.000Z</time>
</trkpt>
<trkpt lat="30.9110000" lon="35.3108300">
<ele>-273.838501</ele>
<time>2011-03-12T09:15:04.000Z</time>
</trkpt>
<trkpt lat="30.9108700" lon="35.3113400">
<ele>-274.319092</ele>
<time>2011-03-12T09:15:14.000Z</time>
</trkpt>
<trkpt lat="30.9107700" lon="35.3114200">
<ele>-275.761108</ele>
<time>2011-03-12T09:15:16.000Z</time>
</trkpt>
<trkpt lat="30.9103100" lon="35.3117600">
<ele>-276.241699</ele>
<time>2011-03-12T09:15:26.000Z</time>
</trkpt>
<trkpt lat="30.9102400" lon="35.3118700">
<ele>-277.203003</ele>
<time>2011-03-12T09:15:28.000Z</time>
</trkpt>
<trkpt lat="30.9101100" lon="35.3123600">
<ele>-277.203003</ele>
<time>2011-03-12T09:15:36.000Z</time>
</trkpt>
<trkpt lat="30.9101500" lon="35.3126400">
<ele>-277.203003</ele>
<time>2011-03-12T09:15:41.000Z</time>
</trkpt>
<trkpt lat="30.9103100" lon="35.3130100">
<ele>-280.087036</ele>
<time>2011-03-12T09:15:48.000Z</time>
</trkpt>
<trkpt lat="30.9104400" lon="35.3132200">
<ele>-277.683716</ele>
<time>2011-03-12T09:15:52.000Z</time>
</trkpt>
<trkpt lat="30.9103800" lon="35.3136000">
<ele>-279.125610</ele>
<time>2011-03-12T09:16:00.000Z</time>
</trkpt>
<trkpt lat="30.9103100" lon="35.3136900">
<ele>-279.125610</ele>
<time>2011-03-12T09:16:02.000Z</time>
</trkpt>
<trkpt lat="30.9097600" lon="35.3141500">
<ele>-281.529053</ele>
<time>2011-03-12T09:16:15.000Z</time>
</trkpt>
<trkpt lat="30.9092600" lon="35.3146400">
<ele>-283.451660</ele>
<time>2011-03-12T09:16:28.000Z</time>
</trkpt>
<trkpt lat="30.9086300" lon="35.3151100">
<ele>-283.932251</ele>
<time>2011-03-12T09:16:42.000Z</time>
</trkpt>
<trkpt lat="30.9085900" lon="35.3151500">
<ele>-283.932251</ele>
<time>2011-03-12T09:16:43.000Z</time>
</trkpt>
<trkpt lat="30.9084700" lon="35.3154800">
<ele>-283.932251</ele>
<time>2011-03-12T09:16:50.000Z</time>
</trkpt>
<trkpt lat="30.9084800" lon="35.3155900">
<ele>-283.932251</ele>
<time>2011-03-12T09:16:52.000Z</time>
</trkpt>
<trkpt lat="30.9085200" lon="35.3158100">
<ele>-284.893555</ele>
<time>2011-03-12T09:16:56.000Z</time>
</trkpt>
<trkpt lat="30.9085200" lon="35.3159600">
<ele>-284.893555</ele>
<time>2011-03-12T09:16:59.000Z</time>
</trkpt>
<trkpt lat="30.9084800" lon="35.3164400">
<ele>-284.412842</ele>
<time>2011-03-12T09:17:10.000Z</time>
</trkpt>
<trkpt lat="30.9084400" lon="35.3169200">
<ele>-287.777466</ele>
<time>2011-03-12T09:17:22.000Z</time>
</trkpt>
<trkpt lat="30.9083600" lon="35.3176300">
<ele>-286.335449</ele>
<time>2011-03-12T09:17:34.000Z</time>
</trkpt>
<trkpt lat="30.9084400" lon="35.3186600">
<ele>-290.180786</ele>
<time>2011-03-12T09:17:46.000Z</time>
</trkpt>
<trkpt lat="30.9084500" lon="35.3187400">
<ele>-289.700195</ele>
<time>2011-03-12T09:17:47.000Z</time>
</trkpt>
<trkpt lat="30.9084600" lon="35.3189600">
<ele>-287.777466</ele>
<time>2011-03-12T09:17:50.000Z</time>
</trkpt>
<trkpt lat="30.9085200" lon="35.3200400">
<ele>-289.219604</ele>
<time>2011-03-12T09:18:06.000Z</time>
</trkpt>
<trkpt lat="30.9085600" lon="35.3205300">
<ele>-289.700195</ele>
<time>2011-03-12T09:18:14.000Z</time>
</trkpt>
<trkpt lat="30.9085800" lon="35.3209500">
<ele>-290.180786</ele>
<time>2011-03-12T09:18:21.000Z</time>
</trkpt>
<trkpt lat="30.9086400" lon="35.3211800">
<ele>-293.064819</ele>
<time>2011-03-12T09:18:25.000Z</time>
</trkpt>
<trkpt lat="30.9087500" lon="35.3213700">
<ele>-292.103394</ele>
<time>2011-03-12T09:18:29.000Z</time>
</trkpt>
<trkpt lat="30.9090100" lon="35.3216300">
<ele>-290.180786</ele>
<time>2011-03-12T09:18:37.000Z</time>
</trkpt>
<trkpt lat="30.9094800" lon="35.3221700">
<ele>-291.622803</ele>
<time>2011-03-12T09:18:54.000Z</time>
</trkpt>
<trkpt lat="30.9095000" lon="35.3222000">
<ele>-291.622803</ele>
<time>2011-03-12T09:18:55.000Z</time>
</trkpt>
<trkpt lat="30.9097300" lon="35.3226400">
<ele>-291.622803</ele>
<time>2011-03-12T09:19:12.000Z</time>
</trkpt>
<trkpt lat="30.9099600" lon="35.3234200">
<ele>-292.584106</ele>
<time>2011-03-12T09:19:33.000Z</time>
</trkpt>
<trkpt lat="30.9101100" lon="35.3238200">
<ele>-292.584106</ele>
<time>2011-03-12T09:19:43.000Z</time>
</trkpt>
<trkpt lat="30.9102300" lon="35.3242800">
<ele>-293.064819</ele>
<time>2011-03-12T09:19:53.000Z</time>
</trkpt>
<trkpt lat="30.9102900" lon="35.3248900">
<ele>-294.026001</ele>
<time>2011-03-12T09:20:05.000Z</time>
</trkpt>
<trkpt lat="30.9103300" lon="35.3251100">
<ele>-294.026001</ele>
<time>2011-03-12T09:20:09.000Z</time>
</trkpt>
<trkpt lat="30.9103600" lon="35.3252600">
<ele>-295.948608</ele>
<time>2011-03-12T09:20:12.000Z</time>
</trkpt>
<trkpt lat="30.9105700" lon="35.3259600">
<ele>-296.429443</ele>
<time>2011-03-12T09:20:27.000Z</time>
</trkpt>
<trkpt lat="30.9106600" lon="35.3268600">
<ele>-297.390747</ele>
<time>2011-03-12T09:20:46.000Z</time>
</trkpt>
<trkpt lat="30.9107000" lon="35.3278400">
<ele>-296.910156</ele>
<time>2011-03-12T09:21:06.000Z</time>
</trkpt>
<trkpt lat="30.9109100" lon="35.3285200">
<ele>-297.390747</ele>
<time>2011-03-12T09:21:22.000Z</time>
</trkpt>
<trkpt lat="30.9110500" lon="35.3287700">
<ele>-298.352051</ele>
<time>2011-03-12T09:21:28.000Z</time>
</trkpt>
<trkpt lat="30.9113300" lon="35.3290500">
<ele>-299.313354</ele>
<time>2011-03-12T09:21:37.000Z</time>
</trkpt>
<trkpt lat="30.9120500" lon="35.3295100">
<ele>-301.235962</ele>
<time>2011-03-12T09:21:57.000Z</time>
</trkpt>
<trkpt lat="30.9126600" lon="35.3299500">
<ele>-301.716553</ele>
<time>2011-03-12T09:22:18.000Z</time>
</trkpt>
<trkpt lat="30.9133500" lon="35.3305000">
<ele>-302.677979</ele>
<time>2011-03-12T09:22:38.000Z</time>
</trkpt>
<trkpt lat="30.9139600" lon="35.3306100">
<ele>-302.677979</ele>
<time>2011-03-12T09:22:55.000Z</time>
</trkpt>
<trkpt lat="30.9146000" lon="35.3308100">
<ele>-302.677979</ele>
<time>2011-03-12T09:23:13.000Z</time>
</trkpt>
<trkpt lat="30.9152500" lon="35.3311900">
<ele>-303.158569</ele>
<time>2011-03-12T09:23:32.000Z</time>
</trkpt>
<trkpt lat="30.9153000" lon="35.3312700">
<ele>-304.119995</ele>
<time>2011-03-12T09:23:34.000Z</time>
</trkpt>
<trkpt lat="30.9155200" lon="35.3315700">
<ele>-301.716553</ele>
<time>2011-03-12T09:23:47.000Z</time>
</trkpt>
<trkpt lat="30.9155300" lon="35.3315800">
<ele>-302.677979</ele>
<time>2011-03-12T09:25:46.000Z</time>
</trkpt>
<trkpt lat="30.9157600" lon="35.3319100">
<ele>-305.561890</ele>
<time>2011-03-12T09:26:00.000Z</time>
</trkpt>
<trkpt lat="30.9162200" lon="35.3325900">
<ele>-304.600708</ele>
<time>2011-03-12T09:26:19.000Z</time>
</trkpt>
<trkpt lat="30.9165500" lon="35.3332500">
<ele>-307.484497</ele>
<time>2011-03-12T09:26:36.000Z</time>
</trkpt>
<trkpt lat="30.9168200" lon="35.3341700">
<ele>-307.965210</ele>
<time>2011-03-12T09:26:59.000Z</time>
</trkpt>
<trkpt lat="30.9168300" lon="35.3342200">
<ele>-307.965210</ele>
<time>2011-03-12T09:27:00.000Z</time>
</trkpt>
<trkpt lat="30.9169100" lon="35.3345900">
<ele>-309.407104</ele>
<time>2011-03-12T09:27:09.000Z</time>
</trkpt>
<trkpt lat="30.9171200" lon="35.3353400">
<ele>-308.445923</ele>
<time>2011-03-12T09:27:27.000Z</time>
</trkpt>
<trkpt lat="30.9175200" lon="35.3364200">
<ele>-309.887817</ele>
<time>2011-03-12T09:27:53.000Z</time>
</trkpt>
<trkpt lat="30.9177300" lon="35.3372700">
<ele>-309.887817</ele>
<time>2011-03-12T09:28:12.000Z</time>
</trkpt>
<trkpt lat="30.9177600" lon="35.3381500">
<ele>-309.887817</ele>
<time>2011-03-12T09:28:31.000Z</time>
</trkpt>
<trkpt lat="30.9177900" lon="35.3390600">
<ele>-311.329712</ele>
<time>2011-03-12T09:28:50.000Z</time>
</trkpt>
<trkpt lat="30.9177100" lon="35.3394300">
<ele>-313.733154</ele>
<time>2011-03-12T09:28:58.000Z</time>
</trkpt>
<trkpt lat="30.9175700" lon="35.3402000">
<ele>-313.252441</ele>
<time>2011-03-12T09:29:15.000Z</time>
</trkpt>
<trkpt lat="30.9175700" lon="35.3402900">
<ele>-313.733154</ele>
<time>2011-03-12T09:29:17.000Z</time>
</trkpt>
<trkpt lat="30.9175900" lon="35.3410200">
<ele>-313.733154</ele>
<time>2011-03-12T09:29:35.000Z</time>
</trkpt>
<trkpt lat="30.9177200" lon="35.3412400">
<ele>-314.213867</ele>
<time>2011-03-12T09:29:42.000Z</time>
</trkpt>
<trkpt lat="30.9181700" lon="35.3417200">
<ele>-314.694458</ele>
<time>2011-03-12T09:30:00.000Z</time>
</trkpt>
<trkpt lat="30.9185200" lon="35.3422800">
<ele>-315.655762</ele>
<time>2011-03-12T09:30:17.000Z</time>
</trkpt>
<trkpt lat="30.9189400" lon="35.3427100">
<ele>-317.097656</ele>
<time>2011-03-12T09:30:32.000Z</time>
</trkpt>
<trkpt lat="30.9193200" lon="35.3429800">
<ele>-317.097656</ele>
<time>2011-03-12T09:30:43.000Z</time>
</trkpt>
<trkpt lat="30.9197700" lon="35.3432400">
<ele>-318.059113</ele>
<time>2011-03-12T09:30:59.000Z</time>
</trkpt>
<trkpt lat="30.9200800" lon="35.3434900">
<ele>-319.020264</ele>
<time>2011-03-12T09:31:17.000Z</time>
</trkpt>
<trkpt lat="30.9206300" lon="35.3440200">
<ele>-319.020264</ele>
<time>2011-03-12T09:31:39.000Z</time>
</trkpt>
<trkpt lat="30.9207100" lon="35.3440900">
<ele>-320.462402</ele>
<time>2011-03-12T09:31:42.000Z</time>
</trkpt>
<trkpt lat="30.9209800" lon="35.3444200">
<ele>-319.020264</ele>
<time>2011-03-12T09:31:58.000Z</time>
</trkpt>
<trkpt lat="30.9211100" lon="35.3448100">
<ele>-319.500977</ele>
<time>2011-03-12T09:32:12.000Z</time>
</trkpt>
<trkpt lat="30.9214100" lon="35.3452500">
<ele>-320.942963</ele>
<time>2011-03-12T09:32:30.000Z</time>
</trkpt>
<trkpt lat="30.9215700" lon="35.3458700">
<ele>-321.423706</ele>
<time>2011-03-12T09:32:51.000Z</time>
</trkpt>
<trkpt lat="30.9216200" lon="35.3466100">
<ele>-322.385010</ele>
<time>2011-03-12T09:33:12.000Z</time>
</trkpt>
<trkpt lat="30.9216500" lon="35.3471100">
<ele>-322.865601</ele>
<time>2011-03-12T09:33:26.000Z</time>
</trkpt>
<trkpt lat="30.9219100" lon="35.3478000">
<ele>-324.307617</ele>
<time>2011-03-12T09:33:44.000Z</time>
</trkpt>
<trkpt lat="30.9222200" lon="35.3481200">
<ele>-325.268921</ele>
<time>2011-03-12T09:33:55.000Z</time>
</trkpt>
<trkpt lat="30.9226900" lon="35.3486200">
<ele>-325.749634</ele>
<time>2011-03-12T09:34:12.000Z</time>
</trkpt>
<trkpt lat="30.9232200" lon="35.3492300">
<ele>-324.788208</ele>
<time>2011-03-12T09:34:33.000Z</time>
</trkpt>
<trkpt lat="30.9237500" lon="35.3498400">
<ele>-325.749634</ele>
<time>2011-03-12T09:34:52.000Z</time>
</trkpt>
<trkpt lat="30.9243300" lon="35.3507500">
<ele>-327.672241</ele>
<time>2011-03-12T09:35:16.000Z</time>
</trkpt>
<trkpt lat="30.9248600" lon="35.3513800">
<ele>-327.672241</ele>
<time>2011-03-12T09:35:35.000Z</time>
</trkpt>
<trkpt lat="30.9253400" lon="35.3519600">
<ele>-330.075562</ele>
<time>2011-03-12T09:35:52.000Z</time>
</trkpt>
<trkpt lat="30.9257300" lon="35.3523500">
<ele>-330.075562</ele>
<time>2011-03-12T09:36:06.000Z</time>
</trkpt>
<trkpt lat="30.9260800" lon="35.3526600">
<ele>-328.152954</ele>
<time>2011-03-12T09:36:21.000Z</time>
</trkpt>
<trkpt lat="30.9260800" lon="35.3526600">
<ele>-327.672241</ele>
<time>2011-03-12T09:36:48.000Z</time>
</trkpt>
<trkpt lat="30.9261900" lon="35.3527100">
<ele>-328.152954</ele>
<time>2011-03-12T09:36:55.000Z</time>
</trkpt>
<trkpt lat="30.9262700" lon="35.3528100">
<ele>-329.595001</ele>
<time>2011-03-12T09:36:59.000Z</time>
</trkpt>
<trkpt lat="30.9266000" lon="35.3531400">
<ele>-329.595001</ele>
<time>2011-03-12T09:37:14.000Z</time>
</trkpt>
<trkpt lat="30.9269800" lon="35.3538100">
<ele>-331.998169</ele>
<time>2011-03-12T09:37:32.000Z</time>
</trkpt>
<trkpt lat="30.9272600" lon="35.3544000">
<ele>-331.517578</ele>
<time>2011-03-12T09:37:49.000Z</time>
</trkpt>
<trkpt lat="30.9276500" lon="35.3550000">
<ele>-331.998169</ele>
<time>2011-03-12T09:38:07.000Z</time>
</trkpt>
<trkpt lat="30.9282700" lon="35.3555500">
<ele>-332.478760</ele>
<time>2011-03-12T09:38:28.000Z</time>
</trkpt>
<trkpt lat="30.9284700" lon="35.3555900">
<ele>-333.920776</ele>
<time>2011-03-12T09:38:34.000Z</time>
</trkpt>
<trkpt lat="30.9289800" lon="35.3555900">
<ele>-334.882080</ele>
<time>2011-03-12T09:38:49.000Z</time>
</trkpt>
<trkpt lat="30.9296900" lon="35.3555800">
<ele>-334.401367</ele>
<time>2011-03-12T09:39:09.000Z</time>
</trkpt>
<trkpt lat="30.9303600" lon="35.3556000">
<ele>-335.362793</ele>
<time>2011-03-12T09:39:26.000Z</time>
</trkpt>
<trkpt lat="30.9311800" lon="35.3556200">
<ele>-335.362793</ele>
<time>2011-03-12T09:39:45.000Z</time>
</trkpt>
<trkpt lat="30.9314600" lon="35.3556600">
<ele>-337.766113</ele>
<time>2011-03-12T09:39:51.000Z</time>
</trkpt>
<trkpt lat="30.9318700" lon="35.3555500">
<ele>-336.324097</ele>
<time>2011-03-12T09:40:02.000Z</time>
</trkpt>
<trkpt lat="30.9324800" lon="35.3556900">
<ele>-336.804810</ele>
<time>2011-03-12T09:40:20.000Z</time>
</trkpt>
<trkpt lat="30.9332200" lon="35.3559800">
<ele>-337.766113</ele>
<time>2011-03-12T09:40:40.000Z</time>
</trkpt>
<trkpt lat="30.9333500" lon="35.3560600">
<ele>-339.208130</ele>
<time>2011-03-12T09:40:44.000Z</time>
</trkpt>
<trkpt lat="30.9338500" lon="35.3564100">
<ele>-338.727417</ele>
<time>2011-03-12T09:41:00.000Z</time>
</trkpt>
<trkpt lat="30.9342900" lon="35.3570300">
<ele>-340.650024</ele>
<time>2011-03-12T09:41:18.000Z</time>
</trkpt>
<trkpt lat="30.9343600" lon="35.3571300">
<ele>-339.208130</ele>
<time>2011-03-12T09:41:21.000Z</time>
</trkpt>
<trkpt lat="30.9345500" lon="35.3575300">
<ele>-341.130737</ele>
<time>2011-03-12T09:41:32.000Z</time>
</trkpt>
<trkpt lat="30.9348000" lon="35.3580900">
<ele>-340.169312</ele>
<time>2011-03-12T09:41:47.000Z</time>
</trkpt>
<trkpt lat="30.9348200" lon="35.3581400">
<ele>-340.169312</ele>
<time>2011-03-12T09:41:48.000Z</time>
</trkpt>
<trkpt lat="30.9348600" lon="35.3583500">
<ele>-341.611328</ele>
<time>2011-03-12T09:41:53.000Z</time>
</trkpt>
<trkpt lat="30.9348800" lon="35.3584600">
<ele>-340.650024</ele>
<time>2011-03-12T09:41:56.000Z</time>
</trkpt>
<trkpt lat="30.9349700" lon="35.3590000">
<ele>-340.650024</ele>
<time>2011-03-12T09:42:10.000Z</time>
</trkpt>
<trkpt lat="30.9350900" lon="35.3597300">
<ele>-341.611328</ele>
<time>2011-03-12T09:42:28.000Z</time>
</trkpt>
<trkpt lat="30.9351600" lon="35.3607200">
<ele>-341.611328</ele>
<time>2011-03-12T09:42:52.000Z</time>
</trkpt>
<trkpt lat="30.9352400" lon="35.3615200">
<ele>-341.130737</ele>
<time>2011-03-12T09:43:10.000Z</time>
</trkpt>
<trkpt lat="30.9354900" lon="35.3620600">
<ele>-342.572601</ele>
<time>2011-03-12T09:43:24.000Z</time>
</trkpt>
<trkpt lat="30.9357600" lon="35.3627700">
<ele>-343.053345</ele>
<time>2011-03-12T09:43:43.000Z</time>
</trkpt>
<trkpt lat="30.9359800" lon="35.3631800">
<ele>-345.937256</ele>
<time>2011-03-12T09:43:53.000Z</time>
</trkpt>
<trkpt lat="30.9364700" lon="35.3637500">
<ele>-347.379272</ele>
<time>2011-03-12T09:44:08.000Z</time>
</trkpt>
<trkpt lat="30.9370300" lon="35.3644200">
<ele>-349.782471</ele>
<time>2011-03-12T09:44:27.000Z</time>
</trkpt>
<trkpt lat="30.9372000" lon="35.3645700">
<ele>-351.224487</ele>
<time>2011-03-12T09:44:31.000Z</time>
</trkpt>
<trkpt lat="30.9378600" lon="35.3650700">
<ele>-350.263184</ele>
<time>2011-03-12T09:44:48.000Z</time>
</trkpt>
<trkpt lat="30.9384900" lon="35.3653500">
<ele>-350.743927</ele>
<time>2011-03-12T09:45:05.000Z</time>
</trkpt>
<trkpt lat="30.9391600" lon="35.3655000">
<ele>-348.821289</ele>
<time>2011-03-12T09:45:25.000Z</time>
</trkpt>
<trkpt lat="30.9394900" lon="35.3655400">
<ele>-350.743927</ele>
<time>2011-03-12T09:45:39.000Z</time>
</trkpt>
<trkpt lat="30.9398500" lon="35.3657400">
<ele>-348.821289</ele>
<time>2011-03-12T09:45:55.000Z</time>
</trkpt>
<trkpt lat="30.9402000" lon="35.3660600">
<ele>-348.340576</ele>
<time>2011-03-12T09:46:16.000Z</time>
</trkpt>
<trkpt lat="30.9405300" lon="35.3664000">
<ele>-349.301880</ele>
<time>2011-03-12T09:46:34.000Z</time>
</trkpt>
<trkpt lat="30.9406900" lon="35.3666300">
<ele>-347.379272</ele>
<time>2011-03-12T09:46:46.000Z</time>
</trkpt>
<trkpt lat="30.9406900" lon="35.3665700">
<ele>-346.417969</ele>
<time>2011-03-12T09:46:54.000Z</time>
</trkpt>
<trkpt lat="30.9404000" lon="35.3662200">
<ele>-345.937256</ele>
<time>2011-03-12T09:47:10.000Z</time>
</trkpt>
<trkpt lat="30.9401400" lon="35.3659600">
<ele>-346.417969</ele>
<time>2011-03-12T09:47:25.000Z</time>
</trkpt>
<trkpt lat="30.9398200" lon="35.3657000">
<ele>-345.937256</ele>
<time>2011-03-12T09:47:42.000Z</time>
</trkpt>
<trkpt lat="30.9398100" lon="35.3657300">
<ele>-348.340576</ele>
<time>2011-03-12T09:48:05.000Z</time>
</trkpt>
<trkpt lat="30.9398100" lon="35.3657300">
<ele>-346.898682</ele>
<time>2011-03-12T09:51:19.000Z</time>
</trkpt>
<trkpt lat="30.9398000" lon="35.3657300">
<ele>-348.821289</ele>
<time>2011-03-12T09:52:13.000Z</time>
</trkpt>
<trkpt lat="30.9398100" lon="35.3657200">
<ele>-347.379272</ele>
<time>2011-03-12T10:04:34.000Z</time>
</trkpt>
<trkpt lat="30.9398100" lon="35.3657200">
<ele>-347.859833</ele>
<time>2011-03-12T10:05:28.000Z</time>
</trkpt>
<trkpt lat="30.9398300" lon="35.3657200">
<ele>-346.898682</ele>
<time>2011-03-12T10:05:57.000Z</time>
</trkpt>
<trkpt lat="30.9398600" lon="35.3657300">
<ele>-346.898682</ele>
<time>2011-03-12T10:06:25.000Z</time>
</trkpt>
<trkpt lat="30.9399600" lon="35.3658200">
<ele>-347.859833</ele>
<time>2011-03-12T10:06:42.000Z</time>
</trkpt>
<trkpt lat="30.9403100" lon="35.3661400">
<ele>-347.379272</ele>
<time>2011-03-12T10:07:01.000Z</time>
</trkpt>
<trkpt lat="30.9403500" lon="35.3661700">
<ele>-346.898682</ele>
<time>2011-03-12T10:07:03.000Z</time>
</trkpt>
<trkpt lat="30.9405200" lon="35.3663700">
<ele>-347.379272</ele>
<time>2011-03-12T10:07:18.000Z</time>
</trkpt>
<trkpt lat="30.9407500" lon="35.3666700">
<ele>-347.859833</ele>
<time>2011-03-12T10:07:33.000Z</time>
</trkpt>
<trkpt lat="30.9408800" lon="35.3668200">
<ele>-346.417969</ele>
<time>2011-03-12T10:07:47.000Z</time>
</trkpt>
<trkpt lat="30.9409100" lon="35.3668000">
<ele>-346.898682</ele>
<time>2011-03-12T10:07:55.000Z</time>
</trkpt>
<trkpt lat="30.9410900" lon="35.3670900">
<ele>-346.898682</ele>
<time>2011-03-12T10:08:07.000Z</time>
</trkpt>
<trkpt lat="30.9416200" lon="35.3677200">
<ele>-349.301880</ele>
<time>2011-03-12T10:08:27.000Z</time>
</trkpt>
<trkpt lat="30.9419100" lon="35.3683100">
<ele>-348.340576</ele>
<time>2011-03-12T10:08:45.000Z</time>
</trkpt>
<trkpt lat="30.9416800" lon="35.3685000">
<ele>-348.340576</ele>
<time>2011-03-12T10:08:54.000Z</time>
</trkpt>
<trkpt lat="30.9411900" lon="35.3689100">
<ele>-348.821289</ele>
<time>2011-03-12T10:09:10.000Z</time>
</trkpt>
<trkpt lat="30.9407400" lon="35.3694800">
<ele>-348.821289</ele>
<time>2011-03-12T10:09:27.000Z</time>
</trkpt>
<trkpt lat="30.9403900" lon="35.3699000">
<ele>-348.340576</ele>
<time>2011-03-12T10:09:44.000Z</time>
</trkpt>
<trkpt lat="30.9401700" lon="35.3701400">
<ele>-348.821289</ele>
<time>2011-03-12T10:09:57.000Z</time>
</trkpt>
<trkpt lat="30.9400700" lon="35.3702600">
<ele>-347.859833</ele>
<time>2011-03-12T10:10:10.000Z</time>
</trkpt>
<trkpt lat="30.9399900" lon="35.3704000">
<ele>-348.340576</ele>
<time>2011-03-12T10:15:03.000Z</time>
</trkpt>
<trkpt lat="30.9396700" lon="35.3706800">
<ele>-348.821289</ele>
<time>2011-03-12T10:15:16.000Z</time>
</trkpt>
<trkpt lat="30.9390200" lon="35.3713000">
<ele>-351.705078</ele>
<time>2011-03-12T10:15:35.000Z</time>
</trkpt>
<trkpt lat="30.9383300" lon="35.3719700">
<ele>-351.705078</ele>
<time>2011-03-12T10:15:56.000Z</time>
</trkpt>
<trkpt lat="30.9375300" lon="35.3727300">
<ele>-352.185913</ele>
<time>2011-03-12T10:16:17.000Z</time>
</trkpt>
<trkpt lat="30.9370400" lon="35.3733600">
<ele>-351.705078</ele>
<time>2011-03-12T10:16:34.000Z</time>
</trkpt>
<trkpt lat="30.9370000" lon="35.3734700">
<ele>-352.185913</ele>
<time>2011-03-12T10:16:36.000Z</time>
</trkpt>
<trkpt lat="30.9369300" lon="35.3736300">
<ele>-353.147217</ele>
<time>2011-03-12T10:16:39.000Z</time>
</trkpt>
<trkpt lat="30.9365800" lon="35.3741900">
<ele>-353.147217</ele>
<time>2011-03-12T10:16:53.000Z</time>
</trkpt>
<trkpt lat="30.9362500" lon="35.3745300">
<ele>-352.666626</ele>
<time>2011-03-12T10:17:06.000Z</time>
</trkpt>
<trkpt lat="30.9357500" lon="35.3749500">
<ele>-351.224487</ele>
<time>2011-03-12T10:17:24.000Z</time>
</trkpt>
<trkpt lat="30.9352900" lon="35.3752000">
<ele>-350.263184</ele>
<time>2011-03-12T10:17:41.000Z</time>
</trkpt>
<trkpt lat="30.9347600" lon="35.3755800">
<ele>-350.263184</ele>
<time>2011-03-12T10:17:58.000Z</time>
</trkpt>
<trkpt lat="30.9344500" lon="35.3761100">
<ele>-350.263184</ele>
<time>2011-03-12T10:18:14.000Z</time>
</trkpt>
<trkpt lat="30.9345400" lon="35.3764600">
<ele>-352.666626</ele>
<time>2011-03-12T10:18:24.000Z</time>
</trkpt>
<trkpt lat="30.9345800" lon="35.3764800">
<ele>-353.147217</ele>
<time>2011-03-12T10:18:26.000Z</time>
</trkpt>
<trkpt lat="30.9346000" lon="35.3765200">
<ele>-353.147217</ele>
<time>2011-03-12T10:18:30.000Z</time>
</trkpt>
<trkpt lat="30.9346100" lon="35.3765500">
<ele>-354.108521</ele>
<time>2011-03-12T10:18:54.000Z</time>
</trkpt>
<trkpt lat="30.9346100" lon="35.3765600">
<ele>-353.147217</ele>
<time>2011-03-12T10:19:00.000Z</time>
</trkpt>
<trkpt lat="30.9345900" lon="35.3765600">
<ele>-358.434448</ele>
<time>2011-03-12T10:19:03.000Z</time>
</trkpt>
<trkpt lat="30.9345900" lon="35.3765600">
<ele>-355.550415</ele>
<time>2011-03-12T10:19:04.000Z</time>
</trkpt>
<trkpt lat="30.9345800" lon="35.3765600">
<ele>-344.495361</ele>
<time>2011-03-12T10:19:07.000Z</time>
</trkpt>
<trkpt lat="30.9345800" lon="35.3765600">
<ele>-351.224487</ele>
<time>2011-03-12T10:19:08.000Z</time>
</trkpt>
<trkpt lat="30.9345700" lon="35.3765600">
<ele>-359.395630</ele>
<time>2011-03-12T10:19:09.000Z</time>
</trkpt>
<trkpt lat="30.9345700" lon="35.3765600">
<ele>-354.108521</ele>
<time>2011-03-12T10:19:10.000Z</time>
</trkpt>
<trkpt lat="30.9345700" lon="35.3765600">
<ele>-357.473022</ele>
<time>2011-03-12T10:19:12.000Z</time>
</trkpt>
<trkpt lat="30.9345700" lon="35.3765600">
<ele>-353.147217</ele>
<time>2011-03-12T10:19:14.000Z</time>
</trkpt>
<trkpt lat="30.9345800" lon="35.3765400">
<ele>-355.069824</ele>
<time>2011-03-12T10:19:34.000Z</time>
</trkpt>
<trkpt lat="30.9345900" lon="35.3765500">
<ele>-354.108521</ele>
<time>2011-03-12T10:22:06.000Z</time>
</trkpt>
</trkseg>
<trkseg>
<trkpt lat="31.1483800" lon="35.3699100">
<ele>-1.785278</ele>
<time>2011-03-12T11:59:13.000Z</time>
</trkpt>
<trkpt lat="31.1484000" lon="35.3698200">
<ele>-354.108521</ele>
<time>2011-03-12T11:59:14.000Z</time>
</trkpt>
<trkpt lat="31.1483900" lon="35.3698800">
<ele>-353.627777</ele>
<time>2011-03-12T11:59:15.000Z</time>
</trkpt>
<trkpt lat="31.1483600" lon="35.3699300">
<ele>-356.992432</ele>
<time>2011-03-12T11:59:30.000Z</time>
</trkpt>
<trkpt lat="31.1483600" lon="35.3699300">
<ele>-360.357178</ele>
<time>2011-03-12T11:59:32.000Z</time>
</trkpt>
<trkpt lat="31.1483600" lon="35.3699300">
<ele>-364.202393</ele>
<time>2011-03-12T11:59:35.000Z</time>
</trkpt>
<trkpt lat="31.1483700" lon="35.3699300">
<ele>-368.528320</ele>
<time>2011-03-12T11:59:39.000Z</time>
</trkpt>
<trkpt lat="31.1483700" lon="35.3699300">
<ele>-372.373535</ele>
<time>2011-03-12T11:59:42.000Z</time>
</trkpt>
<trkpt lat="31.1483700" lon="35.3699400">
<ele>-376.218872</ele>
<time>2011-03-12T11:59:46.000Z</time>
</trkpt>
<trkpt lat="31.1483600" lon="35.3699400">
<ele>-379.583496</ele>
<time>2011-03-12T11:59:50.000Z</time>
</trkpt>
<trkpt lat="31.1483500" lon="35.3699300">
<ele>-381.025360</ele>
<time>2011-03-12T11:59:52.000Z</time>
</trkpt>
<trkpt lat="31.1483500" lon="35.3699400">
<ele>-383.909302</ele>
<time>2011-03-12T11:59:57.000Z</time>
</trkpt>
<trkpt lat="31.1483500" lon="35.3699400">
<ele>-387.754639</ele>
<time>2011-03-12T12:00:03.000Z</time>
</trkpt>
<trkpt lat="31.1483500" lon="35.3699400">
<ele>-391.119263</ele>
<time>2011-03-12T12:00:09.000Z</time>
</trkpt>
<trkpt lat="31.1483500" lon="35.3699400">
<ele>-391.119263</ele>
<time>2011-03-12T12:00:10.000Z</time>
</trkpt>
<trkpt lat="31.1483500" lon="35.3699400">
<ele>-398.329102</ele>
<time>2011-03-12T12:00:19.000Z</time>
</trkpt>
<trkpt lat="31.1483500" lon="35.3699400">
<ele>-395.925781</ele>
<time>2011-03-12T12:00:20.000Z</time>
</trkpt>
<trkpt lat="31.1483500" lon="35.3699400">
<ele>-394.483917</ele>
<time>2011-03-12T12:00:22.000Z</time>
</trkpt>
<trkpt lat="31.1483500" lon="35.3699400">
<ele>-397.848389</ele>
<time>2011-03-12T12:00:35.000Z</time>
</trkpt>
<trkpt lat="31.1483500" lon="35.3699400">
<ele>-400.732513</ele>
<time>2011-03-12T12:00:55.000Z</time>
</trkpt>
<trkpt lat="31.1483600" lon="35.3699400">
<ele>-401.693726</ele>
<time>2011-03-12T12:04:51.000Z</time>
</trkpt>
<trkpt lat="31.1483600" lon="35.3699700">
<ele>-401.213135</ele>
<time>2011-03-12T12:05:19.000Z</time>
</trkpt>
<trkpt lat="31.1483600" lon="35.3699800">
<ele>-401.213135</ele>
<time>2011-03-12T12:05:23.000Z</time>
</trkpt>
<trkpt lat="31.1483500" lon="35.3700100">
<ele>-401.693726</ele>
<time>2011-03-12T12:05:25.000Z</time>
</trkpt>
<trkpt lat="31.1482900" lon="35.3700000">
<ele>-401.213135</ele>
<time>2011-03-12T12:05:30.000Z</time>
</trkpt>
<trkpt lat="31.1482700" lon="35.3699500">
<ele>-401.213135</ele>
<time>2011-03-12T12:05:32.000Z</time>
</trkpt>
<trkpt lat="31.1480400" lon="35.3697700">
<ele>-400.732513</ele>
<time>2011-03-12T12:05:44.000Z</time>
</trkpt>
<trkpt lat="31.1476100" lon="35.3697100">
<ele>-400.251862</ele>
<time>2011-03-12T12:06:03.000Z</time>
</trkpt>
<trkpt lat="31.1471900" lon="35.3693300">
<ele>-398.809814</ele>
<time>2011-03-12T12:06:24.000Z</time>
</trkpt>
<trkpt lat="31.1470800" lon="35.3692500">
<ele>-398.329102</ele>
<time>2011-03-12T12:06:30.000Z</time>
</trkpt>
<trkpt lat="31.1470600" lon="35.3692200">
<ele>-398.329102</ele>
<time>2011-03-12T12:06:32.000Z</time>
</trkpt>
<trkpt lat="31.1469800" lon="35.3692100">
<ele>-397.848389</ele>
<time>2011-03-12T12:06:36.000Z</time>
</trkpt>
<trkpt lat="31.1469300" lon="35.3691800">
<ele>-397.367767</ele>
<time>2011-03-12T12:06:39.000Z</time>
</trkpt>
<trkpt lat="31.1468600" lon="35.3691600">
<ele>-397.367767</ele>
<time>2011-03-12T12:06:42.000Z</time>
</trkpt>
<trkpt lat="31.1465200" lon="35.3688600">
<ele>-396.406494</ele>
<time>2011-03-12T12:07:00.000Z</time>
</trkpt>
<trkpt lat="31.1460300" lon="35.3683900">
<ele>-394.964630</ele>
<time>2011-03-12T12:07:22.000Z</time>
</trkpt>
<trkpt lat="31.1453600" lon="35.3677400">
<ele>-396.406494</ele>
<time>2011-03-12T12:07:40.000Z</time>
</trkpt>
<trkpt lat="31.1449500" lon="35.3673000">
<ele>-395.925781</ele>
<time>2011-03-12T12:07:54.000Z</time>
</trkpt>
<trkpt lat="31.1446100" lon="35.3668400">
<ele>-393.522583</ele>
<time>2011-03-12T12:08:11.000Z</time>
</trkpt>
<trkpt lat="31.1442300" lon="35.3661200">
<ele>-390.638550</ele>
<time>2011-03-12T12:08:36.000Z</time>
</trkpt>
<trkpt lat="31.1441600" lon="35.3659600">
<ele>-390.157837</ele>
<time>2011-03-12T12:08:43.000Z</time>
</trkpt>
<trkpt lat="31.1441200" lon="35.3658300">
<ele>-389.196686</ele>
<time>2011-03-12T12:08:50.000Z</time>
</trkpt>
<trkpt lat="31.1439600" lon="35.3654400">
<ele>-388.235229</ele>
<time>2011-03-12T12:09:08.000Z</time>
</trkpt>
<trkpt lat="31.1438200" lon="35.3650600">
<ele>-385.351440</ele>
<time>2011-03-12T12:09:24.000Z</time>
</trkpt>
<trkpt lat="31.1435900" lon="35.3644700">
<ele>-382.467285</ele>
<time>2011-03-12T12:09:45.000Z</time>
</trkpt>
<trkpt lat="31.1432700" lon="35.3641800">
<ele>-381.025360</ele>
<time>2011-03-12T12:10:02.000Z</time>
</trkpt>
<trkpt lat="31.1430000" lon="35.3641900">
<ele>-381.506104</ele>
<time>2011-03-12T12:10:09.000Z</time>
</trkpt>
<trkpt lat="31.1421000" lon="35.3641500">
<ele>-383.428711</ele>
<time>2011-03-12T12:10:26.000Z</time>
</trkpt>
<trkpt lat="31.1415300" lon="35.3641100">
<ele>-381.506104</ele>
<time>2011-03-12T12:10:41.000Z</time>
</trkpt>
<trkpt lat="31.1409400" lon="35.3640700">
<ele>-378.622070</ele>
<time>2011-03-12T12:11:02.000Z</time>
</trkpt>
<trkpt lat="31.1404600" lon="35.3640700">
<ele>-377.660889</ele>
<time>2011-03-12T12:11:20.000Z</time>
</trkpt>
<trkpt lat="31.1399500" lon="35.3641600">
<ele>-377.180176</ele>
<time>2011-03-12T12:11:36.000Z</time>
</trkpt>
<trkpt lat="31.1397500" lon="35.3643000">
<ele>-376.699463</ele>
<time>2011-03-12T12:11:50.000Z</time>
</trkpt>
<trkpt lat="31.1395400" lon="35.3643900">
<ele>-376.218872</ele>
<time>2011-03-12T12:12:35.000Z</time>
</trkpt>
<trkpt lat="31.1390200" lon="35.3645500">
<ele>-373.815552</ele>
<time>2011-03-12T12:12:50.000Z</time>
</trkpt>
<trkpt lat="31.1382500" lon="35.3647400">
<ele>-372.373535</ele>
<time>2011-03-12T12:13:11.000Z</time>
</trkpt>
<trkpt lat="31.1376800" lon="35.3649200">
<ele>-369.489624</ele>
<time>2011-03-12T12:13:29.000Z</time>
</trkpt>
<trkpt lat="31.1372300" lon="35.3649500">
<ele>-367.566895</ele>
<time>2011-03-12T12:13:48.000Z</time>
</trkpt>
<trkpt lat="31.1368200" lon="35.3647200">
<ele>-367.566895</ele>
<time>2011-03-12T12:14:04.000Z</time>
</trkpt>
<trkpt lat="31.1362300" lon="35.3642900">
<ele>-368.047699</ele>
<time>2011-03-12T12:14:23.000Z</time>
</trkpt>
<trkpt lat="31.1358700" lon="35.3641900">
<ele>-367.086182</ele>
<time>2011-03-12T12:14:38.000Z</time>
</trkpt>
<trkpt lat="31.1358100" lon="35.3639100">
<ele>-366.605591</ele>
<time>2011-03-12T12:14:48.000Z</time>
</trkpt>
<trkpt lat="31.1358000" lon="35.3636800">
<ele>-365.163574</ele>
<time>2011-03-12T12:15:02.000Z</time>
</trkpt>
<trkpt lat="31.1357900" lon="35.3636700">
<ele>-365.163574</ele>
<time>2011-03-12T12:15:48.000Z</time>
</trkpt>
<trkpt lat="31.1354200" lon="35.3635300">
<ele>-366.605591</ele>
<time>2011-03-12T12:16:02.000Z</time>
</trkpt>
<trkpt lat="31.1351500" lon="35.3635100">
<ele>-368.528320</ele>
<time>2011-03-12T12:16:06.000Z</time>
</trkpt>
<trkpt lat="31.1345300" lon="35.3635500">
<ele>-369.008911</ele>
<time>2011-03-12T12:16:16.000Z</time>
</trkpt>
<trkpt lat="31.1341600" lon="35.3636600">
<ele>-368.047699</ele>
<time>2011-03-12T12:16:27.000Z</time>
</trkpt>
<trkpt lat="31.1339300" lon="35.3637600">
<ele>-365.163574</ele>
<time>2011-03-12T12:16:37.000Z</time>
</trkpt>
<trkpt lat="31.1334700" lon="35.3639100">
<ele>-362.279816</ele>
<time>2011-03-12T12:16:59.000Z</time>
</trkpt>
<trkpt lat="31.1330300" lon="35.3639800">
<ele>-359.395630</ele>
<time>2011-03-12T12:17:18.000Z</time>
</trkpt>
<trkpt lat="31.1326500" lon="35.3641100">
<ele>-358.915009</ele>
<time>2011-03-12T12:17:34.000Z</time>
</trkpt>
<trkpt lat="31.1324300" lon="35.3645900">
<ele>-361.318359</ele>
<time>2011-03-12T12:17:49.000Z</time>
</trkpt>
<trkpt lat="31.1323000" lon="35.3652900">
<ele>-362.279816</ele>
<time>2011-03-12T12:18:06.000Z</time>
</trkpt>
<trkpt lat="31.1322900" lon="35.3653800">
<ele>-361.799103</ele>
<time>2011-03-12T12:18:16.000Z</time>
</trkpt>
<trkpt lat="31.1322800" lon="35.3653900">
<ele>-361.318359</ele>
<time>2011-03-12T12:19:15.000Z</time>
</trkpt>
<trkpt lat="31.1322800" lon="35.3653900">
<ele>-361.318359</ele>
<time>2011-03-12T12:19:24.000Z</time>
</trkpt>
<trkpt lat="31.1322300" lon="35.3657800">
<ele>-361.799103</ele>
<time>2011-03-12T12:19:38.000Z</time>
</trkpt>
<trkpt lat="31.1322000" lon="35.3660000">
<ele>-361.799103</ele>
<time>2011-03-12T12:19:43.000Z</time>
</trkpt>
<trkpt lat="31.1321400" lon="35.3661700">
<ele>-363.240967</ele>
<time>2011-03-12T12:19:46.000Z</time>
</trkpt>
<trkpt lat="31.1320200" lon="35.3666900">
<ele>-360.837769</ele>
<time>2011-03-12T12:20:00.000Z</time>
</trkpt>
<trkpt lat="31.1319200" lon="35.3672300">
<ele>-359.395630</ele>
<time>2011-03-12T12:20:15.000Z</time>
</trkpt>
<trkpt lat="31.1316200" lon="35.3676500">
<ele>-361.318359</ele>
<time>2011-03-12T12:20:27.000Z</time>
</trkpt>
<trkpt lat="31.1312000" lon="35.3682300">
<ele>-362.279816</ele>
<time>2011-03-12T12:20:40.000Z</time>
</trkpt>
<trkpt lat="31.1308700" lon="35.3687600">
<ele>-362.279816</ele>
<time>2011-03-12T12:20:56.000Z</time>
</trkpt>
<trkpt lat="31.1305000" lon="35.3693400">
<ele>-362.279816</ele>
<time>2011-03-12T12:21:13.000Z</time>
</trkpt>
<trkpt lat="31.1299900" lon="35.3701100">
<ele>-363.240967</ele>
<time>2011-03-12T12:21:34.000Z</time>
</trkpt>
<trkpt lat="31.1298000" lon="35.3703800">
<ele>-363.240967</ele>
<time>2011-03-12T12:21:46.000Z</time>
</trkpt>
<trkpt lat="31.1297900" lon="35.3704200">
<ele>-362.760376</ele>
<time>2011-03-12T12:21:59.000Z</time>
</trkpt>
<trkpt lat="31.1297600" lon="35.3704900">
<ele>-363.240967</ele>
<time>2011-03-12T12:23:01.000Z</time>
</trkpt>
<trkpt lat="31.1295400" lon="35.3707300">
<ele>-363.721680</ele>
<time>2011-03-12T12:23:10.000Z</time>
</trkpt>
<trkpt lat="31.1294400" lon="35.3709000">
<ele>-363.721680</ele>
<time>2011-03-12T12:23:14.000Z</time>
</trkpt>
<trkpt lat="31.1291100" lon="35.3714600">
<ele>-363.240967</ele>
<time>2011-03-12T12:23:28.000Z</time>
</trkpt>
<trkpt lat="31.1288700" lon="35.3718500">
<ele>-363.721680</ele>
<time>2011-03-12T12:23:39.000Z</time>
</trkpt>
<trkpt lat="31.1283300" lon="35.3726100">
<ele>-364.202393</ele>
<time>2011-03-12T12:23:54.000Z</time>
</trkpt>
<trkpt lat="31.1282000" lon="35.3728200">
<ele>-364.682953</ele>
<time>2011-03-12T12:23:59.000Z</time>
</trkpt>
<trkpt lat="31.1280500" lon="35.3730200">
<ele>-365.163574</ele>
<time>2011-03-12T12:24:04.000Z</time>
</trkpt>
<trkpt lat="31.1278000" lon="35.3731600">
<ele>-366.125000</ele>
<time>2011-03-12T12:24:10.000Z</time>
</trkpt>
<trkpt lat="31.1266700" lon="35.3732800">
<ele>-366.125000</ele>
<time>2011-03-12T12:24:29.000Z</time>
</trkpt>
<trkpt lat="31.1265500" lon="35.3732900">
<ele>-366.125000</ele>
<time>2011-03-12T12:24:31.000Z</time>
</trkpt>
<trkpt lat="31.1256000" lon="35.3729700">
<ele>-364.682953</ele>
<time>2011-03-12T12:24:47.000Z</time>
</trkpt>
<trkpt lat="31.1255000" lon="35.3729400">
<ele>-364.682953</ele>
<time>2011-03-12T12:24:49.000Z</time>
</trkpt>
<trkpt lat="31.1253400" lon="35.3729000">
<ele>-364.682953</ele>
<time>2011-03-12T12:24:52.000Z</time>
</trkpt>
<trkpt lat="31.1246800" lon="35.3728800">
<ele>-363.240967</ele>
<time>2011-03-12T12:25:07.000Z</time>
</trkpt>
<trkpt lat="31.1246300" lon="35.3728700">
<ele>-362.760376</ele>
<time>2011-03-12T12:25:08.000Z</time>
</trkpt>
<trkpt lat="31.1245000" lon="35.3728900">
<ele>-362.760376</ele>
<time>2011-03-12T12:25:11.000Z</time>
</trkpt>
<trkpt lat="31.1240900" lon="35.3730400">
<ele>-361.799103</ele>
<time>2011-03-12T12:25:21.000Z</time>
</trkpt>
<trkpt lat="31.1238800" lon="35.3730800">
<ele>-361.799103</ele>
<time>2011-03-12T12:25:26.000Z</time>
</trkpt>
<trkpt lat="31.1236800" lon="35.3730800">
<ele>-361.799103</ele>
<time>2011-03-12T12:25:30.000Z</time>
</trkpt>
<trkpt lat="31.1234700" lon="35.3731200">
<ele>-361.799103</ele>
<time>2011-03-12T12:25:34.000Z</time>
</trkpt>
<trkpt lat="31.1233000" lon="35.3732200">
<ele>-361.799103</ele>
<time>2011-03-12T12:25:39.000Z</time>
</trkpt>
<trkpt lat="31.1228700" lon="35.3732600">
<ele>-360.357178</ele>
<time>2011-03-12T12:25:52.000Z</time>
</trkpt>
<trkpt lat="31.1220600" lon="35.3734800">
<ele>-357.953735</ele>
<time>2011-03-12T12:26:13.000Z</time>
</trkpt>
<trkpt lat="31.1212900" lon="35.3737400">
<ele>-356.031128</ele>
<time>2011-03-12T12:26:35.000Z</time>
</trkpt>
<trkpt lat="31.1207000" lon="35.3738400">
<ele>-356.992432</ele>
<time>2011-03-12T12:26:50.000Z</time>
</trkpt>
<trkpt lat="31.1204200" lon="35.3736100">
<ele>-356.031128</ele>
<time>2011-03-12T12:27:05.000Z</time>
</trkpt>
<trkpt lat="31.1198700" lon="35.3732000">
<ele>-355.069824</ele>
<time>2011-03-12T12:27:24.000Z</time>
</trkpt>
<trkpt lat="31.1193100" lon="35.3728700">
<ele>-354.589233</ele>
<time>2011-03-12T12:27:42.000Z</time>
</trkpt>
<trkpt lat="31.1186000" lon="35.3725200">
<ele>-354.108521</ele>
<time>2011-03-12T12:28:02.000Z</time>
</trkpt>
<trkpt lat="31.1180500" lon="35.3720800">
<ele>-353.627777</ele>
<time>2011-03-12T12:28:19.000Z</time>
</trkpt>
<trkpt lat="31.1175600" lon="35.3717100">
<ele>-353.147217</ele>
<time>2011-03-12T12:28:35.000Z</time>
</trkpt>
<trkpt lat="31.1173400" lon="35.3714800">
<ele>-352.185913</ele>
<time>2011-03-12T12:28:49.000Z</time>
</trkpt>
<trkpt lat="31.1173200" lon="35.3714700">
<ele>-351.705078</ele>
<time>2011-03-12T12:30:26.000Z</time>
</trkpt>
<trkpt lat="31.1171400" lon="35.3710800">
<ele>-351.224487</ele>
<time>2011-03-12T12:30:45.000Z</time>
</trkpt>
<trkpt lat="31.1169500" lon="35.3706000">
<ele>-350.263184</ele>
<time>2011-03-12T12:31:00.000Z</time>
</trkpt>
<trkpt lat="31.1163700" lon="35.3699700">
<ele>-348.821289</ele>
<time>2011-03-12T12:31:24.000Z</time>
</trkpt>
<trkpt lat="31.1156600" lon="35.3694200">
<ele>-347.859833</ele>
<time>2011-03-12T12:31:45.000Z</time>
</trkpt>
<trkpt lat="31.1153300" lon="35.3691400">
<ele>-347.859833</ele>
<time>2011-03-12T12:31:56.000Z</time>
</trkpt>
<trkpt lat="31.1151800" lon="35.3690700">
<ele>-347.379272</ele>
<time>2011-03-12T12:32:00.000Z</time>
</trkpt>
<trkpt lat="31.1150600" lon="35.3690500">
<ele>-347.379272</ele>
<time>2011-03-12T12:32:03.000Z</time>
</trkpt>
<trkpt lat="31.1142700" lon="35.3689800">
<ele>-345.937256</ele>
<time>2011-03-12T12:32:24.000Z</time>
</trkpt>
<trkpt lat="31.1134400" lon="35.3687200">
<ele>-345.456696</ele>
<time>2011-03-12T12:32:46.000Z</time>
</trkpt>
<trkpt lat="31.1128000" lon="35.3685000">
<ele>-344.495361</ele>
<time>2011-03-12T12:33:06.000Z</time>
</trkpt>
<trkpt lat="31.1123300" lon="35.3682300">
<ele>-344.014648</ele>
<time>2011-03-12T12:33:20.000Z</time>
</trkpt>
<trkpt lat="31.1123000" lon="35.3683300">
<ele>-345.456696</ele>
<time>2011-03-12T12:33:28.000Z</time>
</trkpt>
<trkpt lat="31.1123200" lon="35.3683400">
<ele>-345.456696</ele>
<time>2011-03-12T12:33:29.000Z</time>
</trkpt>
<trkpt lat="31.1123300" lon="35.3682400">
<ele>-344.014648</ele>
<time>2011-03-12T12:33:37.000Z</time>
</trkpt>
<trkpt lat="31.1118300" lon="35.3680200">
<ele>-343.533936</ele>
<time>2011-03-12T12:33:54.000Z</time>
</trkpt>
<trkpt lat="31.1110600" lon="35.3677700">
<ele>-342.091888</ele>
<time>2011-03-12T12:34:19.000Z</time>
</trkpt>
<trkpt lat="31.1105600" lon="35.3675500">
<ele>-342.091888</ele>
<time>2011-03-12T12:34:35.000Z</time>
</trkpt>
<trkpt lat="31.1097800" lon="35.3674400">
<ele>-341.130737</ele>
<time>2011-03-12T12:34:56.000Z</time>
</trkpt>
<trkpt lat="31.1095300" lon="35.3673600">
<ele>-340.650024</ele>
<time>2011-03-12T12:35:08.000Z</time>
</trkpt>
<trkpt lat="31.1091000" lon="35.3670000">
<ele>-339.688721</ele>
<time>2011-03-12T12:35:24.000Z</time>
</trkpt>
<trkpt lat="31.1088200" lon="35.3667600">
<ele>-339.688721</ele>
<time>2011-03-12T12:35:32.000Z</time>
</trkpt>
<trkpt lat="31.1082200" lon="35.3665900">
<ele>-338.246704</ele>
<time>2011-03-12T12:35:50.000Z</time>
</trkpt>
<trkpt lat="31.1073900" lon="35.3667500">
<ele>-337.766113</ele>
<time>2011-03-12T12:36:11.000Z</time>
</trkpt>
<trkpt lat="31.1066800" lon="35.3667200">
<ele>-336.324097</ele>
<time>2011-03-12T12:36:29.000Z</time>
</trkpt>
<trkpt lat="31.1062100" lon="35.3664400">
<ele>-335.362793</ele>
<time>2011-03-12T12:36:45.000Z</time>
</trkpt>
<trkpt lat="31.1056600" lon="35.3658000">
<ele>-334.401367</ele>
<time>2011-03-12T12:37:06.000Z</time>
</trkpt>
<trkpt lat="31.1049100" lon="35.3651800">
<ele>-332.959473</ele>
<time>2011-03-12T12:37:30.000Z</time>
</trkpt>
<trkpt lat="31.1045500" lon="35.3647700">
<ele>-332.478760</ele>
<time>2011-03-12T12:37:45.000Z</time>
</trkpt>
<trkpt lat="31.1041000" lon="35.3642600">
<ele>-331.036865</ele>
<time>2011-03-12T12:38:03.000Z</time>
</trkpt>
<trkpt lat="31.1037400" lon="35.3638900">
<ele>-331.036865</ele>
<time>2011-03-12T12:38:18.000Z</time>
</trkpt>
<trkpt lat="31.1033600" lon="35.3632100">
<ele>-330.075562</ele>
<time>2011-03-12T12:38:34.000Z</time>
</trkpt>
<trkpt lat="31.1026400" lon="35.3622800">
<ele>-329.114288</ele>
<time>2011-03-12T12:38:59.000Z</time>
</trkpt>
<trkpt lat="31.1022600" lon="35.3616300">
<ele>-327.672241</ele>
<time>2011-03-12T12:39:17.000Z</time>
</trkpt>
<trkpt lat="31.1017900" lon="35.3613300">
<ele>-326.230194</ele>
<time>2011-03-12T12:39:33.000Z</time>
</trkpt>
<trkpt lat="31.1010700" lon="35.3611900">
<ele>-325.749634</ele>
<time>2011-03-12T12:39:51.000Z</time>
</trkpt>
<trkpt lat="31.1001600" lon="35.3612400">
<ele>-324.788208</ele>
<time>2011-03-12T12:40:13.000Z</time>
</trkpt>
<trkpt lat="31.0995500" lon="35.3613200">
<ele>-324.307617</ele>
<time>2011-03-12T12:40:31.000Z</time>
</trkpt>
<trkpt lat="31.0988600" lon="35.3611900">
<ele>-323.827057</ele>
<time>2011-03-12T12:40:50.000Z</time>
</trkpt>
<trkpt lat="31.0982500" lon="35.3609600">
<ele>-322.385010</ele>
<time>2011-03-12T12:41:08.000Z</time>
</trkpt>
<trkpt lat="31.0975100" lon="35.3604600">
<ele>-321.423706</ele>
<time>2011-03-12T12:41:30.000Z</time>
</trkpt>
<trkpt lat="31.0972000" lon="35.3604400">
<ele>-320.462402</ele>
<time>2011-03-12T12:41:41.000Z</time>
</trkpt>
<trkpt lat="31.0966800" lon="35.3606700">
<ele>-319.981689</ele>
<time>2011-03-12T12:42:02.000Z</time>
</trkpt>
<trkpt lat="31.0965000" lon="35.3607600">
<ele>-319.500977</ele>
<time>2011-03-12T12:42:16.000Z</time>
</trkpt>
<trkpt lat="31.0965000" lon="35.3607700">
<ele>-319.020264</ele>
<time>2011-03-12T12:44:42.000Z</time>
</trkpt>
<trkpt lat="31.0961600" lon="35.3609900">
<ele>-318.539673</ele>
<time>2011-03-12T12:44:59.000Z</time>
</trkpt>
<trkpt lat="31.0956000" lon="35.3614400">
<ele>-317.578369</ele>
<time>2011-03-12T12:45:19.000Z</time>
</trkpt>
<trkpt lat="31.0949300" lon="35.3615800">
<ele>-317.097656</ele>
<time>2011-03-12T12:45:38.000Z</time>
</trkpt>
<trkpt lat="31.0945800" lon="35.3614100">
<ele>-316.136475</ele>
<time>2011-03-12T12:45:51.000Z</time>
</trkpt>
<trkpt lat="31.0942700" lon="35.3610700">
<ele>-316.136475</ele>
<time>2011-03-12T12:46:05.000Z</time>
</trkpt>
<trkpt lat="31.0937300" lon="35.3604600">
<ele>-314.694458</ele>
<time>2011-03-12T12:46:25.000Z</time>
</trkpt>
<trkpt lat="31.0931500" lon="35.3600500">
<ele>-314.213867</ele>
<time>2011-03-12T12:46:43.000Z</time>
</trkpt>
<trkpt lat="31.0931100" lon="35.3600200">
<ele>-314.213867</ele>
<time>2011-03-12T12:46:44.000Z</time>
</trkpt>
<trkpt lat="31.0928800" lon="35.3599500">
<ele>-314.213867</ele>
<time>2011-03-12T12:46:50.000Z</time>
</trkpt>
<trkpt lat="31.0923800" lon="35.3598700">
<ele>-313.252441</ele>
<time>2011-03-12T12:47:07.000Z</time>
</trkpt>
<trkpt lat="31.0920400" lon="35.3597700">
<ele>-313.252441</ele>
<time>2011-03-12T12:47:19.000Z</time>
</trkpt>
<trkpt lat="31.0916900" lon="35.3599600">
<ele>-312.771881</ele>
<time>2011-03-12T12:47:32.000Z</time>
</trkpt>
<trkpt lat="31.0913000" lon="35.3602700">
<ele>-311.810425</ele>
<time>2011-03-12T12:47:48.000Z</time>
</trkpt>
<trkpt lat="31.0907500" lon="35.3602700">
<ele>-311.329712</ele>
<time>2011-03-12T12:48:04.000Z</time>
</trkpt>
<trkpt lat="31.0901900" lon="35.3604300">
<ele>-310.368530</ele>
<time>2011-03-12T12:48:20.000Z</time>
</trkpt>
<trkpt lat="31.0894800" lon="35.3605500">
<ele>-309.887817</ele>
<time>2011-03-12T12:48:39.000Z</time>
</trkpt>
<trkpt lat="31.0889600" lon="35.3608300">
<ele>-308.926514</ele>
<time>2011-03-12T12:48:56.000Z</time>
</trkpt>
<trkpt lat="31.0885400" lon="35.3610300">
<ele>-308.445923</ele>
<time>2011-03-12T12:49:09.000Z</time>
</trkpt>
<trkpt lat="31.0881600" lon="35.3609900">
<ele>-307.484497</ele>
<time>2011-03-12T12:49:21.000Z</time>
</trkpt>
<trkpt lat="31.0881300" lon="35.3604700">
<ele>-307.003906</ele>
<time>2011-03-12T12:49:34.000Z</time>
</trkpt>
<trkpt lat="31.0879900" lon="35.3598800">
<ele>-306.523315</ele>
<time>2011-03-12T12:49:49.000Z</time>
</trkpt>
<trkpt lat="31.0879100" lon="35.3598000">
<ele>-306.042603</ele>
<time>2011-03-12T12:49:53.000Z</time>
</trkpt>
<trkpt lat="31.0877200" lon="35.3598900">
<ele>-304.119995</ele>
<time>2011-03-12T12:50:05.000Z</time>
</trkpt>
<trkpt lat="31.0877000" lon="35.3598800">
<ele>-303.639160</ele>
<time>2011-03-12T12:50:07.000Z</time>
</trkpt>
<trkpt lat="31.0876700" lon="35.3598500">
<ele>-303.639160</ele>
<time>2011-03-12T12:50:10.000Z</time>
</trkpt>
<trkpt lat="31.0874300" lon="35.3598100">
<ele>-303.158569</ele>
<time>2011-03-12T12:50:23.000Z</time>
</trkpt>
<trkpt lat="31.0872200" lon="35.3596300">
<ele>-302.677979</ele>
<time>2011-03-12T12:50:37.000Z</time>
</trkpt>
<trkpt lat="31.0870500" lon="35.3593100">
<ele>-302.677979</ele>
<time>2011-03-12T12:50:53.000Z</time>
</trkpt>
<trkpt lat="31.0868500" lon="35.3588400">
<ele>-302.197266</ele>
<time>2011-03-12T12:51:10.000Z</time>
</trkpt>
<trkpt lat="31.0865300" lon="35.3584500">
<ele>-301.716553</ele>
<time>2011-03-12T12:51:26.000Z</time>
</trkpt>
<trkpt lat="31.0861400" lon="35.3580300">
<ele>-300.274658</ele>
<time>2011-03-12T12:51:44.000Z</time>
</trkpt>
<trkpt lat="31.0858000" lon="35.3577100">
<ele>-299.793945</ele>
<time>2011-03-12T12:51:59.000Z</time>
</trkpt>
<trkpt lat="31.0855400" lon="35.3575300">
<ele>-297.871338</ele>
<time>2011-03-12T12:52:10.000Z</time>
</trkpt>
<trkpt lat="31.0855000" lon="35.3575100">
<ele>-297.390747</ele>
<time>2011-03-12T12:52:12.000Z</time>
</trkpt>
<trkpt lat="31.0854600" lon="35.3574200">
<ele>-298.352051</ele>
<time>2011-03-12T12:52:23.000Z</time>
</trkpt>
<trkpt lat="31.0855500" lon="35.3572500">
<ele>-298.352051</ele>
<time>2011-03-12T12:53:22.000Z</time>
</trkpt>
<trkpt lat="31.0857600" lon="35.3569300">
<ele>-298.352051</ele>
<time>2011-03-12T12:53:35.000Z</time>
</trkpt>
<trkpt lat="31.0854800" lon="35.3565600">
<ele>-297.390747</ele>
<time>2011-03-12T12:53:49.000Z</time>
</trkpt>
<trkpt lat="31.0852900" lon="35.3562700">
<ele>-296.429443</ele>
<time>2011-03-12T12:54:01.000Z</time>
</trkpt>
<trkpt lat="31.0851600" lon="35.3561200">
<ele>-296.429443</ele>
<time>2011-03-12T12:54:11.000Z</time>
</trkpt>
<trkpt lat="31.0849700" lon="35.3560300">
<ele>-295.948608</ele>
<time>2011-03-12T12:54:44.000Z</time>
</trkpt>
<trkpt lat="31.0847500" lon="35.3559500">
<ele>-295.468018</ele>
<time>2011-03-12T12:54:54.000Z</time>
</trkpt>
<trkpt lat="31.0846500" lon="35.3558500">
<ele>-294.987427</ele>
<time>2011-03-12T12:55:01.000Z</time>
</trkpt>
<trkpt lat="31.0845300" lon="35.3556500">
<ele>-294.506714</ele>
<time>2011-03-12T12:55:11.000Z</time>
</trkpt>
<trkpt lat="31.0844300" lon="35.3556100">
<ele>-294.506714</ele>
<time>2011-03-12T12:55:17.000Z</time>
</trkpt>
<trkpt lat="31.0843600" lon="35.3555700">
<ele>-294.026001</ele>
<time>2011-03-12T12:55:30.000Z</time>
</trkpt>
<trkpt lat="31.0842200" lon="35.3554500">
<ele>-294.026001</ele>
<time>2011-03-12T12:56:28.000Z</time>
</trkpt>
<trkpt lat="31.0841800" lon="35.3553900">
<ele>-293.545410</ele>
<time>2011-03-12T12:56:31.000Z</time>
</trkpt>
<trkpt lat="31.0838900" lon="35.3551000">
<ele>-292.584106</ele>
<time>2011-03-12T12:56:46.000Z</time>
</trkpt>
<trkpt lat="31.0838600" lon="35.3546800">
<ele>-291.622803</ele>
<time>2011-03-12T12:56:58.000Z</time>
</trkpt>
<trkpt lat="31.0837800" lon="35.3546100">
<ele>-291.142212</ele>
<time>2011-03-12T12:57:01.000Z</time>
</trkpt>
<trkpt lat="31.0837300" lon="35.3546000">
<ele>-291.142212</ele>
<time>2011-03-12T12:57:03.000Z</time>
</trkpt>
<trkpt lat="31.0836800" lon="35.3545400">
<ele>-291.142212</ele>
<time>2011-03-12T12:57:06.000Z</time>
</trkpt>
<trkpt lat="31.0835500" lon="35.3544300">
<ele>-290.661499</ele>
<time>2011-03-12T12:57:13.000Z</time>
</trkpt>
<trkpt lat="31.0835700" lon="35.3542100">
<ele>-289.700195</ele>
<time>2011-03-12T12:57:23.000Z</time>
</trkpt>
<trkpt lat="31.0835600" lon="35.3542100">
<ele>-289.700195</ele>
<time>2011-03-12T12:57:24.000Z</time>
</trkpt>
<trkpt lat="31.0835100" lon="35.3542000">
<ele>-289.219604</ele>
<time>2011-03-12T12:57:28.000Z</time>
</trkpt>
<trkpt lat="31.0834300" lon="35.3540700">
<ele>-288.738892</ele>
<time>2011-03-12T12:57:34.000Z</time>
</trkpt>
<trkpt lat="31.0831000" lon="35.3538100">
<ele>-286.816162</ele>
<time>2011-03-12T12:57:50.000Z</time>
</trkpt>
<trkpt lat="31.0830100" lon="35.3538000">
<ele>-287.296875</ele>
<time>2011-03-12T12:57:54.000Z</time>
</trkpt>
<trkpt lat="31.0830200" lon="35.3536700">
<ele>-287.296875</ele>
<time>2011-03-12T12:58:05.000Z</time>
</trkpt>
<trkpt lat="31.0830700" lon="35.3537000">
<ele>-286.816162</ele>
<time>2011-03-12T12:58:25.000Z</time>
</trkpt>
<trkpt lat="31.0830800" lon="35.3537400">
<ele>-286.816162</ele>
<time>2011-03-12T12:58:47.000Z</time>
</trkpt>
<trkpt lat="31.0831400" lon="35.3535600">
<ele>-287.296875</ele>
<time>2011-03-12T12:58:54.000Z</time>
</trkpt>
<trkpt lat="31.0830800" lon="35.3534900">
<ele>-286.335449</ele>
<time>2011-03-12T12:58:59.000Z</time>
</trkpt>
<trkpt lat="31.0830000" lon="35.3535500">
<ele>-286.335449</ele>
<time>2011-03-12T12:59:03.000Z</time>
</trkpt>
<trkpt lat="31.0828500" lon="35.3535100">
<ele>-285.854858</ele>
<time>2011-03-12T12:59:12.000Z</time>
</trkpt>
<trkpt lat="31.0828200" lon="35.3534300">
<ele>-285.374268</ele>
<time>2011-03-12T12:59:22.000Z</time>
</trkpt>
<trkpt lat="31.0828300" lon="35.3533700">
<ele>-284.893555</ele>
<time>2011-03-12T12:59:25.000Z</time>
</trkpt>
<trkpt lat="31.0828400" lon="35.3533300">
<ele>-284.412842</ele>
<time>2011-03-12T12:59:31.000Z</time>
</trkpt>
<trkpt lat="31.0828300" lon="35.3533000">
<ele>-284.893555</ele>
<time>2011-03-12T12:59:33.000Z</time>
</trkpt>
<trkpt lat="31.0827900" lon="35.3533000">
<ele>-284.893555</ele>
<time>2011-03-12T12:59:37.000Z</time>
</trkpt>
<trkpt lat="31.0826700" lon="35.3532800">
<ele>-284.412842</ele>
<time>2011-03-12T12:59:46.000Z</time>
</trkpt>
<trkpt lat="31.0826900" lon="35.3531900">
<ele>-283.451660</ele>
<time>2011-03-12T12:59:51.000Z</time>
</trkpt>
<trkpt lat="31.0826000" lon="35.3529600">
<ele>-282.970947</ele>
<time>2011-03-12T13:00:05.000Z</time>
</trkpt>
<trkpt lat="31.0823800" lon="35.3526900">
<ele>-282.009644</ele>
<time>2011-03-12T13:00:20.000Z</time>
</trkpt>
<trkpt lat="31.0822200" lon="35.3524600">
<ele>-281.529053</ele>
<time>2011-03-12T13:00:32.000Z</time>
</trkpt>
<trkpt lat="31.0821300" lon="35.3524500">
<ele>-280.087036</ele>
<time>2011-03-12T13:00:38.000Z</time>
</trkpt>
<trkpt lat="31.0821000" lon="35.3524000">
<ele>-279.606323</ele>
<time>2011-03-12T13:00:42.000Z</time>
</trkpt>
<trkpt lat="31.0820500" lon="35.3522500">
<ele>-279.606323</ele>
<time>2011-03-12T13:00:50.000Z</time>
</trkpt>
<trkpt lat="31.0820000" lon="35.3520800">
<ele>-278.644897</ele>
<time>2011-03-12T13:00:58.000Z</time>
</trkpt>
<trkpt lat="31.0819300" lon="35.3520800">
<ele>-278.644897</ele>
<time>2011-03-12T13:01:02.000Z</time>
</trkpt>
<trkpt lat="31.0818800" lon="35.3521100">
<ele>-278.644897</ele>
<time>2011-03-12T13:01:05.000Z</time>
</trkpt>
<trkpt lat="31.0817400" lon="35.3521900">
<ele>-277.203003</ele>
<time>2011-03-12T13:01:15.000Z</time>
</trkpt>
<trkpt lat="31.0815100" lon="35.3519600">
<ele>-276.241699</ele>
<time>2011-03-12T13:01:31.000Z</time>
</trkpt>
<trkpt lat="31.0814000" lon="35.3517300">
<ele>-274.799683</ele>
<time>2011-03-12T13:01:41.000Z</time>
</trkpt>
<trkpt lat="31.0812300" lon="35.3515700">
<ele>-274.799683</ele>
<time>2011-03-12T13:01:50.000Z</time>
</trkpt>
<trkpt lat="31.0809900" lon="35.3512400">
<ele>-272.877075</ele>
<time>2011-03-12T13:02:09.000Z</time>
</trkpt>
<trkpt lat="31.0809100" lon="35.3512300">
<ele>-272.396484</ele>
<time>2011-03-12T13:02:14.000Z</time>
</trkpt>
<trkpt lat="31.0806900" lon="35.3511600">
<ele>-271.435059</ele>
<time>2011-03-12T13:02:27.000Z</time>
</trkpt>
<trkpt lat="31.0803400" lon="35.3509800">
<ele>-269.031738</ele>
<time>2011-03-12T13:02:47.000Z</time>
</trkpt>
<trkpt lat="31.0802800" lon="35.3509800">
<ele>-268.551147</ele>
<time>2011-03-12T13:02:51.000Z</time>
</trkpt>
<trkpt lat="31.0802400" lon="35.3510200">
<ele>-267.589844</ele>
<time>2011-03-12T13:02:55.000Z</time>
</trkpt>
<trkpt lat="31.0800600" lon="35.3511400">
<ele>-264.225342</ele>
<time>2011-03-12T13:03:12.000Z</time>
</trkpt>
<trkpt lat="31.0800700" lon="35.3511500">
<ele>-264.705933</ele>
<time>2011-03-12T13:04:40.000Z</time>
</trkpt>
<trkpt lat="31.0800800" lon="35.3511600">
<ele>-264.705933</ele>
<time>2011-03-12T13:05:55.000Z</time>
</trkpt>
<trkpt lat="31.0800800" lon="35.3511700">
<ele>-264.225342</ele>
<time>2011-03-12T13:06:14.000Z</time>
</trkpt>
<trkpt lat="31.0800800" lon="35.3512200">
<ele>-264.225342</ele>
<time>2011-03-12T13:06:18.000Z</time>
</trkpt>
<trkpt lat="31.0800400" lon="35.3512700">
<ele>-263.263794</ele>
<time>2011-03-12T13:06:22.000Z</time>
</trkpt>
<trkpt lat="31.0796900" lon="35.3513200">
<ele>-263.744507</ele>
<time>2011-03-12T13:06:41.000Z</time>
</trkpt>
<trkpt lat="31.0793800" lon="35.3514800">
<ele>-263.263794</ele>
<time>2011-03-12T13:06:57.000Z</time>
</trkpt>
<trkpt lat="31.0788600" lon="35.3515900">
<ele>-262.783203</ele>
<time>2011-03-12T13:07:15.000Z</time>
</trkpt>
<trkpt lat="31.0784300" lon="35.3517900">
<ele>-262.302612</ele>
<time>2011-03-12T13:07:31.000Z</time>
</trkpt>
<trkpt lat="31.0783600" lon="35.3523400">
<ele>-263.263794</ele>
<time>2011-03-12T13:07:45.000Z</time>
</trkpt>
<trkpt lat="31.0783800" lon="35.3525100">
<ele>-262.783203</ele>
<time>2011-03-12T13:07:54.000Z</time>
</trkpt>
<trkpt lat="31.0784100" lon="35.3527800">
<ele>-263.263794</ele>
<time>2011-03-12T13:08:43.000Z</time>
</trkpt>
<trkpt lat="31.0784300" lon="35.3529700">
<ele>-264.225342</ele>
<time>2011-03-12T13:08:47.000Z</time>
</trkpt>
<trkpt lat="31.0784300" lon="35.3540200">
<ele>-266.628540</ele>
<time>2011-03-12T13:09:02.000Z</time>
</trkpt>
<trkpt lat="31.0785100" lon="35.3552300">
<ele>-267.109131</ele>
<time>2011-03-12T13:09:19.000Z</time>
</trkpt>
<trkpt lat="31.0785600" lon="35.3554900">
<ele>-269.512451</ele>
<time>2011-03-12T13:09:23.000Z</time>
</trkpt>
<trkpt lat="31.0785800" lon="35.3556200">
<ele>-269.993164</ele>
<time>2011-03-12T13:09:25.000Z</time>
</trkpt>
<trkpt lat="31.0785600" lon="35.3559000">
<ele>-270.954346</ele>
<time>2011-03-12T13:09:29.000Z</time>
</trkpt>
<trkpt lat="31.0782300" lon="35.3571300">
<ele>-270.954346</ele>
<time>2011-03-12T13:09:50.000Z</time>
</trkpt>
<trkpt lat="31.0779000" lon="35.3580800">
<ele>-269.512451</ele>
<time>2011-03-12T13:10:10.000Z</time>
</trkpt>
<trkpt lat="31.0776600" lon="35.3589600">
<ele>-270.954346</ele>
<time>2011-03-12T13:10:28.000Z</time>
</trkpt>
<trkpt lat="31.0772500" lon="35.3599400">
<ele>-270.954346</ele>
<time>2011-03-12T13:10:48.000Z</time>
</trkpt>
<trkpt lat="31.0772500" lon="35.3605600">
<ele>-271.915771</ele>
<time>2011-03-12T13:11:02.000Z</time>
</trkpt>
<trkpt lat="31.0773200" lon="35.3607900">
<ele>-271.915771</ele>
<time>2011-03-12T13:11:07.000Z</time>
</trkpt>
<trkpt lat="31.0773700" lon="35.3615400">
<ele>-271.435059</ele>
<time>2011-03-12T13:11:22.000Z</time>
</trkpt>
<trkpt lat="31.0776100" lon="35.3624100">
<ele>-272.396484</ele>
<time>2011-03-12T13:11:42.000Z</time>
</trkpt>
<trkpt lat="31.0779300" lon="35.3632300">
<ele>-270.954346</ele>
<time>2011-03-12T13:12:04.000Z</time>
</trkpt>
<trkpt lat="31.0781400" lon="35.3639500">
<ele>-269.993164</ele>
<time>2011-03-12T13:12:23.000Z</time>
</trkpt>
<trkpt lat="31.0783600" lon="35.3647800">
<ele>-271.915771</ele>
<time>2011-03-12T13:12:44.000Z</time>
</trkpt>
<trkpt lat="31.0785600" lon="35.3656300">
<ele>-270.954346</ele>
<time>2011-03-12T13:13:06.000Z</time>
</trkpt>
<trkpt lat="31.0787400" lon="35.3663200">
<ele>-271.915771</ele>
<time>2011-03-12T13:13:24.000Z</time>
</trkpt>
<trkpt lat="31.0789300" lon="35.3673000">
<ele>-272.396484</ele>
<time>2011-03-12T13:13:47.000Z</time>
</trkpt>
<trkpt lat="31.0790500" lon="35.3681500">
<ele>-270.473755</ele>
<time>2011-03-12T13:14:09.000Z</time>
</trkpt>
<trkpt lat="31.0791600" lon="35.3688900">
<ele>-270.473755</ele>
<time>2011-03-12T13:14:31.000Z</time>
</trkpt>
<trkpt lat="31.0793300" lon="35.3697000">
<ele>-269.031738</ele>
<time>2011-03-12T13:14:56.000Z</time>
</trkpt>
<trkpt lat="31.0795300" lon="35.3704000">
<ele>-267.589844</ele>
<time>2011-03-12T13:15:19.000Z</time>
</trkpt>
<trkpt lat="31.0796500" lon="35.3707200">
<ele>-267.589844</ele>
<time>2011-03-12T13:15:34.000Z</time>
</trkpt>
<trkpt lat="31.0798300" lon="35.3713200">
<ele>-267.109131</ele>
<time>2011-03-12T13:15:55.000Z</time>
</trkpt>
<trkpt lat="31.0799600" lon="35.3718400">
<ele>-267.109131</ele>
<time>2011-03-12T13:16:14.000Z</time>
</trkpt>
<trkpt lat="31.0800100" lon="35.3721300">
<ele>-266.147949</ele>
<time>2011-03-12T13:16:25.000Z</time>
</trkpt>
<trkpt lat="31.0800300" lon="35.3721900">
<ele>-266.147949</ele>
<time>2011-03-12T13:16:28.000Z</time>
</trkpt>
<trkpt lat="31.0800100" lon="35.3722400">
<ele>-265.186523</ele>
<time>2011-03-12T13:16:32.000Z</time>
</trkpt>
<trkpt lat="31.0799600" lon="35.3721900">
<ele>-265.667236</ele>
<time>2011-03-12T13:16:37.000Z</time>
</trkpt>
<trkpt lat="31.0800200" lon="35.3721900">
<ele>-266.628540</ele>
<time>2011-03-12T13:16:45.000Z</time>
</trkpt>
<trkpt lat="31.0800900" lon="35.3726900">
<ele>-265.186523</ele>
<time>2011-03-12T13:17:03.000Z</time>
</trkpt>
<trkpt lat="31.0802200" lon="35.3733000">
<ele>-264.705933</ele>
<time>2011-03-12T13:17:24.000Z</time>
</trkpt>
<trkpt lat="31.0803300" lon="35.3738300">
<ele>-263.744507</ele>
<time>2011-03-12T13:17:41.000Z</time>
</trkpt>
<trkpt lat="31.0804400" lon="35.3743300">
<ele>-262.302612</ele>
<time>2011-03-12T13:18:02.000Z</time>
</trkpt>
<trkpt lat="31.0805400" lon="35.3748200">
<ele>-260.860596</ele>
<time>2011-03-12T13:18:25.000Z</time>
</trkpt>
<trkpt lat="31.0806100" lon="35.3752900">
<ele>-260.380005</ele>
<time>2011-03-12T13:18:48.000Z</time>
</trkpt>
<trkpt lat="31.0806400" lon="35.3757500">
<ele>-259.418579</ele>
<time>2011-03-12T13:19:07.000Z</time>
</trkpt>
<trkpt lat="31.0806100" lon="35.3763300">
<ele>-257.495972</ele>
<time>2011-03-12T13:19:31.000Z</time>
</trkpt>
<trkpt lat="31.0808000" lon="35.3767400">
<ele>-257.495972</ele>
<time>2011-03-12T13:19:51.000Z</time>
</trkpt>
<trkpt lat="31.0811700" lon="35.3770700">
<ele>-257.495972</ele>
<time>2011-03-12T13:20:12.000Z</time>
</trkpt>
<trkpt lat="31.0814000" lon="35.3773000">
<ele>-257.976685</ele>
<time>2011-03-12T13:20:27.000Z</time>
</trkpt>
<trkpt lat="31.0817200" lon="35.3777000">
<ele>-256.534790</ele>
<time>2011-03-12T13:20:49.000Z</time>
</trkpt>
<trkpt lat="31.0821000" lon="35.3781500">
<ele>-254.612061</ele>
<time>2011-03-12T13:21:14.000Z</time>
</trkpt>
<trkpt lat="31.0824400" lon="35.3784400">
<ele>-253.650635</ele>
<time>2011-03-12T13:21:33.000Z</time>
</trkpt>
<trkpt lat="31.0828100" lon="35.3787200">
<ele>-252.689453</ele>
<time>2011-03-12T13:21:51.000Z</time>
</trkpt>
<trkpt lat="31.0832300" lon="35.3789800">
<ele>-250.766846</ele>
<time>2011-03-12T13:22:12.000Z</time>
</trkpt>
<trkpt lat="31.0836400" lon="35.3791200">
<ele>-251.247437</ele>
<time>2011-03-12T13:22:28.000Z</time>
</trkpt>
<trkpt lat="31.0841500" lon="35.3792600">
<ele>-250.766846</ele>
<time>2011-03-12T13:22:46.000Z</time>
</trkpt>
<trkpt lat="31.0846500" lon="35.3794000">
<ele>-249.324844</ele>
<time>2011-03-12T13:23:06.000Z</time>
</trkpt>
<trkpt lat="31.0850800" lon="35.3795700">
<ele>-246.440796</ele>
<time>2011-03-12T13:23:26.000Z</time>
</trkpt>
<trkpt lat="31.0854500" lon="35.3796900">
<ele>-245.960068</ele>
<time>2011-03-12T13:23:46.000Z</time>
</trkpt>
<trkpt lat="31.0859000" lon="35.3797100">
<ele>-244.998901</ele>
<time>2011-03-12T13:24:04.000Z</time>
</trkpt>
<trkpt lat="31.0864100" lon="35.3797400">
<ele>-244.518188</ele>
<time>2011-03-12T13:24:22.000Z</time>
</trkpt>
<trkpt lat="31.0868200" lon="35.3799000">
<ele>-242.595581</ele>
<time>2011-03-12T13:24:40.000Z</time>
</trkpt>
<trkpt lat="31.0871600" lon="35.3799000">
<ele>-242.114883</ele>
<time>2011-03-12T13:24:56.000Z</time>
</trkpt>
<trkpt lat="31.0876300" lon="35.3799600">
<ele>-240.672974</ele>
<time>2011-03-12T13:25:17.000Z</time>
</trkpt>
<trkpt lat="31.0880600" lon="35.3801300">
<ele>-238.269531</ele>
<time>2011-03-12T13:25:38.000Z</time>
</trkpt>
<trkpt lat="31.0884300" lon="35.3802200">
<ele>-236.346939</ele>
<time>2011-03-12T13:25:56.000Z</time>
</trkpt>
<trkpt lat="31.0887600" lon="35.3802700">
<ele>-234.905029</ele>
<time>2011-03-12T13:26:13.000Z</time>
</trkpt>
<trkpt lat="31.0890100" lon="35.3802500">
<ele>-233.943726</ele>
<time>2011-03-12T13:26:33.000Z</time>
</trkpt>
<trkpt lat="31.0892700" lon="35.3802300">
<ele>-235.866333</ele>
<time>2011-03-12T13:28:15.000Z</time>
</trkpt>
<trkpt lat="31.0899200" lon="35.3801900">
<ele>-236.346939</ele>
<time>2011-03-12T13:28:32.000Z</time>
</trkpt>
<trkpt lat="31.0905700" lon="35.3801000">
<ele>-236.346939</ele>
<time>2011-03-12T13:28:51.000Z</time>
</trkpt>
<trkpt lat="31.0907100" lon="35.3800600">
<ele>-237.788940</ele>
<time>2011-03-12T13:28:54.000Z</time>
</trkpt>
<trkpt lat="31.0908000" lon="35.3800300">
<ele>-238.750244</ele>
<time>2011-03-12T13:28:56.000Z</time>
</trkpt>
<trkpt lat="31.0913900" lon="35.3798900">
<ele>-237.308350</ele>
<time>2011-03-12T13:29:12.000Z</time>
</trkpt>
<trkpt lat="31.0916800" lon="35.3796900">
<ele>-238.750244</ele>
<time>2011-03-12T13:29:21.000Z</time>
</trkpt>
<trkpt lat="31.0918800" lon="35.3795200">
<ele>-240.192261</ele>
<time>2011-03-12T13:29:26.000Z</time>
</trkpt>
<trkpt lat="31.0923400" lon="35.3793400">
<ele>-241.153687</ele>
<time>2011-03-12T13:29:35.000Z</time>
</trkpt>
<trkpt lat="31.0928300" lon="35.3792500">
<ele>-241.634277</ele>
<time>2011-03-12T13:29:48.000Z</time>
</trkpt>
<trkpt lat="31.0930200" lon="35.3791800">
<ele>-243.556885</ele>
<time>2011-03-12T13:29:52.000Z</time>
</trkpt>
<trkpt lat="31.0934800" lon="35.3789300">
<ele>-246.921509</ele>
<time>2011-03-12T13:30:01.000Z</time>
</trkpt>
<trkpt lat="31.0935300" lon="35.3789000">
<ele>-246.921509</ele>
<time>2011-03-12T13:30:02.000Z</time>
</trkpt>
<trkpt lat="31.0941700" lon="35.3785300">
<ele>-250.286133</ele>
<time>2011-03-12T13:30:16.000Z</time>
</trkpt>
<trkpt lat="31.0942100" lon="35.3785100">
<ele>-250.286133</ele>
<time>2011-03-12T13:30:17.000Z</time>
</trkpt>
<trkpt lat="31.0943000" lon="35.3784700">
<ele>-250.286133</ele>
<time>2011-03-12T13:30:19.000Z</time>
</trkpt>
<trkpt lat="31.0947100" lon="35.3783900">
<ele>-252.208740</ele>
<time>2011-03-12T13:30:27.000Z</time>
</trkpt>
<trkpt lat="31.0950000" lon="35.3783000">
<ele>-253.170029</ele>
<time>2011-03-12T13:30:34.000Z</time>
</trkpt>
<trkpt lat="31.0951600" lon="35.3783200">
<ele>-253.170029</ele>
<time>2011-03-12T13:30:38.000Z</time>
</trkpt>
<trkpt lat="31.0952400" lon="35.3783400">
<ele>-253.170029</ele>
<time>2011-03-12T13:30:40.000Z</time>
</trkpt>
<trkpt lat="31.0953900" lon="35.3783600">
<ele>-254.131348</ele>
<time>2011-03-12T13:30:44.000Z</time>
</trkpt>
<trkpt lat="31.0957100" lon="35.3782400">
<ele>-254.612061</ele>
<time>2011-03-12T13:30:53.000Z</time>
</trkpt>
<trkpt lat="31.0958800" lon="35.3781900">
<ele>-255.092651</ele>
<time>2011-03-12T13:30:57.000Z</time>
</trkpt>
<trkpt lat="31.0965400" lon="35.3777500">
<ele>-256.534790</ele>
<time>2011-03-12T13:31:15.000Z</time>
</trkpt>
<trkpt lat="31.0968300" lon="35.3775000">
<ele>-257.976685</ele>
<time>2011-03-12T13:31:23.000Z</time>
</trkpt>
<trkpt lat="31.0969000" lon="35.3774400">
<ele>-257.976685</ele>
<time>2011-03-12T13:31:25.000Z</time>
</trkpt>
<trkpt lat="31.0972200" lon="35.3774300">
<ele>-259.418579</ele>
<time>2011-03-12T13:31:32.000Z</time>
</trkpt>
<trkpt lat="31.0980700" lon="35.3777100">
<ele>-261.341187</ele>
<time>2011-03-12T13:31:50.000Z</time>
</trkpt>
<trkpt lat="31.0983800" lon="35.3775700">
<ele>-262.302612</ele>
<time>2011-03-12T13:31:56.000Z</time>
</trkpt>
<trkpt lat="31.0985000" lon="35.3774100">
<ele>-262.783203</ele>
<time>2011-03-12T13:31:59.000Z</time>
</trkpt>
<trkpt lat="31.0987900" lon="35.3773100">
<ele>-263.744507</ele>
<time>2011-03-12T13:32:05.000Z</time>
</trkpt>
<trkpt lat="31.0989900" lon="35.3773300">
<ele>-265.186523</ele>
<time>2011-03-12T13:32:09.000Z</time>
</trkpt>
<trkpt lat="31.0993500" lon="35.3771000">
<ele>-265.186523</ele>
<time>2011-03-12T13:32:18.000Z</time>
</trkpt>
<trkpt lat="31.0993600" lon="35.3770100">
<ele>-266.147949</ele>
<time>2011-03-12T13:32:20.000Z</time>
</trkpt>
<trkpt lat="31.0993600" lon="35.3768400">
<ele>-266.147949</ele>
<time>2011-03-12T13:32:23.000Z</time>
</trkpt>
<trkpt lat="31.0995600" lon="35.3767900">
<ele>-267.109131</ele>
<time>2011-03-12T13:32:29.000Z</time>
</trkpt>
<trkpt lat="31.0996400" lon="35.3768400">
<ele>-267.589844</ele>
<time>2011-03-12T13:32:31.000Z</time>
</trkpt>
<trkpt lat="31.0998500" lon="35.3767200">
<ele>-268.070557</ele>
<time>2011-03-12T13:32:38.000Z</time>
</trkpt>
<trkpt lat="31.0998400" lon="35.3766600">
<ele>-268.551147</ele>
<time>2011-03-12T13:32:39.000Z</time>
</trkpt>
<trkpt lat="31.0998300" lon="35.3765000">
<ele>-268.551147</ele>
<time>2011-03-12T13:32:42.000Z</time>
</trkpt>
<trkpt lat="31.0999600" lon="35.3762400">
<ele>-269.993164</ele>
<time>2011-03-12T13:32:49.000Z</time>
</trkpt>
<trkpt lat="31.1000400" lon="35.3762200">
<ele>-270.473755</ele>
<time>2011-03-12T13:32:51.000Z</time>
</trkpt>
<trkpt lat="31.1002000" lon="35.3761300">
<ele>-270.473755</ele>
<time>2011-03-12T13:32:55.000Z</time>
</trkpt>
<trkpt lat="31.1003600" lon="35.3760300">
<ele>-270.954346</ele>
<time>2011-03-12T13:32:59.000Z</time>
</trkpt>
<trkpt lat="31.1005100" lon="35.3760200">
<ele>-270.954346</ele>
<time>2011-03-12T13:33:02.000Z</time>
</trkpt>
<trkpt lat="31.1006800" lon="35.3758500">
<ele>-271.435059</ele>
<time>2011-03-12T13:33:08.000Z</time>
</trkpt>
<trkpt lat="31.1006700" lon="35.3757600">
<ele>-271.435059</ele>
<time>2011-03-12T13:33:10.000Z</time>
</trkpt>
<trkpt lat="31.1008100" lon="35.3751900">
<ele>-273.838501</ele>
<time>2011-03-12T13:33:22.000Z</time>
</trkpt>
<trkpt lat="31.1009000" lon="35.3752700">
<ele>-274.799683</ele>
<time>2011-03-12T13:33:26.000Z</time>
</trkpt>
<trkpt lat="31.1009500" lon="35.3754000">
<ele>-275.280396</ele>
<time>2011-03-12T13:33:29.000Z</time>
</trkpt>
<trkpt lat="31.1011200" lon="35.3757200">
<ele>-275.280396</ele>
<time>2011-03-12T13:33:37.000Z</time>
</trkpt>
<trkpt lat="31.1012200" lon="35.3760000">
<ele>-276.241699</ele>
<time>2011-03-12T13:33:43.000Z</time>
</trkpt>
<trkpt lat="31.1014200" lon="35.3761600">
<ele>-276.241699</ele>
<time>2011-03-12T13:33:50.000Z</time>
</trkpt>
<trkpt lat="31.1017300" lon="35.3760500">
<ele>-276.722290</ele>
<time>2011-03-12T13:33:59.000Z</time>
</trkpt>
<trkpt lat="31.1018000" lon="35.3760100">
<ele>-276.722290</ele>
<time>2011-03-12T13:34:01.000Z</time>
</trkpt>
<trkpt lat="31.1018900" lon="35.3758700">
<ele>-277.203003</ele>
<time>2011-03-12T13:34:06.000Z</time>
</trkpt>
<trkpt lat="31.1021500" lon="35.3755400">
<ele>-280.087036</ele>
<time>2011-03-12T13:34:17.000Z</time>
</trkpt>
<trkpt lat="31.1023000" lon="35.3751100">
<ele>-279.606323</ele>
<time>2011-03-12T13:34:27.000Z</time>
</trkpt>
<trkpt lat="31.1023000" lon="35.3749700">
<ele>-280.087036</ele>
<time>2011-03-12T13:34:30.000Z</time>
</trkpt>
<trkpt lat="31.1024000" lon="35.3748700">
<ele>-280.567627</ele>
<time>2011-03-12T13:34:34.000Z</time>
</trkpt>
<trkpt lat="31.1025100" lon="35.3748400">
<ele>-280.567627</ele>
<time>2011-03-12T13:34:37.000Z</time>
</trkpt>
<trkpt lat="31.1026300" lon="35.3746400">
<ele>-281.048340</ele>
<time>2011-03-12T13:34:44.000Z</time>
</trkpt>
<trkpt lat="31.1026400" lon="35.3745400">
<ele>-282.009644</ele>
<time>2011-03-12T13:34:47.000Z</time>
</trkpt>
<trkpt lat="31.1027800" lon="35.3745200">
<ele>-283.451660</ele>
<time>2011-03-12T13:34:54.000Z</time>
</trkpt>
<trkpt lat="31.1031200" lon="35.3747300">
<ele>-283.932251</ele>
<time>2011-03-12T13:35:04.000Z</time>
</trkpt>
<trkpt lat="31.1033300" lon="35.3747700">
<ele>-284.893555</ele>
<time>2011-03-12T13:35:09.000Z</time>
</trkpt>
<trkpt lat="31.1036300" lon="35.3749200">
<ele>-285.374268</ele>
<time>2011-03-12T13:35:17.000Z</time>
</trkpt>
<trkpt lat="31.1038300" lon="35.3749400">
<ele>-285.854858</ele>
<time>2011-03-12T13:35:22.000Z</time>
</trkpt>
<trkpt lat="31.1039100" lon="35.3748200">
<ele>-286.816162</ele>
<time>2011-03-12T13:35:26.000Z</time>
</trkpt>
<trkpt lat="31.1039900" lon="35.3743900">
<ele>-287.296875</ele>
<time>2011-03-12T13:35:35.000Z</time>
</trkpt>
<trkpt lat="31.1041900" lon="35.3742900">
<ele>-287.296875</ele>
<time>2011-03-12T13:35:42.000Z</time>
</trkpt>
<trkpt lat="31.1044700" lon="35.3745100">
<ele>-289.219604</ele>
<time>2011-03-12T13:35:50.000Z</time>
</trkpt>
<trkpt lat="31.1046600" lon="35.3745700">
<ele>-288.258179</ele>
<time>2011-03-12T13:35:55.000Z</time>
</trkpt>
<trkpt lat="31.1046800" lon="35.3744400">
<ele>-290.180786</ele>
<time>2011-03-12T13:35:59.000Z</time>
</trkpt>
<trkpt lat="31.1046400" lon="35.3743900">
<ele>-290.180786</ele>
<time>2011-03-12T13:36:01.000Z</time>
</trkpt>
<trkpt lat="31.1047300" lon="35.3742100">
<ele>-291.142212</ele>
<time>2011-03-12T13:36:09.000Z</time>
</trkpt>
<trkpt lat="31.1047500" lon="35.3742300">
<ele>-291.622803</ele>
<time>2011-03-12T13:36:10.000Z</time>
</trkpt>
<trkpt lat="31.1050500" lon="35.3743600">
<ele>-291.622803</ele>
<time>2011-03-12T13:36:20.000Z</time>
</trkpt>
<trkpt lat="31.1051500" lon="35.3741500">
<ele>-291.622803</ele>
<time>2011-03-12T13:36:27.000Z</time>
</trkpt>
<trkpt lat="31.1054000" lon="35.3740400">
<ele>-294.026001</ele>
<time>2011-03-12T13:36:37.000Z</time>
</trkpt>
<trkpt lat="31.1056800" lon="35.3742600">
<ele>-294.026001</ele>
<time>2011-03-12T13:36:47.000Z</time>
</trkpt>
<trkpt lat="31.1057100" lon="35.3741100">
<ele>-294.987427</ele>
<time>2011-03-12T13:36:53.000Z</time>
</trkpt>
<trkpt lat="31.1056700" lon="35.3738400">
<ele>-295.468018</ele>
<time>2011-03-12T13:37:01.000Z</time>
</trkpt>
<trkpt lat="31.1058400" lon="35.3739700">
<ele>-296.429443</ele>
<time>2011-03-12T13:37:09.000Z</time>
</trkpt>
<trkpt lat="31.1060700" lon="35.3743400">
<ele>-296.910156</ele>
<time>2011-03-12T13:37:21.000Z</time>
</trkpt>
<trkpt lat="31.1061400" lon="35.3742300">
<ele>-297.871338</ele>
<time>2011-03-12T13:37:27.000Z</time>
</trkpt>
<trkpt lat="31.1060900" lon="35.3740900">
<ele>-299.793945</ele>
<time>2011-03-12T13:37:30.000Z</time>
</trkpt>
<trkpt lat="31.1059500" lon="35.3736400">
<ele>-299.793945</ele>
<time>2011-03-12T13:37:41.000Z</time>
</trkpt>
<trkpt lat="31.1061300" lon="35.3736600">
<ele>-300.755371</ele>
<time>2011-03-12T13:37:47.000Z</time>
</trkpt>
<trkpt lat="31.1062500" lon="35.3737600">
<ele>-301.235962</ele>
<time>2011-03-12T13:37:51.000Z</time>
</trkpt>
<trkpt lat="31.1064600" lon="35.3738400">
<ele>-301.716553</ele>
<time>2011-03-12T13:37:56.000Z</time>
</trkpt>
<trkpt lat="31.1065900" lon="35.3738600">
<ele>-301.716553</ele>
<time>2011-03-12T13:37:59.000Z</time>
</trkpt>
<trkpt lat="31.1067500" lon="35.3739900">
<ele>-303.639160</ele>
<time>2011-03-12T13:38:04.000Z</time>
</trkpt>
<trkpt lat="31.1067700" lon="35.3740300">
<ele>-302.677979</ele>
<time>2011-03-12T13:38:05.000Z</time>
</trkpt>
<trkpt lat="31.1068400" lon="35.3741900">
<ele>-305.081299</ele>
<time>2011-03-12T13:38:09.000Z</time>
</trkpt>
<trkpt lat="31.1071400" lon="35.3743900">
<ele>-304.600708</ele>
<time>2011-03-12T13:38:20.000Z</time>
</trkpt>
<trkpt lat="31.1073300" lon="35.3740200">
<ele>-306.042603</ele>
<time>2011-03-12T13:38:33.000Z</time>
</trkpt>
<trkpt lat="31.1074600" lon="35.3740500">
<ele>-305.561890</ele>
<time>2011-03-12T13:38:38.000Z</time>
</trkpt>
<trkpt lat="31.1075800" lon="35.3740800">
<ele>-306.523315</ele>
<time>2011-03-12T13:38:42.000Z</time>
</trkpt>
<trkpt lat="31.1077300" lon="35.3739300">
<ele>-306.523315</ele>
<time>2011-03-12T13:38:48.000Z</time>
</trkpt>
<trkpt lat="31.1078500" lon="35.3740600">
<ele>-307.003906</ele>
<time>2011-03-12T13:38:54.000Z</time>
</trkpt>
<trkpt lat="31.1078700" lon="35.3741400">
<ele>-307.484497</ele>
<time>2011-03-12T13:38:56.000Z</time>
</trkpt>
<trkpt lat="31.1079900" lon="35.3741300">
<ele>-308.926514</ele>
<time>2011-03-12T13:39:03.000Z</time>
</trkpt>
<trkpt lat="31.1079800" lon="35.3741000">
<ele>-309.407104</ele>
<time>2011-03-12T13:39:04.000Z</time>
</trkpt>
<trkpt lat="31.1080300" lon="35.3738900">
<ele>-308.926514</ele>
<time>2011-03-12T13:39:11.000Z</time>
</trkpt>
<trkpt lat="31.1082600" lon="35.3738000">
<ele>-309.407104</ele>
<time>2011-03-12T13:39:19.000Z</time>
</trkpt>
<trkpt lat="31.1083300" lon="35.3738900">
<ele>-309.407104</ele>
<time>2011-03-12T13:39:23.000Z</time>
</trkpt>
<trkpt lat="31.1084300" lon="35.3738900">
<ele>-310.849121</ele>
<time>2011-03-12T13:39:29.000Z</time>
</trkpt>
<trkpt lat="31.1085500" lon="35.3737000">
<ele>-310.849121</ele>
<time>2011-03-12T13:39:37.000Z</time>
</trkpt>
<trkpt lat="31.1086500" lon="35.3737700">
<ele>-310.849121</ele>
<time>2011-03-12T13:39:43.000Z</time>
</trkpt>
<trkpt lat="31.1087300" lon="35.3739100">
<ele>-311.329712</ele>
<time>2011-03-12T13:39:49.000Z</time>
</trkpt>
<trkpt lat="31.1088500" lon="35.3738000">
<ele>-312.771881</ele>
<time>2011-03-12T13:39:57.000Z</time>
</trkpt>
<trkpt lat="31.1088700" lon="35.3736400">
<ele>-313.252441</ele>
<time>2011-03-12T13:40:02.000Z</time>
</trkpt>
<trkpt lat="31.1090500" lon="35.3736500">
<ele>-313.252441</ele>
<time>2011-03-12T13:40:09.000Z</time>
</trkpt>
<trkpt lat="31.1092300" lon="35.3735400">
<ele>-313.733154</ele>
<time>2011-03-12T13:40:19.000Z</time>
</trkpt>
<trkpt lat="31.1092200" lon="35.3734700">
<ele>-313.733154</ele>
<time>2011-03-12T13:40:22.000Z</time>
</trkpt>
<trkpt lat="31.1092700" lon="35.3734200">
<ele>-314.213867</ele>
<time>2011-03-12T13:40:25.000Z</time>
</trkpt>
<trkpt lat="31.1094000" lon="35.3734900">
<ele>-314.694458</ele>
<time>2011-03-12T13:40:30.000Z</time>
</trkpt>
<trkpt lat="31.1097500" lon="35.3736400">
<ele>-315.175018</ele>
<time>2011-03-12T13:40:43.000Z</time>
</trkpt>
<trkpt lat="31.1098600" lon="35.3735600">
<ele>-315.655762</ele>
<time>2011-03-12T13:40:47.000Z</time>
</trkpt>
<trkpt lat="31.1098100" lon="35.3734600">
<ele>-316.617065</ele>
<time>2011-03-12T13:40:52.000Z</time>
</trkpt>
<trkpt lat="31.1097500" lon="35.3734400">
<ele>-317.097656</ele>
<time>2011-03-12T13:40:54.000Z</time>
</trkpt>
<trkpt lat="31.1096800" lon="35.3733200">
<ele>-317.578369</ele>
<time>2011-03-12T13:40:59.000Z</time>
</trkpt>
<trkpt lat="31.1099200" lon="35.3732900">
<ele>-319.020264</ele>
<time>2011-03-12T13:41:08.000Z</time>
</trkpt>
<trkpt lat="31.1102400" lon="35.3733900">
<ele>-319.020264</ele>
<time>2011-03-12T13:41:18.000Z</time>
</trkpt>
<trkpt lat="31.1101900" lon="35.3732400">
<ele>-319.981689</ele>
<time>2011-03-12T13:41:23.000Z</time>
</trkpt>
<trkpt lat="31.1102800" lon="35.3731400">
<ele>-320.462402</ele>
<time>2011-03-12T13:41:31.000Z</time>
</trkpt>
<trkpt lat="31.1107400" lon="35.3734000">
<ele>-322.865601</ele>
<time>2011-03-12T13:41:45.000Z</time>
</trkpt>
<trkpt lat="31.1112600" lon="35.3733900">
<ele>-323.827057</ele>
<time>2011-03-12T13:41:59.000Z</time>
</trkpt>
<trkpt lat="31.1112900" lon="35.3733900">
<ele>-323.346313</ele>
<time>2011-03-12T13:42:00.000Z</time>
</trkpt>
<trkpt lat="31.1115000" lon="35.3731400">
<ele>-324.307617</ele>
<time>2011-03-12T13:42:12.000Z</time>
</trkpt>
<trkpt lat="31.1115900" lon="35.3731000">
<ele>-323.346313</ele>
<time>2011-03-12T13:42:17.000Z</time>
</trkpt>
<trkpt lat="31.1116500" lon="35.3731600">
<ele>-324.788208</ele>
<time>2011-03-12T13:42:21.000Z</time>
</trkpt>
<trkpt lat="31.1117300" lon="35.3732100">
<ele>-325.749634</ele>
<time>2011-03-12T13:42:23.000Z</time>
</trkpt>
<trkpt lat="31.1121100" lon="35.3732400">
<ele>-325.749634</ele>
<time>2011-03-12T13:42:34.000Z</time>
</trkpt>
<trkpt lat="31.1121700" lon="35.3731900">
<ele>-325.749634</ele>
<time>2011-03-12T13:42:36.000Z</time>
</trkpt>
<trkpt lat="31.1122600" lon="35.3732700">
<ele>-326.710815</ele>
<time>2011-03-12T13:42:42.000Z</time>
</trkpt>
<trkpt lat="31.1124000" lon="35.3735500">
<ele>-327.191528</ele>
<time>2011-03-12T13:42:53.000Z</time>
</trkpt>
<trkpt lat="31.1125100" lon="35.3735000">
<ele>-328.152954</ele>
<time>2011-03-12T13:42:58.000Z</time>
</trkpt>
<trkpt lat="31.1129700" lon="35.3732100">
<ele>-329.114288</ele>
<time>2011-03-12T13:43:13.000Z</time>
</trkpt>
<trkpt lat="31.1130300" lon="35.3731700">
<ele>-329.114288</ele>
<time>2011-03-12T13:43:15.000Z</time>
</trkpt>
<trkpt lat="31.1131500" lon="35.3732500">
<ele>-330.075562</ele>
<time>2011-03-12T13:43:20.000Z</time>
</trkpt>
<trkpt lat="31.1134400" lon="35.3734600">
<ele>-330.556152</ele>
<time>2011-03-12T13:43:32.000Z</time>
</trkpt>
<trkpt lat="31.1134800" lon="35.3733600">
<ele>-331.998169</ele>
<time>2011-03-12T13:43:36.000Z</time>
</trkpt>
<trkpt lat="31.1134800" lon="35.3733000">
<ele>-331.998169</ele>
<time>2011-03-12T13:43:38.000Z</time>
</trkpt>
<trkpt lat="31.1135500" lon="35.3732400">
<ele>-331.517578</ele>
<time>2011-03-12T13:43:42.000Z</time>
</trkpt>
<trkpt lat="31.1135700" lon="35.3731100">
<ele>-332.478760</ele>
<time>2011-03-12T13:43:47.000Z</time>
</trkpt>
<trkpt lat="31.1136500" lon="35.3729200">
<ele>-333.440186</ele>
<time>2011-03-12T13:43:56.000Z</time>
</trkpt>
<trkpt lat="31.1136800" lon="35.3729300">
<ele>-333.920776</ele>
<time>2011-03-12T13:43:57.000Z</time>
</trkpt>
<trkpt lat="31.1141000" lon="35.3733300">
<ele>-334.882080</ele>
<time>2011-03-12T13:44:13.000Z</time>
</trkpt>
<trkpt lat="31.1142100" lon="35.3733500">
<ele>-335.362793</ele>
<time>2011-03-12T13:44:17.000Z</time>
</trkpt>
<trkpt lat="31.1142800" lon="35.3732400">
<ele>-336.324097</ele>
<time>2011-03-12T13:44:21.000Z</time>
</trkpt>
<trkpt lat="31.1144100" lon="35.3732000">
<ele>-336.324097</ele>
<time>2011-03-12T13:44:26.000Z</time>
</trkpt>
<trkpt lat="31.1148600" lon="35.3732800">
<ele>-338.246704</ele>
<time>2011-03-12T13:44:42.000Z</time>
</trkpt>
<trkpt lat="31.1152900" lon="35.3730500">
<ele>-338.727417</ele>
<time>2011-03-12T13:44:58.000Z</time>
</trkpt>
<trkpt lat="31.1154000" lon="35.3730200">
<ele>-338.727417</ele>
<time>2011-03-12T13:45:02.000Z</time>
</trkpt>
<trkpt lat="31.1154800" lon="35.3731400">
<ele>-340.650024</ele>
<time>2011-03-12T13:45:07.000Z</time>
</trkpt>
<trkpt lat="31.1155300" lon="35.3732500">
<ele>-340.169312</ele>
<time>2011-03-12T13:45:12.000Z</time>
</trkpt>
<trkpt lat="31.1155800" lon="35.3732500">
<ele>-340.169312</ele>
<time>2011-03-12T13:45:14.000Z</time>
</trkpt>
<trkpt lat="31.1158900" lon="35.3729700">
<ele>-342.091888</ele>
<time>2011-03-12T13:45:27.000Z</time>
</trkpt>
<trkpt lat="31.1160200" lon="35.3725600">
<ele>-343.533936</ele>
<time>2011-03-12T13:45:38.000Z</time>
</trkpt>
<trkpt lat="31.1163800" lon="35.3725100">
<ele>-344.976074</ele>
<time>2011-03-12T13:45:48.000Z</time>
</trkpt>
<trkpt lat="31.1167300" lon="35.3721700">
<ele>-345.937256</ele>
<time>2011-03-12T13:46:04.000Z</time>
</trkpt>
<trkpt lat="31.1168300" lon="35.3721100">
<ele>-344.976074</ele>
<time>2011-03-12T13:46:18.000Z</time>
</trkpt>
<trkpt lat="31.1170100" lon="35.3719600">
<ele>-346.898682</ele>
<time>2011-03-12T13:47:20.000Z</time>
</trkpt>
<trkpt lat="31.1173600" lon="35.3715700">
<ele>-348.340576</ele>
<time>2011-03-12T13:47:33.000Z</time>
</trkpt>
<trkpt lat="31.1174700" lon="35.3716200">
<ele>-348.340576</ele>
<time>2011-03-12T13:47:38.000Z</time>
</trkpt>
<trkpt lat="31.1175300" lon="35.3716700">
<ele>-347.859833</ele>
<time>2011-03-12T13:47:52.000Z</time>
</trkpt>
<trkpt lat="31.1175400" lon="35.3716700">
<ele>-347.859833</ele>
<time>2011-03-12T13:49:26.000Z</time>
</trkpt>
<trkpt lat="31.1175600" lon="35.3717000">
<ele>-348.340576</ele>
<time>2011-03-12T13:49:29.000Z</time>
</trkpt>
<trkpt lat="31.1179400" lon="35.3720400">
<ele>-350.263184</ele>
<time>2011-03-12T13:49:46.000Z</time>
</trkpt>
<trkpt lat="31.1186100" lon="35.3725600">
<ele>-350.263184</ele>
<time>2011-03-12T13:50:08.000Z</time>
</trkpt>
<trkpt lat="31.1191900" lon="35.3730200">
<ele>-350.743927</ele>
<time>2011-03-12T13:50:26.000Z</time>
</trkpt>
<trkpt lat="31.1196500" lon="35.3734900">
<ele>-351.224487</ele>
<time>2011-03-12T13:50:43.000Z</time>
</trkpt>
<trkpt lat="31.1199800" lon="35.3736600">
<ele>-352.185913</ele>
<time>2011-03-12T13:50:52.000Z</time>
</trkpt>
<trkpt lat="31.1203400" lon="35.3739700">
<ele>-353.627777</ele>
<time>2011-03-12T13:51:03.000Z</time>
</trkpt>
<trkpt lat="31.1209500" lon="35.3741900">
<ele>-354.589233</ele>
<time>2011-03-12T13:51:19.000Z</time>
</trkpt>
<trkpt lat="31.1213800" lon="35.3743100">
<ele>-355.069824</ele>
<time>2011-03-12T13:51:29.000Z</time>
</trkpt>
<trkpt lat="31.1215500" lon="35.3743300">
<ele>-355.069824</ele>
<time>2011-03-12T13:51:33.000Z</time>
</trkpt>
<trkpt lat="31.1217400" lon="35.3743200">
<ele>-357.473022</ele>
<time>2011-03-12T13:51:37.000Z</time>
</trkpt>
<trkpt lat="31.1224300" lon="35.3741100">
<ele>-357.953735</ele>
<time>2011-03-12T13:51:53.000Z</time>
</trkpt>
<trkpt lat="31.1228200" lon="35.3737300">
<ele>-357.473022</ele>
<time>2011-03-12T13:52:05.000Z</time>
</trkpt>
<trkpt lat="31.1229300" lon="35.3735800">
<ele>-357.473022</ele>
<time>2011-03-12T13:52:09.000Z</time>
</trkpt>
<trkpt lat="31.1233900" lon="35.3732200">
<ele>-357.953735</ele>
<time>2011-03-12T13:52:24.000Z</time>
</trkpt>
<trkpt lat="31.1239900" lon="35.3730600">
<ele>-357.953735</ele>
<time>2011-03-12T13:52:42.000Z</time>
</trkpt>
<trkpt lat="31.1244500" lon="35.3729100">
<ele>-358.434448</ele>
<time>2011-03-12T13:52:54.000Z</time>
</trkpt>
<trkpt lat="31.1249400" lon="35.3729300">
<ele>-359.395630</ele>
<time>2011-03-12T13:53:05.000Z</time>
</trkpt>
<trkpt lat="31.1252100" lon="35.3729200">
<ele>-359.876343</ele>
<time>2011-03-12T13:53:11.000Z</time>
</trkpt>
<trkpt lat="31.1254600" lon="35.3729400">
<ele>-361.318359</ele>
<time>2011-03-12T13:53:17.000Z</time>
</trkpt>
<trkpt lat="31.1260800" lon="35.3731900">
<ele>-360.357178</ele>
<time>2011-03-12T13:53:34.000Z</time>
</trkpt>
<trkpt lat="31.1265900" lon="35.3734500">
<ele>-359.876343</ele>
<time>2011-03-12T13:53:51.000Z</time>
</trkpt>
<trkpt lat="31.1273700" lon="35.3738700">
<ele>-361.799103</ele>
<time>2011-03-12T13:54:13.000Z</time>
</trkpt>
<trkpt lat="31.1281200" lon="35.3743400">
<ele>-361.318359</ele>
<time>2011-03-12T13:54:35.000Z</time>
</trkpt>
<trkpt lat="31.1286100" lon="35.3746800">
<ele>-363.240967</ele>
<time>2011-03-12T13:54:50.000Z</time>
</trkpt>
<trkpt lat="31.1294400" lon="35.3747500">
<ele>-363.240967</ele>
<time>2011-03-12T13:55:11.000Z</time>
</trkpt>
<trkpt lat="31.1298100" lon="35.3747100">
<ele>-361.318359</ele>
<time>2011-03-12T13:55:23.000Z</time>
</trkpt>
<trkpt lat="31.1298300" lon="35.3746900">
<ele>-360.357178</ele>
<time>2011-03-12T13:55:25.000Z</time>
</trkpt>
<trkpt lat="31.1300300" lon="35.3746300">
<ele>-362.279816</ele>
<time>2011-03-12T13:55:36.000Z</time>
</trkpt>
<trkpt lat="31.1304400" lon="35.3743500">
<ele>-362.760376</ele>
<time>2011-03-12T13:55:50.000Z</time>
</trkpt>
<trkpt lat="31.1308800" lon="35.3742100">
<ele>-362.760376</ele>
<time>2011-03-12T13:56:06.000Z</time>
</trkpt>
<trkpt lat="31.1311300" lon="35.3744100">
<ele>-363.721680</ele>
<time>2011-03-12T13:56:18.000Z</time>
</trkpt>
<trkpt lat="31.1311300" lon="35.3744100">
<ele>-362.279816</ele>
<time>2011-03-12T13:56:21.000Z</time>
</trkpt>
<trkpt lat="31.1311300" lon="35.3744100">
<ele>-363.721680</ele>
<time>2011-03-12T13:56:23.000Z</time>
</trkpt>
<trkpt lat="31.1313500" lon="35.3746600">
<ele>-365.644287</ele>
<time>2011-03-12T13:56:37.000Z</time>
</trkpt>
<trkpt lat="31.1314700" lon="35.3748000">
<ele>-367.566895</ele>
<time>2011-03-12T13:56:40.000Z</time>
</trkpt>
<trkpt lat="31.1315100" lon="35.3748400">
<ele>-368.047699</ele>
<time>2011-03-12T13:56:41.000Z</time>
</trkpt>
<trkpt lat="31.1316100" lon="35.3749200">
<ele>-368.047699</ele>
<time>2011-03-12T13:56:43.000Z</time>
</trkpt>
<trkpt lat="31.1318000" lon="35.3749800">
<ele>-368.047699</ele>
<time>2011-03-12T13:56:47.000Z</time>
</trkpt>
<trkpt lat="31.1322300" lon="35.3748600">
<ele>-369.008911</ele>
<time>2011-03-12T13:57:00.000Z</time>
</trkpt>
<trkpt lat="31.1324700" lon="35.3747800">
<ele>-370.931519</ele>
<time>2011-03-12T13:57:06.000Z</time>
</trkpt>
<trkpt lat="31.1326900" lon="35.3745900">
<ele>-370.931519</ele>
<time>2011-03-12T13:57:16.000Z</time>
</trkpt>
<trkpt lat="31.1330000" lon="35.3744800">
<ele>-370.450928</ele>
<time>2011-03-12T13:57:28.000Z</time>
</trkpt>
<trkpt lat="31.1332500" lon="35.3743800">
<ele>-370.931519</ele>
<time>2011-03-12T13:57:41.000Z</time>
</trkpt>
<trkpt lat="31.1336700" lon="35.3742800">
<ele>-370.450928</ele>
<time>2011-03-12T13:57:57.000Z</time>
</trkpt>
<trkpt lat="31.1340700" lon="35.3741100">
<ele>-373.334839</ele>
<time>2011-03-12T13:58:10.000Z</time>
</trkpt>
<trkpt lat="31.1340900" lon="35.3740800">
<ele>-373.334839</ele>
<time>2011-03-12T13:58:11.000Z</time>
</trkpt>
<trkpt lat="31.1345500" lon="35.3738000">
<ele>-373.815552</ele>
<time>2011-03-12T13:58:27.000Z</time>
</trkpt>
<trkpt lat="31.1352400" lon="35.3735400">
<ele>-374.296143</ele>
<time>2011-03-12T13:58:46.000Z</time>
</trkpt>
<trkpt lat="31.1355200" lon="35.3734200">
<ele>-375.257416</ele>
<time>2011-03-12T13:58:54.000Z</time>
</trkpt>
<trkpt lat="31.1356600" lon="35.3734400">
<ele>-373.815552</ele>
<time>2011-03-12T13:58:58.000Z</time>
</trkpt>
<trkpt lat="31.1357400" lon="35.3735000">
<ele>-371.412231</ele>
<time>2011-03-12T13:59:03.000Z</time>
</trkpt>
<trkpt lat="31.1358000" lon="35.3736300">
<ele>-369.489624</ele>
<time>2011-03-12T13:59:13.000Z</time>
</trkpt>
<trkpt lat="31.1357700" lon="35.3737600">
<ele>-369.008911</ele>
<time>2011-03-12T13:59:21.000Z</time>
</trkpt>
<trkpt lat="31.1358300" lon="35.3738000">
<ele>-369.970337</ele>
<time>2011-03-12T13:59:25.000Z</time>
</trkpt>
<trkpt lat="31.1360500" lon="35.3738600">
<ele>-372.854126</ele>
<time>2011-03-12T13:59:34.000Z</time>
</trkpt>
<trkpt lat="31.1362700" lon="35.3738100">
<ele>-373.815552</ele>
<time>2011-03-12T13:59:40.000Z</time>
</trkpt>
<trkpt lat="31.1367100" lon="35.3737200">
<ele>-375.738159</ele>
<time>2011-03-12T13:59:51.000Z</time>
</trkpt>
<trkpt lat="31.1369400" lon="35.3739400">
<ele>-375.257416</ele>
<time>2011-03-12T14:00:01.000Z</time>
</trkpt>
<trkpt lat="31.1371000" lon="35.3743200">
<ele>-375.738159</ele>
<time>2011-03-12T14:00:14.000Z</time>
</trkpt>
<trkpt lat="31.1373000" lon="35.3746800">
<ele>-375.257416</ele>
<time>2011-03-12T14:00:27.000Z</time>
</trkpt>
<trkpt lat="31.1375800" lon="35.3752500">
<ele>-377.660889</ele>
<time>2011-03-12T14:00:44.000Z</time>
</trkpt>
<trkpt lat="31.1379700" lon="35.3756900">
<ele>-378.622070</ele>
<time>2011-03-12T14:00:59.000Z</time>
</trkpt>
<trkpt lat="31.1380400" lon="35.3757300">
<ele>-378.622070</ele>
<time>2011-03-12T14:01:01.000Z</time>
</trkpt>
<trkpt lat="31.1382200" lon="35.3757300">
<ele>-380.064087</ele>
<time>2011-03-12T14:01:05.000Z</time>
</trkpt>
<trkpt lat="31.1383400" lon="35.3756700">
<ele>-380.064087</ele>
<time>2011-03-12T14:01:08.000Z</time>
</trkpt>
<trkpt lat="31.1386500" lon="35.3754200">
<ele>-382.467285</ele>
<time>2011-03-12T14:01:17.000Z</time>
</trkpt>
<trkpt lat="31.1388100" lon="35.3753600">
<ele>-383.909302</ele>
<time>2011-03-12T14:01:20.000Z</time>
</trkpt>
<trkpt lat="31.1391100" lon="35.3753200">
<ele>-386.793335</ele>
<time>2011-03-12T14:01:25.000Z</time>
</trkpt>
<trkpt lat="31.1395800" lon="35.3753200">
<ele>-390.157837</ele>
<time>2011-03-12T14:01:32.000Z</time>
</trkpt>
<trkpt lat="31.1400200" lon="35.3753500">
<ele>-389.677246</ele>
<time>2011-03-12T14:01:43.000Z</time>
</trkpt>
<trkpt lat="31.1402200" lon="35.3757000">
<ele>-390.157837</ele>
<time>2011-03-12T14:01:55.000Z</time>
</trkpt>
<trkpt lat="31.1403000" lon="35.3758700">
<ele>-390.157837</ele>
<time>2011-03-12T14:02:00.000Z</time>
</trkpt>
<trkpt lat="31.1405400" lon="35.3763800">
<ele>-390.638550</ele>
<time>2011-03-12T14:02:17.000Z</time>
</trkpt>
<trkpt lat="31.1408100" lon="35.3769500">
<ele>-389.677246</ele>
<time>2011-03-12T14:02:37.000Z</time>
</trkpt>
<trkpt lat="31.1408200" lon="35.3770300">
<ele>-389.677246</ele>
<time>2011-03-12T14:02:41.000Z</time>
</trkpt>
<trkpt lat="31.1409700" lon="35.3773700">
<ele>-390.638550</ele>
<time>2011-03-12T14:02:54.000Z</time>
</trkpt>
<trkpt lat="31.1411200" lon="35.3777200">
<ele>-389.677246</ele>
<time>2011-03-12T14:03:07.000Z</time>
</trkpt>
<trkpt lat="31.1411300" lon="35.3777400">
<ele>-390.157837</ele>
<time>2011-03-12T14:03:42.000Z</time>
</trkpt>
<trkpt lat="31.1411300" lon="35.3777700">
<ele>-390.157837</ele>
<time>2011-03-12T14:03:44.000Z</time>
</trkpt>
<trkpt lat="31.1412400" lon="35.3781700">
<ele>-390.638550</ele>
<time>2011-03-12T14:03:57.000Z</time>
</trkpt>
<trkpt lat="31.1414500" lon="35.3788300">
<ele>-390.638550</ele>
<time>2011-03-12T14:04:14.000Z</time>
</trkpt>
<trkpt lat="31.1415300" lon="35.3790000">
<ele>-390.157837</ele>
<time>2011-03-12T14:04:27.000Z</time>
</trkpt>
<trkpt lat="31.1415700" lon="35.3790900">
<ele>-390.638550</ele>
<time>2011-03-12T14:05:10.000Z</time>
</trkpt>
<trkpt lat="31.1418600" lon="35.3794300">
<ele>-391.599823</ele>
<time>2011-03-12T14:05:24.000Z</time>
</trkpt>
<trkpt lat="31.1422000" lon="35.3798000">
<ele>-389.677246</ele>
<time>2011-03-12T14:05:39.000Z</time>
</trkpt>
<trkpt lat="31.1422100" lon="35.3797900">
<ele>-389.196686</ele>
<time>2011-03-12T14:06:05.000Z</time>
</trkpt>
<trkpt lat="31.1422300" lon="35.3798200">
<ele>-388.715942</ele>
<time>2011-03-12T14:06:47.000Z</time>
</trkpt>
<trkpt lat="31.1422700" lon="35.3798900">
<ele>-388.235229</ele>
<time>2011-03-12T14:06:53.000Z</time>
</trkpt>
<trkpt lat="31.1424800" lon="35.3800900">
<ele>-384.870728</ele>
<time>2011-03-12T14:07:11.000Z</time>
</trkpt>
<trkpt lat="31.1424700" lon="35.3800900">
<ele>-385.832031</ele>
<time>2011-03-12T14:08:05.000Z</time>
</trkpt>
<trkpt lat="31.1426300" lon="35.3799700">
<ele>-385.832031</ele>
<time>2011-03-12T14:08:33.000Z</time>
</trkpt>
<trkpt lat="31.1430000" lon="35.3795400">
<ele>-385.832031</ele>
<time>2011-03-12T14:08:49.000Z</time>
</trkpt>
<trkpt lat="31.1433300" lon="35.3791900">
<ele>-386.312592</ele>
<time>2011-03-12T14:09:04.000Z</time>
</trkpt>
<trkpt lat="31.1437900" lon="35.3786900">
<ele>-385.832031</ele>
<time>2011-03-12T14:09:23.000Z</time>
</trkpt>
<trkpt lat="31.1443100" lon="35.3781400">
<ele>-385.832031</ele>
<time>2011-03-12T14:09:45.000Z</time>
</trkpt>
<trkpt lat="31.1447900" lon="35.3775900">
<ele>-385.832031</ele>
<time>2011-03-12T14:10:04.000Z</time>
</trkpt>
<trkpt lat="31.1452000" lon="35.3771700">
<ele>-384.870728</ele>
<time>2011-03-12T14:10:23.000Z</time>
</trkpt>
<trkpt lat="31.1454500" lon="35.3769000">
<ele>-385.351440</ele>
<time>2011-03-12T14:10:38.000Z</time>
</trkpt>
<trkpt lat="31.1456400" lon="35.3763700">
<ele>-385.351440</ele>
<time>2011-03-12T14:10:55.000Z</time>
</trkpt>
<trkpt lat="31.1456500" lon="35.3756900">
<ele>-384.390015</ele>
<time>2011-03-12T14:11:15.000Z</time>
</trkpt>
<trkpt lat="31.1456800" lon="35.3751800">
<ele>-383.428711</ele>
<time>2011-03-12T14:11:34.000Z</time>
</trkpt>
<trkpt lat="31.1456800" lon="35.3751900">
<ele>-383.909302</ele>
<time>2011-03-12T14:13:09.000Z</time>
</trkpt>
<trkpt lat="31.1456900" lon="35.3752000">
<ele>-384.390015</ele>
<time>2011-03-12T14:13:50.000Z</time>
</trkpt>
<trkpt lat="31.1456700" lon="35.3750500">
<ele>-384.870728</ele>
<time>2011-03-12T14:16:02.000Z</time>
</trkpt>
<trkpt lat="31.1456800" lon="35.3744100">
<ele>-384.870728</ele>
<time>2011-03-12T14:16:20.000Z</time>
</trkpt>
<trkpt lat="31.1456900" lon="35.3737000">
<ele>-385.351440</ele>
<time>2011-03-12T14:16:39.000Z</time>
</trkpt>
<trkpt lat="31.1457100" lon="35.3729200">
<ele>-384.870728</ele>
<time>2011-03-12T14:17:02.000Z</time>
</trkpt>
<trkpt lat="31.1457200" lon="35.3723000">
<ele>-384.870728</ele>
<time>2011-03-12T14:17:21.000Z</time>
</trkpt>
<trkpt lat="31.1457300" lon="35.3714100">
<ele>-384.390015</ele>
<time>2011-03-12T14:17:46.000Z</time>
</trkpt>
<trkpt lat="31.1457400" lon="35.3705400">
<ele>-384.390015</ele>
<time>2011-03-12T14:18:11.000Z</time>
</trkpt>
<trkpt lat="31.1457600" lon="35.3700200">
<ele>-385.351440</ele>
<time>2011-03-12T14:18:26.000Z</time>
</trkpt>
<trkpt lat="31.1457600" lon="35.3695000">
<ele>-385.351440</ele>
<time>2011-03-12T14:18:42.000Z</time>
</trkpt>
<trkpt lat="31.1458700" lon="35.3694800">
<ele>-386.793335</ele>
<time>2011-03-12T14:18:49.000Z</time>
</trkpt>
<trkpt lat="31.1462900" lon="35.3698100">
<ele>-388.235229</ele>
<time>2011-03-12T14:19:06.000Z</time>
</trkpt>
<trkpt lat="31.1467300" lon="35.3697700">
<ele>-389.196686</ele>
<time>2011-03-12T14:19:20.000Z</time>
</trkpt>
<trkpt lat="31.1471100" lon="35.3695900">
<ele>-388.715942</ele>
<time>2011-03-12T14:19:33.000Z</time>
</trkpt>
<trkpt lat="31.1474500" lon="35.3696500">
<ele>-390.638550</ele>
<time>2011-03-12T14:19:45.000Z</time>
</trkpt>
<trkpt lat="31.1477000" lon="35.3697600">
<ele>-390.638550</ele>
<time>2011-03-12T14:19:51.000Z</time>
</trkpt>
<trkpt lat="31.1479000" lon="35.3697800">
<ele>-390.157837</ele>
<time>2011-03-12T14:19:56.000Z</time>
</trkpt>
<trkpt lat="31.1482600" lon="35.3698600">
<ele>-389.677246</ele>
<time>2011-03-12T14:20:09.000Z</time>
</trkpt>
<trkpt lat="31.1483700" lon="35.3699300">
<ele>-389.677246</ele>
<time>2011-03-12T14:20:21.000Z</time>
</trkpt>
<trkpt lat="31.1483700" lon="35.3699300">
<ele>-389.196686</ele>
<time>2011-03-12T14:21:04.000Z</time>
</trkpt>
</trkseg>
<trkseg>
<trkpt lat="31.1483700" lon="35.3699300">
<ele>-389.196686</ele>
<time>2011-03-13T05:11:14.000Z</time>
</trkpt>
<trkpt lat="31.1483700" lon="35.3699300">
<ele>-389.196686</ele>
<time>2011-03-13T05:11:15.000Z</time>
</trkpt>
</trkseg>
</trk>
</gpx>
